<?xml version="1.0" encoding="UTF-8" standalone="no" ?>
<gpx xmlns="http://www.topografix.com/GPX/1/1" xmlns:xsi="http://www.w3.org/2001/XMLSchema-instance" xsi:schemaLocation="http://www.topografix.com/GPX/1/1 http://www.topografix.com/GPX/1/1/gpx.xsd" version="1.1" creator="VisuGPX - https://www.visugpx.com">
  <metadata>
    <name>Forêt de Saint Lambert</name>
    <desc><![CDATA[faite le 20 janvier 2022]]></desc>
  </metadata>
  <trk>
    <name><![CDATA[2022-01-20 15:43:45]]></name>
    <extensions>
      <line xmlns="http://www.topografix.com/GPX/gpx_style/0/2">
        <color>0000FF</color>
        <width>4</width>
      </line>
    </extensions>
    <trkseg>
      <trkpt lat="43.99753" lon="5.28652">
        <ele>756.1</ele>
        <time>2022-01-20T08:23:00Z</time>
      </trkpt>
      <trkpt lat="43.9975" lon="5.28637">
        <ele>756</ele>
        <time>2022-01-20T08:23:15Z</time>
      </trkpt>
      <trkpt lat="43.99752" lon="5.28621">
        <ele>756</ele>
        <time>2022-01-20T08:23:35Z</time>
      </trkpt>
      <trkpt lat="43.99751" lon="5.28617">
        <ele>756</ele>
        <time>2022-01-20T08:24:00Z</time>
      </trkpt>
      <trkpt lat="43.99748" lon="5.28624">
        <ele>756</ele>
        <time>2022-01-20T08:24:21Z</time>
      </trkpt>
      <trkpt lat="43.99748" lon="5.28617">
        <ele>756</ele>
        <time>2022-01-20T08:24:37Z</time>
      </trkpt>
      <trkpt lat="43.99753" lon="5.28614">
        <ele>755.9</ele>
        <time>2022-01-20T08:24:49Z</time>
      </trkpt>
      <trkpt lat="43.99754" lon="5.2861">
        <ele>755.9</ele>
        <time>2022-01-20T08:24:52Z</time>
      </trkpt>
      <trkpt lat="43.99761" lon="5.28604">
        <ele>755.9</ele>
        <time>2022-01-20T08:25:09Z</time>
      </trkpt>
      <trkpt lat="43.99772" lon="5.28602">
        <ele>755.5</ele>
        <time>2022-01-20T08:25:26Z</time>
      </trkpt>
      <trkpt lat="43.99773" lon="5.28603">
        <ele>755.5</ele>
        <time>2022-01-20T08:25:27Z</time>
      </trkpt>
      <trkpt lat="43.99789" lon="5.28598">
        <ele>754.5</ele>
        <time>2022-01-20T08:25:43Z</time>
      </trkpt>
      <trkpt lat="43.99797" lon="5.28587">
        <ele>753.9</ele>
        <time>2022-01-20T08:25:55Z</time>
      </trkpt>
      <trkpt lat="43.99802" lon="5.2858">
        <ele>753.4</ele>
        <time>2022-01-20T08:26:02Z</time>
      </trkpt>
      <trkpt lat="43.99816" lon="5.2856">
        <ele>751.5</ele>
        <time>2022-01-20T08:26:19Z</time>
      </trkpt>
      <trkpt lat="43.9982" lon="5.28547">
        <ele>750.8</ele>
        <time>2022-01-20T08:26:30Z</time>
      </trkpt>
      <trkpt lat="43.99832" lon="5.28537">
        <ele>749.2</ele>
        <time>2022-01-20T08:26:41Z</time>
      </trkpt>
      <trkpt lat="43.99841" lon="5.28528">
        <ele>747.6</ele>
        <time>2022-01-20T08:26:54Z</time>
      </trkpt>
      <trkpt lat="43.99845" lon="5.28526">
        <ele>746.8</ele>
        <time>2022-01-20T08:26:58Z</time>
      </trkpt>
      <trkpt lat="43.99859" lon="5.28515">
        <ele>744.3</ele>
        <time>2022-01-20T08:27:10Z</time>
      </trkpt>
      <trkpt lat="43.99862" lon="5.2851">
        <ele>743.8</ele>
        <time>2022-01-20T08:27:20Z</time>
      </trkpt>
      <trkpt lat="43.99869" lon="5.28501">
        <ele>742.6</ele>
        <time>2022-01-20T08:27:31Z</time>
      </trkpt>
      <trkpt lat="43.99871" lon="5.28498">
        <ele>742.1</ele>
        <time>2022-01-20T08:27:38Z</time>
      </trkpt>
      <trkpt lat="43.99875" lon="5.28493">
        <ele>741.2</ele>
        <time>2022-01-20T08:27:41Z</time>
      </trkpt>
      <trkpt lat="43.99879" lon="5.28488">
        <ele>740.5</ele>
        <time>2022-01-20T08:27:46Z</time>
      </trkpt>
      <trkpt lat="43.99881" lon="5.2848">
        <ele>740</ele>
        <time>2022-01-20T08:27:55Z</time>
      </trkpt>
      <trkpt lat="43.99884" lon="5.28476">
        <ele>739.6</ele>
        <time>2022-01-20T08:27:59Z</time>
      </trkpt>
      <trkpt lat="43.99886" lon="5.28471">
        <ele>739.1</ele>
        <time>2022-01-20T08:28:07Z</time>
      </trkpt>
      <trkpt lat="43.99891" lon="5.28462">
        <ele>737.3</ele>
        <time>2022-01-20T08:28:12Z</time>
      </trkpt>
      <trkpt lat="43.99895" lon="5.2846">
        <ele>736.5</ele>
        <time>2022-01-20T08:28:17Z</time>
      </trkpt>
      <trkpt lat="43.99898" lon="5.2846">
        <ele>736.2</ele>
        <time>2022-01-20T08:28:20Z</time>
      </trkpt>
      <trkpt lat="43.99904" lon="5.28457">
        <ele>735.3</ele>
        <time>2022-01-20T08:28:24Z</time>
      </trkpt>
      <trkpt lat="43.99906" lon="5.28459">
        <ele>735.2</ele>
        <time>2022-01-20T08:28:33Z</time>
      </trkpt>
      <trkpt lat="43.9992" lon="5.28452">
        <ele>733.4</ele>
        <time>2022-01-20T08:28:47Z</time>
      </trkpt>
      <trkpt lat="43.99923" lon="5.28446">
        <ele>733</ele>
        <time>2022-01-20T08:28:54Z</time>
      </trkpt>
      <trkpt lat="43.9993" lon="5.28438">
        <ele>731.5</ele>
        <time>2022-01-20T08:29:02Z</time>
      </trkpt>
      <trkpt lat="43.99941" lon="5.28426">
        <ele>729.6</ele>
        <time>2022-01-20T08:29:18Z</time>
      </trkpt>
      <trkpt lat="43.9995" lon="5.2842">
        <ele>728.6</ele>
        <time>2022-01-20T08:29:32Z</time>
      </trkpt>
      <trkpt lat="43.99968" lon="5.28406">
        <ele>726.7</ele>
        <time>2022-01-20T08:29:50Z</time>
      </trkpt>
      <trkpt lat="43.99974" lon="5.28396">
        <ele>726</ele>
        <time>2022-01-20T08:30:04Z</time>
      </trkpt>
      <trkpt lat="43.99975" lon="5.2839">
        <ele>725.7</ele>
        <time>2022-01-20T08:30:09Z</time>
      </trkpt>
      <trkpt lat="43.99991" lon="5.28377">
        <ele>723</ele>
        <time>2022-01-20T08:30:25Z</time>
      </trkpt>
      <trkpt lat="44" lon="5.28371">
        <ele>722.4</ele>
        <time>2022-01-20T08:30:39Z</time>
      </trkpt>
      <trkpt lat="44.00011" lon="5.28359">
        <ele>720.2</ele>
        <time>2022-01-20T08:30:55Z</time>
      </trkpt>
      <trkpt lat="44.00023" lon="5.28338">
        <ele>718.1</ele>
        <time>2022-01-20T08:31:12Z</time>
      </trkpt>
      <trkpt lat="44.00033" lon="5.28321">
        <ele>715.8</ele>
        <time>2022-01-20T08:31:27Z</time>
      </trkpt>
      <trkpt lat="44.00041" lon="5.28305">
        <ele>713.5</ele>
        <time>2022-01-20T08:31:42Z</time>
      </trkpt>
      <trkpt lat="44.00057" lon="5.28287">
        <ele>710.4</ele>
        <time>2022-01-20T08:32:04Z</time>
      </trkpt>
      <trkpt lat="44.00072" lon="5.28276">
        <ele>707.5</ele>
        <time>2022-01-20T08:32:21Z</time>
      </trkpt>
      <trkpt lat="44.00082" lon="5.28266">
        <ele>705.3</ele>
        <time>2022-01-20T08:32:37Z</time>
      </trkpt>
      <trkpt lat="44.0009" lon="5.28247">
        <ele>702.4</ele>
        <time>2022-01-20T08:32:55Z</time>
      </trkpt>
      <trkpt lat="44.001" lon="5.28232">
        <ele>699.2</ele>
        <time>2022-01-20T08:33:09Z</time>
      </trkpt>
      <trkpt lat="44.0011" lon="5.28223">
        <ele>697.2</ele>
        <time>2022-01-20T08:33:28Z</time>
      </trkpt>
      <trkpt lat="44.00133" lon="5.28212">
        <ele>692.6</ele>
        <time>2022-01-20T08:33:42Z</time>
      </trkpt>
      <trkpt lat="44.00139" lon="5.28214">
        <ele>691.7</ele>
        <time>2022-01-20T08:33:57Z</time>
      </trkpt>
      <trkpt lat="44.00152" lon="5.28214">
        <ele>688.9</ele>
        <time>2022-01-20T08:34:14Z</time>
      </trkpt>
      <trkpt lat="44.00164" lon="5.28206">
        <ele>686</ele>
        <time>2022-01-20T08:34:31Z</time>
      </trkpt>
      <trkpt lat="44.00171" lon="5.28191">
        <ele>683.8</ele>
        <time>2022-01-20T08:34:48Z</time>
      </trkpt>
      <trkpt lat="44.00177" lon="5.28172">
        <ele>681.5</ele>
        <time>2022-01-20T08:35:07Z</time>
      </trkpt>
      <trkpt lat="44.00177" lon="5.28154">
        <ele>679.9</ele>
        <time>2022-01-20T08:35:22Z</time>
      </trkpt>
      <trkpt lat="44.00181" lon="5.28149">
        <ele>678.8</ele>
        <time>2022-01-20T08:35:30Z</time>
      </trkpt>
      <trkpt lat="44.0019" lon="5.28149">
        <ele>677.4</ele>
        <time>2022-01-20T08:35:44Z</time>
      </trkpt>
      <trkpt lat="44.00207" lon="5.28147">
        <ele>674.5</ele>
        <time>2022-01-20T08:36:04Z</time>
      </trkpt>
      <trkpt lat="44.00225" lon="5.28148">
        <ele>671.5</ele>
        <time>2022-01-20T08:36:23Z</time>
      </trkpt>
      <trkpt lat="44.00236" lon="5.2813">
        <ele>669.9</ele>
        <time>2022-01-20T08:36:41Z</time>
      </trkpt>
      <trkpt lat="44.00249" lon="5.28112">
        <ele>668.1</ele>
        <time>2022-01-20T08:37:00Z</time>
      </trkpt>
      <trkpt lat="44.00261" lon="5.28099">
        <ele>666.4</ele>
        <time>2022-01-20T08:37:17Z</time>
      </trkpt>
      <trkpt lat="44.00272" lon="5.28099">
        <ele>665.2</ele>
        <time>2022-01-20T08:37:29Z</time>
      </trkpt>
      <trkpt lat="44.00284" lon="5.28109">
        <ele>664.1</ele>
        <time>2022-01-20T08:37:44Z</time>
      </trkpt>
      <trkpt lat="44.00285" lon="5.28124">
        <ele>662.2</ele>
        <time>2022-01-20T08:37:58Z</time>
      </trkpt>
      <trkpt lat="44.00278" lon="5.28133">
        <ele>662.6</ele>
        <time>2022-01-20T08:38:06Z</time>
      </trkpt>
      <trkpt lat="44.00268" lon="5.28144">
        <ele>663</ele>
        <time>2022-01-20T08:38:18Z</time>
      </trkpt>
      <trkpt lat="44.00262" lon="5.2816">
        <ele>661.4</ele>
        <time>2022-01-20T08:38:33Z</time>
      </trkpt>
      <trkpt lat="44.00247" lon="5.28183">
        <ele>661.7</ele>
        <time>2022-01-20T08:38:54Z</time>
      </trkpt>
      <trkpt lat="44.0024" lon="5.28208">
        <ele>659.8</ele>
        <time>2022-01-20T08:39:11Z</time>
      </trkpt>
      <trkpt lat="44.00228" lon="5.28238">
        <ele>659.6</ele>
        <time>2022-01-20T08:39:33Z</time>
      </trkpt>
      <trkpt lat="44.00219" lon="5.28274">
        <ele>657.9</ele>
        <time>2022-01-20T08:39:58Z</time>
      </trkpt>
      <trkpt lat="44.00208" lon="5.2831">
        <ele>659.4</ele>
        <time>2022-01-20T08:40:24Z</time>
      </trkpt>
      <trkpt lat="44.00209" lon="5.28324">
        <ele>660.3</ele>
        <time>2022-01-20T08:40:41Z</time>
      </trkpt>
      <trkpt lat="44.0021" lon="5.28322">
        <ele>660</ele>
        <time>2022-01-20T08:40:43Z</time>
      </trkpt>
      <trkpt lat="44.00216" lon="5.28305">
        <ele>656.3</ele>
        <time>2022-01-20T08:40:56Z</time>
      </trkpt>
      <trkpt lat="44.00218" lon="5.28302">
        <ele>655.8</ele>
        <time>2022-01-20T08:40:59Z</time>
      </trkpt>
      <trkpt lat="44.0022" lon="5.28296">
        <ele>655.5</ele>
        <time>2022-01-20T08:41:04Z</time>
      </trkpt>
      <trkpt lat="44.00227" lon="5.28287">
        <ele>655.2</ele>
        <time>2022-01-20T08:41:14Z</time>
      </trkpt>
      <trkpt lat="44.0024" lon="5.28271">
        <ele>652.7</ele>
        <time>2022-01-20T08:41:29Z</time>
      </trkpt>
      <trkpt lat="44.00251" lon="5.28257">
        <ele>648.8</ele>
        <time>2022-01-20T08:41:43Z</time>
      </trkpt>
      <trkpt lat="44.0026" lon="5.28244">
        <ele>648.4</ele>
        <time>2022-01-20T08:41:56Z</time>
      </trkpt>
      <trkpt lat="44.00267" lon="5.28234">
        <ele>647.4</ele>
        <time>2022-01-20T08:42:12Z</time>
      </trkpt>
      <trkpt lat="44.00277" lon="5.28225">
        <ele>643.8</ele>
        <time>2022-01-20T08:42:26Z</time>
      </trkpt>
      <trkpt lat="44.00291" lon="5.28221">
        <ele>642.5</ele>
        <time>2022-01-20T08:42:41Z</time>
      </trkpt>
      <trkpt lat="44.00311" lon="5.28211">
        <ele>639.7</ele>
        <time>2022-01-20T08:43:05Z</time>
      </trkpt>
      <trkpt lat="44.00329" lon="5.28203">
        <ele>636.1</ele>
        <time>2022-01-20T08:43:25Z</time>
      </trkpt>
      <trkpt lat="44.00345" lon="5.28206">
        <ele>634.1</ele>
        <time>2022-01-20T08:43:40Z</time>
      </trkpt>
      <trkpt lat="44.00362" lon="5.28224">
        <ele>629.4</ele>
        <time>2022-01-20T08:44:03Z</time>
      </trkpt>
      <trkpt lat="44.00375" lon="5.28241">
        <ele>629.5</ele>
        <time>2022-01-20T08:44:20Z</time>
      </trkpt>
      <trkpt lat="44.00393" lon="5.28256">
        <ele>625.4</ele>
        <time>2022-01-20T08:44:42Z</time>
      </trkpt>
      <trkpt lat="44.00408" lon="5.28263">
        <ele>624.6</ele>
        <time>2022-01-20T08:44:59Z</time>
      </trkpt>
      <trkpt lat="44.00432" lon="5.28266">
        <ele>621.6</ele>
        <time>2022-01-20T08:45:21Z</time>
      </trkpt>
      <trkpt lat="44.00447" lon="5.28264">
        <ele>619.2</ele>
        <time>2022-01-20T08:45:35Z</time>
      </trkpt>
      <trkpt lat="44.00462" lon="5.28264">
        <ele>617.3</ele>
        <time>2022-01-20T08:45:50Z</time>
      </trkpt>
      <trkpt lat="44.00475" lon="5.28264">
        <ele>616.2</ele>
        <time>2022-01-20T08:46:04Z</time>
      </trkpt>
      <trkpt lat="44.00492" lon="5.28254">
        <ele>611.5</ele>
        <time>2022-01-20T08:46:22Z</time>
      </trkpt>
      <trkpt lat="44.005" lon="5.28247">
        <ele>609</ele>
        <time>2022-01-20T08:46:32Z</time>
      </trkpt>
      <trkpt lat="44.00514" lon="5.28227">
        <ele>609.5</ele>
        <time>2022-01-20T08:46:51Z</time>
      </trkpt>
      <trkpt lat="44.00526" lon="5.28208">
        <ele>605.4</ele>
        <time>2022-01-20T08:47:08Z</time>
      </trkpt>
      <trkpt lat="44.00544" lon="5.28187">
        <ele>604</ele>
        <time>2022-01-20T08:47:28Z</time>
      </trkpt>
      <trkpt lat="44.00561" lon="5.2817">
        <ele>600.1</ele>
        <time>2022-01-20T08:47:48Z</time>
      </trkpt>
      <trkpt lat="44.00576" lon="5.2815">
        <ele>598.3</ele>
        <time>2022-01-20T08:48:08Z</time>
      </trkpt>
      <trkpt lat="44.00588" lon="5.2814">
        <ele>594.9</ele>
        <time>2022-01-20T08:48:22Z</time>
      </trkpt>
      <trkpt lat="44.00593" lon="5.28131">
        <ele>595.1</ele>
        <time>2022-01-20T08:48:29Z</time>
      </trkpt>
      <trkpt lat="44.00611" lon="5.2812">
        <ele>592.3</ele>
        <time>2022-01-20T08:48:47Z</time>
      </trkpt>
      <trkpt lat="44.00629" lon="5.28114">
        <ele>589.4</ele>
        <time>2022-01-20T08:49:05Z</time>
      </trkpt>
      <trkpt lat="44.00641" lon="5.28109">
        <ele>587.7</ele>
        <time>2022-01-20T08:49:18Z</time>
      </trkpt>
      <trkpt lat="44.00646" lon="5.28107">
        <ele>586.8</ele>
        <time>2022-01-20T08:49:23Z</time>
      </trkpt>
      <trkpt lat="44.0066" lon="5.28115">
        <ele>585.2</ele>
        <time>2022-01-20T08:49:37Z</time>
      </trkpt>
      <trkpt lat="44.00673" lon="5.28118">
        <ele>583.7</ele>
        <time>2022-01-20T08:49:52Z</time>
      </trkpt>
      <trkpt lat="44.00678" lon="5.28111">
        <ele>581.4</ele>
        <time>2022-01-20T08:50:04Z</time>
      </trkpt>
      <trkpt lat="44.00676" lon="5.28103">
        <ele>581.3</ele>
        <time>2022-01-20T08:50:20Z</time>
      </trkpt>
      <trkpt lat="44.00675" lon="5.28102">
        <ele>581.4</ele>
        <time>2022-01-20T08:50:41Z</time>
      </trkpt>
      <trkpt lat="44.00673" lon="5.28102">
        <ele>581.7</ele>
        <time>2022-01-20T08:51:09Z</time>
      </trkpt>
      <trkpt lat="44.00672" lon="5.28101">
        <ele>581.8</ele>
        <time>2022-01-20T08:52:04Z</time>
      </trkpt>
      <trkpt lat="44.00671" lon="5.28089">
        <ele>581.5</ele>
        <time>2022-01-20T08:52:20Z</time>
      </trkpt>
      <trkpt lat="44.00671" lon="5.28088">
        <ele>581.4</ele>
        <time>2022-01-20T08:52:21Z</time>
      </trkpt>
      <trkpt lat="44.0067" lon="5.28064">
        <ele>580.9</ele>
        <time>2022-01-20T08:52:38Z</time>
      </trkpt>
      <trkpt lat="44.0067" lon="5.28043">
        <ele>580.7</ele>
        <time>2022-01-20T08:52:53Z</time>
      </trkpt>
      <trkpt lat="44.00669" lon="5.28018">
        <ele>580.2</ele>
        <time>2022-01-20T08:53:10Z</time>
      </trkpt>
      <trkpt lat="44.00666" lon="5.2799">
        <ele>578.4</ele>
        <time>2022-01-20T08:53:29Z</time>
      </trkpt>
      <trkpt lat="44.00656" lon="5.27959">
        <ele>578.1</ele>
        <time>2022-01-20T08:53:52Z</time>
      </trkpt>
      <trkpt lat="44.00645" lon="5.27932">
        <ele>577.3</ele>
        <time>2022-01-20T08:54:11Z</time>
      </trkpt>
      <trkpt lat="44.0063" lon="5.27896">
        <ele>576.4</ele>
        <time>2022-01-20T08:54:37Z</time>
      </trkpt>
      <trkpt lat="44.0062" lon="5.27867">
        <ele>575.8</ele>
        <time>2022-01-20T08:54:58Z</time>
      </trkpt>
      <trkpt lat="44.00614" lon="5.27844">
        <ele>575.3</ele>
        <time>2022-01-20T08:55:13Z</time>
      </trkpt>
      <trkpt lat="44.00609" lon="5.27817">
        <ele>575</ele>
        <time>2022-01-20T08:55:30Z</time>
      </trkpt>
      <trkpt lat="44.00605" lon="5.27788">
        <ele>574.5</ele>
        <time>2022-01-20T08:55:48Z</time>
      </trkpt>
      <trkpt lat="44.006" lon="5.27746">
        <ele>573.1</ele>
        <time>2022-01-20T08:56:13Z</time>
      </trkpt>
      <trkpt lat="44.00597" lon="5.27716">
        <ele>572.3</ele>
        <time>2022-01-20T08:56:32Z</time>
      </trkpt>
      <trkpt lat="44.00594" lon="5.27691">
        <ele>571.8</ele>
        <time>2022-01-20T08:56:48Z</time>
      </trkpt>
      <trkpt lat="44.0059" lon="5.27657">
        <ele>571.9</ele>
        <time>2022-01-20T08:57:09Z</time>
      </trkpt>
      <trkpt lat="44.00591" lon="5.27622">
        <ele>570.6</ele>
        <time>2022-01-20T08:57:30Z</time>
      </trkpt>
      <trkpt lat="44.00592" lon="5.27605">
        <ele>569.9</ele>
        <time>2022-01-20T08:57:40Z</time>
      </trkpt>
      <trkpt lat="44.00593" lon="5.27598">
        <ele>569.6</ele>
        <time>2022-01-20T08:57:44Z</time>
      </trkpt>
      <trkpt lat="44.00596" lon="5.27583">
        <ele>569.1</ele>
        <time>2022-01-20T08:58:00Z</time>
      </trkpt>
      <trkpt lat="44.00602" lon="5.27568">
        <ele>568.7</ele>
        <time>2022-01-20T08:59:04Z</time>
      </trkpt>
      <trkpt lat="44.00612" lon="5.27544">
        <ele>568.4</ele>
        <time>2022-01-20T08:59:22Z</time>
      </trkpt>
      <trkpt lat="44.00627" lon="5.27533">
        <ele>567.7</ele>
        <time>2022-01-20T08:59:37Z</time>
      </trkpt>
      <trkpt lat="44.00648" lon="5.27527">
        <ele>566.8</ele>
        <time>2022-01-20T08:59:57Z</time>
      </trkpt>
      <trkpt lat="44.00665" lon="5.27529">
        <ele>566</ele>
        <time>2022-01-20T09:00:12Z</time>
      </trkpt>
      <trkpt lat="44.00678" lon="5.27533">
        <ele>566.2</ele>
        <time>2022-01-20T09:00:24Z</time>
      </trkpt>
      <trkpt lat="44.00699" lon="5.27538">
        <ele>566.1</ele>
        <time>2022-01-20T09:00:40Z</time>
      </trkpt>
      <trkpt lat="44.00729" lon="5.27547">
        <ele>564.3</ele>
        <time>2022-01-20T09:01:04Z</time>
      </trkpt>
      <trkpt lat="44.00749" lon="5.27551">
        <ele>564.3</ele>
        <time>2022-01-20T09:01:21Z</time>
      </trkpt>
      <trkpt lat="44.00773" lon="5.27552">
        <ele>564.9</ele>
        <time>2022-01-20T09:01:41Z</time>
      </trkpt>
      <trkpt lat="44.00788" lon="5.27557">
        <ele>564.1</ele>
        <time>2022-01-20T09:01:56Z</time>
      </trkpt>
      <trkpt lat="44.00809" lon="5.27572">
        <ele>562.4</ele>
        <time>2022-01-20T09:02:17Z</time>
      </trkpt>
      <trkpt lat="44.00824" lon="5.27587">
        <ele>561.9</ele>
        <time>2022-01-20T09:02:34Z</time>
      </trkpt>
      <trkpt lat="44.00838" lon="5.276">
        <ele>562.4</ele>
        <time>2022-01-20T09:02:51Z</time>
      </trkpt>
      <trkpt lat="44.00838" lon="5.27606">
        <ele>562.6</ele>
        <time>2022-01-20T09:03:04Z</time>
      </trkpt>
      <trkpt lat="44.00837" lon="5.27606">
        <ele>562.7</ele>
        <time>2022-01-20T09:03:47Z</time>
      </trkpt>
      <trkpt lat="44.0085" lon="5.27607">
        <ele>562.3</ele>
        <time>2022-01-20T09:04:01Z</time>
      </trkpt>
      <trkpt lat="44.00857" lon="5.27612">
        <ele>562.1</ele>
        <time>2022-01-20T09:04:21Z</time>
      </trkpt>
      <trkpt lat="44.00857" lon="5.27606">
        <ele>562</ele>
        <time>2022-01-20T09:04:55Z</time>
      </trkpt>
      <trkpt lat="44.00859" lon="5.27608">
        <ele>562</ele>
        <time>2022-01-20T09:05:25Z</time>
      </trkpt>
      <trkpt lat="44.0086" lon="5.27606">
        <ele>561.9</ele>
        <time>2022-01-20T09:05:45Z</time>
      </trkpt>
      <trkpt lat="44.00868" lon="5.27615">
        <ele>561.5</ele>
        <time>2022-01-20T09:06:20Z</time>
      </trkpt>
      <trkpt lat="44.00871" lon="5.2762">
        <ele>561.4</ele>
        <time>2022-01-20T09:06:32Z</time>
      </trkpt>
      <trkpt lat="44.00874" lon="5.27623">
        <ele>561.3</ele>
        <time>2022-01-20T09:06:44Z</time>
      </trkpt>
      <trkpt lat="44.00881" lon="5.27633">
        <ele>561.1</ele>
        <time>2022-01-20T09:07:50Z</time>
      </trkpt>
      <trkpt lat="44.00882" lon="5.27634">
        <ele>561.1</ele>
        <time>2022-01-20T09:07:51Z</time>
      </trkpt>
      <trkpt lat="44.00895" lon="5.2765">
        <ele>560.3</ele>
        <time>2022-01-20T09:08:07Z</time>
      </trkpt>
      <trkpt lat="44.00907" lon="5.27661">
        <ele>559.9</ele>
        <time>2022-01-20T09:08:20Z</time>
      </trkpt>
      <trkpt lat="44.00922" lon="5.27675">
        <ele>558.8</ele>
        <time>2022-01-20T09:08:36Z</time>
      </trkpt>
      <trkpt lat="44.00935" lon="5.27692">
        <ele>557.5</ele>
        <time>2022-01-20T09:08:53Z</time>
      </trkpt>
      <trkpt lat="44.00939" lon="5.27697">
        <ele>557.2</ele>
        <time>2022-01-20T09:08:58Z</time>
      </trkpt>
      <trkpt lat="44.00942" lon="5.277">
        <ele>556.8</ele>
        <time>2022-01-20T09:09:02Z</time>
      </trkpt>
      <trkpt lat="44.00964" lon="5.27718">
        <ele>555.4</ele>
        <time>2022-01-20T09:09:25Z</time>
      </trkpt>
      <trkpt lat="44.0098" lon="5.27735">
        <ele>554.7</ele>
        <time>2022-01-20T09:09:43Z</time>
      </trkpt>
      <trkpt lat="44.00983" lon="5.27739">
        <ele>554.4</ele>
        <time>2022-01-20T09:09:46Z</time>
      </trkpt>
      <trkpt lat="44.00996" lon="5.27759">
        <ele>552.9</ele>
        <time>2022-01-20T09:10:03Z</time>
      </trkpt>
      <trkpt lat="44.0101" lon="5.27769">
        <ele>552.3</ele>
        <time>2022-01-20T09:10:17Z</time>
      </trkpt>
      <trkpt lat="44.01016" lon="5.27771">
        <ele>552.3</ele>
        <time>2022-01-20T09:10:23Z</time>
      </trkpt>
      <trkpt lat="44.01027" lon="5.27784">
        <ele>551.5</ele>
        <time>2022-01-20T09:10:37Z</time>
      </trkpt>
      <trkpt lat="44.01051" lon="5.27794">
        <ele>549.6</ele>
        <time>2022-01-20T09:10:57Z</time>
      </trkpt>
      <trkpt lat="44.01064" lon="5.27803">
        <ele>549.6</ele>
        <time>2022-01-20T09:11:09Z</time>
      </trkpt>
      <trkpt lat="44.01083" lon="5.27809">
        <ele>551.3</ele>
        <time>2022-01-20T09:11:24Z</time>
      </trkpt>
      <trkpt lat="44.011" lon="5.27807">
        <ele>553.7</ele>
        <time>2022-01-20T09:11:37Z</time>
      </trkpt>
      <trkpt lat="44.01102" lon="5.27805">
        <ele>553.7</ele>
        <time>2022-01-20T09:11:39Z</time>
      </trkpt>
      <trkpt lat="44.01115" lon="5.27785">
        <ele>556.2</ele>
        <time>2022-01-20T09:11:56Z</time>
      </trkpt>
      <trkpt lat="44.01121" lon="5.2777">
        <ele>557.8</ele>
        <time>2022-01-20T09:12:06Z</time>
      </trkpt>
      <trkpt lat="44.01122" lon="5.27745">
        <ele>558.9</ele>
        <time>2022-01-20T09:12:24Z</time>
      </trkpt>
      <trkpt lat="44.01121" lon="5.27721">
        <ele>559.3</ele>
        <time>2022-01-20T09:12:41Z</time>
      </trkpt>
      <trkpt lat="44.01119" lon="5.27694">
        <ele>561.9</ele>
        <time>2022-01-20T09:12:59Z</time>
      </trkpt>
      <trkpt lat="44.01116" lon="5.27666">
        <ele>563.2</ele>
        <time>2022-01-20T09:13:18Z</time>
      </trkpt>
      <trkpt lat="44.01118" lon="5.27663">
        <ele>563.2</ele>
        <time>2022-01-20T09:13:22Z</time>
      </trkpt>
      <trkpt lat="44.01132" lon="5.27666">
        <ele>563.7</ele>
        <time>2022-01-20T09:13:35Z</time>
      </trkpt>
      <trkpt lat="44.01149" lon="5.27678">
        <ele>564.3</ele>
        <time>2022-01-20T09:13:51Z</time>
      </trkpt>
      <trkpt lat="44.01163" lon="5.27686">
        <ele>565.2</ele>
        <time>2022-01-20T09:14:06Z</time>
      </trkpt>
      <trkpt lat="44.01176" lon="5.27693">
        <ele>566.2</ele>
        <time>2022-01-20T09:14:18Z</time>
      </trkpt>
      <trkpt lat="44.01176" lon="5.27694">
        <ele>566.3</ele>
        <time>2022-01-20T09:14:19Z</time>
      </trkpt>
      <trkpt lat="44.0118" lon="5.27697">
        <ele>566.7</ele>
        <time>2022-01-20T09:14:23Z</time>
      </trkpt>
      <trkpt lat="44.01194" lon="5.27707">
        <ele>568.3</ele>
        <time>2022-01-20T09:14:37Z</time>
      </trkpt>
      <trkpt lat="44.01208" lon="5.27712">
        <ele>568.7</ele>
        <time>2022-01-20T09:14:50Z</time>
      </trkpt>
      <trkpt lat="44.01221" lon="5.27718">
        <ele>569.9</ele>
        <time>2022-01-20T09:15:04Z</time>
      </trkpt>
      <trkpt lat="44.01226" lon="5.2772">
        <ele>569.8</ele>
        <time>2022-01-20T09:15:09Z</time>
      </trkpt>
      <trkpt lat="44.0124" lon="5.27732">
        <ele>570.3</ele>
        <time>2022-01-20T09:15:24Z</time>
      </trkpt>
      <trkpt lat="44.01251" lon="5.27743">
        <ele>571</ele>
        <time>2022-01-20T09:15:37Z</time>
      </trkpt>
      <trkpt lat="44.01264" lon="5.27757">
        <ele>571.7</ele>
        <time>2022-01-20T09:15:52Z</time>
      </trkpt>
      <trkpt lat="44.01275" lon="5.27771">
        <ele>572.3</ele>
        <time>2022-01-20T09:16:05Z</time>
      </trkpt>
      <trkpt lat="44.01286" lon="5.27786">
        <ele>572.8</ele>
        <time>2022-01-20T09:16:18Z</time>
      </trkpt>
      <trkpt lat="44.013" lon="5.27801">
        <ele>573.1</ele>
        <time>2022-01-20T09:16:33Z</time>
      </trkpt>
      <trkpt lat="44.01304" lon="5.27806">
        <ele>573.5</ele>
        <time>2022-01-20T09:16:37Z</time>
      </trkpt>
      <trkpt lat="44.01318" lon="5.27819">
        <ele>572.8</ele>
        <time>2022-01-20T09:16:51Z</time>
      </trkpt>
      <trkpt lat="44.01321" lon="5.27822">
        <ele>572.7</ele>
        <time>2022-01-20T09:16:54Z</time>
      </trkpt>
      <trkpt lat="44.01334" lon="5.27837">
        <ele>572.6</ele>
        <time>2022-01-20T09:17:06Z</time>
      </trkpt>
      <trkpt lat="44.0135" lon="5.27856">
        <ele>572.1</ele>
        <time>2022-01-20T09:17:21Z</time>
      </trkpt>
      <trkpt lat="44.01364" lon="5.27875">
        <ele>571.6</ele>
        <time>2022-01-20T09:17:37Z</time>
      </trkpt>
      <trkpt lat="44.01374" lon="5.27888">
        <ele>571.1</ele>
        <time>2022-01-20T09:17:48Z</time>
      </trkpt>
      <trkpt lat="44.01387" lon="5.27903">
        <ele>570.6</ele>
        <time>2022-01-20T09:18:01Z</time>
      </trkpt>
      <trkpt lat="44.01398" lon="5.27919">
        <ele>572.2</ele>
        <time>2022-01-20T09:18:14Z</time>
      </trkpt>
      <trkpt lat="44.01414" lon="5.27935">
        <ele>572.2</ele>
        <time>2022-01-20T09:18:30Z</time>
      </trkpt>
      <trkpt lat="44.0143" lon="5.27954">
        <ele>573.6</ele>
        <time>2022-01-20T09:18:48Z</time>
      </trkpt>
      <trkpt lat="44.01442" lon="5.27968">
        <ele>573.9</ele>
        <time>2022-01-20T09:19:01Z</time>
      </trkpt>
      <trkpt lat="44.0145" lon="5.27976">
        <ele>573.9</ele>
        <time>2022-01-20T09:19:10Z</time>
      </trkpt>
      <trkpt lat="44.01453" lon="5.27981">
        <ele>574.1</ele>
        <time>2022-01-20T09:19:14Z</time>
      </trkpt>
      <trkpt lat="44.01465" lon="5.27997">
        <ele>574</ele>
        <time>2022-01-20T09:19:27Z</time>
      </trkpt>
      <trkpt lat="44.0147" lon="5.28003">
        <ele>573.6</ele>
        <time>2022-01-20T09:19:32Z</time>
      </trkpt>
      <trkpt lat="44.01474" lon="5.28016">
        <ele>573.7</ele>
        <time>2022-01-20T09:19:42Z</time>
      </trkpt>
      <trkpt lat="44.01475" lon="5.28024">
        <ele>574</ele>
        <time>2022-01-20T09:19:46Z</time>
      </trkpt>
      <trkpt lat="44.0148" lon="5.28054">
        <ele>575.2</ele>
        <time>2022-01-20T09:20:03Z</time>
      </trkpt>
      <trkpt lat="44.01483" lon="5.28076">
        <ele>576.3</ele>
        <time>2022-01-20T09:20:18Z</time>
      </trkpt>
      <trkpt lat="44.01484" lon="5.28088">
        <ele>577.1</ele>
        <time>2022-01-20T09:20:35Z</time>
      </trkpt>
      <trkpt lat="44.0148" lon="5.28081">
        <ele>577</ele>
        <time>2022-01-20T09:21:12Z</time>
      </trkpt>
      <trkpt lat="44.01479" lon="5.28081">
        <ele>577.1</ele>
        <time>2022-01-20T09:21:33Z</time>
      </trkpt>
      <trkpt lat="44.01476" lon="5.28083">
        <ele>577.6</ele>
        <time>2022-01-20T09:21:53Z</time>
      </trkpt>
      <trkpt lat="44.01477" lon="5.2808">
        <ele>577.3</ele>
        <time>2022-01-20T09:22:15Z</time>
      </trkpt>
      <trkpt lat="44.01474" lon="5.2808">
        <ele>577.7</ele>
        <time>2022-01-20T09:22:33Z</time>
      </trkpt>
      <trkpt lat="44.01473" lon="5.28082">
        <ele>577.9</ele>
        <time>2022-01-20T09:22:51Z</time>
      </trkpt>
      <trkpt lat="44.01471" lon="5.28081">
        <ele>578.1</ele>
        <time>2022-01-20T09:23:06Z</time>
      </trkpt>
      <trkpt lat="44.01471" lon="5.28079">
        <ele>578</ele>
        <time>2022-01-20T09:23:27Z</time>
      </trkpt>
      <trkpt lat="44.01476" lon="5.28089">
        <ele>578</ele>
        <time>2022-01-20T09:23:44Z</time>
      </trkpt>
      <trkpt lat="44.01481" lon="5.28109">
        <ele>578.9</ele>
        <time>2022-01-20T09:24:01Z</time>
      </trkpt>
      <trkpt lat="44.01482" lon="5.28114">
        <ele>579.2</ele>
        <time>2022-01-20T09:24:04Z</time>
      </trkpt>
      <trkpt lat="44.01484" lon="5.28134">
        <ele>580.9</ele>
        <time>2022-01-20T09:24:19Z</time>
      </trkpt>
      <trkpt lat="44.01489" lon="5.28158">
        <ele>582.2</ele>
        <time>2022-01-20T09:24:38Z</time>
      </trkpt>
      <trkpt lat="44.01496" lon="5.28182">
        <ele>583.5</ele>
        <time>2022-01-20T09:24:56Z</time>
      </trkpt>
      <trkpt lat="44.01503" lon="5.28205">
        <ele>585</ele>
        <time>2022-01-20T09:25:14Z</time>
      </trkpt>
      <trkpt lat="44.01511" lon="5.28224">
        <ele>586.3</ele>
        <time>2022-01-20T09:25:32Z</time>
      </trkpt>
      <trkpt lat="44.01519" lon="5.28247">
        <ele>588.4</ele>
        <time>2022-01-20T09:25:52Z</time>
      </trkpt>
      <trkpt lat="44.01528" lon="5.2827">
        <ele>589.8</ele>
        <time>2022-01-20T09:26:11Z</time>
      </trkpt>
      <trkpt lat="44.01537" lon="5.2828">
        <ele>589.3</ele>
        <time>2022-01-20T09:26:22Z</time>
      </trkpt>
      <trkpt lat="44.01547" lon="5.28295">
        <ele>589.3</ele>
        <time>2022-01-20T09:26:35Z</time>
      </trkpt>
      <trkpt lat="44.01549" lon="5.28303">
        <ele>590</ele>
        <time>2022-01-20T09:26:40Z</time>
      </trkpt>
      <trkpt lat="44.01552" lon="5.28311">
        <ele>590.6</ele>
        <time>2022-01-20T09:26:45Z</time>
      </trkpt>
      <trkpt lat="44.01565" lon="5.28335">
        <ele>591.2</ele>
        <time>2022-01-20T09:27:02Z</time>
      </trkpt>
      <trkpt lat="44.01571" lon="5.28349">
        <ele>591.7</ele>
        <time>2022-01-20T09:27:11Z</time>
      </trkpt>
      <trkpt lat="44.01574" lon="5.28353">
        <ele>591.6</ele>
        <time>2022-01-20T09:27:15Z</time>
      </trkpt>
      <trkpt lat="44.01585" lon="5.28369">
        <ele>591.7</ele>
        <time>2022-01-20T09:27:27Z</time>
      </trkpt>
      <trkpt lat="44.01592" lon="5.28379">
        <ele>591.6</ele>
        <time>2022-01-20T09:27:36Z</time>
      </trkpt>
      <trkpt lat="44.01596" lon="5.28392">
        <ele>592.6</ele>
        <time>2022-01-20T09:27:44Z</time>
      </trkpt>
      <trkpt lat="44.01599" lon="5.28399">
        <ele>592.7</ele>
        <time>2022-01-20T09:27:49Z</time>
      </trkpt>
      <trkpt lat="44.01606" lon="5.28414">
        <ele>592.8</ele>
        <time>2022-01-20T09:28:00Z</time>
      </trkpt>
      <trkpt lat="44.01614" lon="5.28428">
        <ele>593</ele>
        <time>2022-01-20T09:28:10Z</time>
      </trkpt>
      <trkpt lat="44.01619" lon="5.28439">
        <ele>593.5</ele>
        <time>2022-01-20T09:28:19Z</time>
      </trkpt>
      <trkpt lat="44.01627" lon="5.28451">
        <ele>593.3</ele>
        <time>2022-01-20T09:28:29Z</time>
      </trkpt>
      <trkpt lat="44.01629" lon="5.28456">
        <ele>593.4</ele>
        <time>2022-01-20T09:28:33Z</time>
      </trkpt>
      <trkpt lat="44.01631" lon="5.28458">
        <ele>593.2</ele>
        <time>2022-01-20T09:28:35Z</time>
      </trkpt>
      <trkpt lat="44.01634" lon="5.28468">
        <ele>593.6</ele>
        <time>2022-01-20T09:28:44Z</time>
      </trkpt>
      <trkpt lat="44.01636" lon="5.28482">
        <ele>594.3</ele>
        <time>2022-01-20T09:28:53Z</time>
      </trkpt>
      <trkpt lat="44.01637" lon="5.285">
        <ele>595.4</ele>
        <time>2022-01-20T09:29:07Z</time>
      </trkpt>
      <trkpt lat="44.01637" lon="5.28504">
        <ele>595.6</ele>
        <time>2022-01-20T09:29:10Z</time>
      </trkpt>
      <trkpt lat="44.01638" lon="5.28508">
        <ele>595.5</ele>
        <time>2022-01-20T09:29:14Z</time>
      </trkpt>
      <trkpt lat="44.01637" lon="5.28517">
        <ele>596.1</ele>
        <time>2022-01-20T09:29:19Z</time>
      </trkpt>
      <trkpt lat="44.01635" lon="5.28524">
        <ele>596.9</ele>
        <time>2022-01-20T09:29:25Z</time>
      </trkpt>
      <trkpt lat="44.01635" lon="5.28533">
        <ele>597.3</ele>
        <time>2022-01-20T09:29:32Z</time>
      </trkpt>
      <trkpt lat="44.01632" lon="5.28551">
        <ele>598.6</ele>
        <time>2022-01-20T09:29:44Z</time>
      </trkpt>
      <trkpt lat="44.01632" lon="5.28552">
        <ele>598.6</ele>
        <time>2022-01-20T09:29:45Z</time>
      </trkpt>
      <trkpt lat="44.0163" lon="5.28561">
        <ele>599.4</ele>
        <time>2022-01-20T09:29:50Z</time>
      </trkpt>
      <trkpt lat="44.01625" lon="5.28576">
        <ele>600.9</ele>
        <time>2022-01-20T09:30:03Z</time>
      </trkpt>
      <trkpt lat="44.01623" lon="5.28579">
        <ele>601.4</ele>
        <time>2022-01-20T09:30:06Z</time>
      </trkpt>
      <trkpt lat="44.01614" lon="5.28594">
        <ele>603.6</ele>
        <time>2022-01-20T09:30:20Z</time>
      </trkpt>
      <trkpt lat="44.01607" lon="5.28605">
        <ele>605</ele>
        <time>2022-01-20T09:30:33Z</time>
      </trkpt>
      <trkpt lat="44.01596" lon="5.28619">
        <ele>607.4</ele>
        <time>2022-01-20T09:30:50Z</time>
      </trkpt>
      <trkpt lat="44.01582" lon="5.28632">
        <ele>609.6</ele>
        <time>2022-01-20T09:31:09Z</time>
      </trkpt>
      <trkpt lat="44.01575" lon="5.2864">
        <ele>610.8</ele>
        <time>2022-01-20T09:31:20Z</time>
      </trkpt>
      <trkpt lat="44.01563" lon="5.28648">
        <ele>613</ele>
        <time>2022-01-20T09:31:34Z</time>
      </trkpt>
      <trkpt lat="44.01556" lon="5.28655">
        <ele>613.8</ele>
        <time>2022-01-20T09:31:44Z</time>
      </trkpt>
      <trkpt lat="44.01547" lon="5.28663">
        <ele>614.6</ele>
        <time>2022-01-20T09:31:55Z</time>
      </trkpt>
      <trkpt lat="44.01536" lon="5.28669">
        <ele>615.8</ele>
        <time>2022-01-20T09:32:08Z</time>
      </trkpt>
      <trkpt lat="44.01524" lon="5.28677">
        <ele>617.7</ele>
        <time>2022-01-20T09:32:21Z</time>
      </trkpt>
      <trkpt lat="44.0151" lon="5.28685">
        <ele>619.6</ele>
        <time>2022-01-20T09:32:36Z</time>
      </trkpt>
      <trkpt lat="44.01507" lon="5.28683">
        <ele>620.2</ele>
        <time>2022-01-20T09:32:50Z</time>
      </trkpt>
      <trkpt lat="44.01509" lon="5.28683">
        <ele>619.9</ele>
        <time>2022-01-20T09:33:30Z</time>
      </trkpt>
      <trkpt lat="44.01505" lon="5.28691">
        <ele>619.8</ele>
        <time>2022-01-20T09:33:56Z</time>
      </trkpt>
      <trkpt lat="44.01505" lon="5.28708">
        <ele>621</ele>
        <time>2022-01-20T09:34:11Z</time>
      </trkpt>
      <trkpt lat="44.01508" lon="5.28727">
        <ele>623</ele>
        <time>2022-01-20T09:34:25Z</time>
      </trkpt>
      <trkpt lat="44.01513" lon="5.28743">
        <ele>624.7</ele>
        <time>2022-01-20T09:34:39Z</time>
      </trkpt>
      <trkpt lat="44.01514" lon="5.28748">
        <ele>625.2</ele>
        <time>2022-01-20T09:34:59Z</time>
      </trkpt>
      <trkpt lat="44.01513" lon="5.28748">
        <ele>625.3</ele>
        <time>2022-01-20T09:35:18Z</time>
      </trkpt>
      <trkpt lat="44.01516" lon="5.28747">
        <ele>625</ele>
        <time>2022-01-20T09:35:45Z</time>
      </trkpt>
      <trkpt lat="44.0152" lon="5.28752">
        <ele>625.5</ele>
        <time>2022-01-20T09:35:59Z</time>
      </trkpt>
      <trkpt lat="44.01529" lon="5.28769">
        <ele>627.1</ele>
        <time>2022-01-20T09:36:18Z</time>
      </trkpt>
      <trkpt lat="44.01535" lon="5.28779">
        <ele>628.4</ele>
        <time>2022-01-20T09:36:33Z</time>
      </trkpt>
      <trkpt lat="44.01547" lon="5.28788">
        <ele>629.5</ele>
        <time>2022-01-20T09:36:51Z</time>
      </trkpt>
      <trkpt lat="44.01549" lon="5.28792">
        <ele>629.9</ele>
        <time>2022-01-20T09:37:13Z</time>
      </trkpt>
      <trkpt lat="44.01549" lon="5.28793">
        <ele>630</ele>
        <time>2022-01-20T09:37:14Z</time>
      </trkpt>
      <trkpt lat="44.01551" lon="5.28795">
        <ele>630.2</ele>
        <time>2022-01-20T09:37:16Z</time>
      </trkpt>
      <trkpt lat="44.01555" lon="5.288">
        <ele>630.6</ele>
        <time>2022-01-20T09:37:21Z</time>
      </trkpt>
      <trkpt lat="44.01558" lon="5.28804">
        <ele>631</ele>
        <time>2022-01-20T09:37:25Z</time>
      </trkpt>
      <trkpt lat="44.01565" lon="5.28809">
        <ele>631.7</ele>
        <time>2022-01-20T09:37:32Z</time>
      </trkpt>
      <trkpt lat="44.01576" lon="5.28818">
        <ele>632.8</ele>
        <time>2022-01-20T09:37:45Z</time>
      </trkpt>
      <trkpt lat="44.01584" lon="5.28828">
        <ele>633.6</ele>
        <time>2022-01-20T09:37:56Z</time>
      </trkpt>
      <trkpt lat="44.01588" lon="5.2883">
        <ele>633.9</ele>
        <time>2022-01-20T09:38:00Z</time>
      </trkpt>
      <trkpt lat="44.01594" lon="5.28833">
        <ele>634.4</ele>
        <time>2022-01-20T09:38:05Z</time>
      </trkpt>
      <trkpt lat="44.01604" lon="5.28841">
        <ele>635.1</ele>
        <time>2022-01-20T09:38:16Z</time>
      </trkpt>
      <trkpt lat="44.01615" lon="5.28853">
        <ele>635.7</ele>
        <time>2022-01-20T09:38:29Z</time>
      </trkpt>
      <trkpt lat="44.01629" lon="5.28865">
        <ele>636.3</ele>
        <time>2022-01-20T09:38:43Z</time>
      </trkpt>
      <trkpt lat="44.01642" lon="5.2888">
        <ele>637.2</ele>
        <time>2022-01-20T09:38:58Z</time>
      </trkpt>
      <trkpt lat="44.01655" lon="5.28893">
        <ele>637.7</ele>
        <time>2022-01-20T09:39:14Z</time>
      </trkpt>
      <trkpt lat="44.01671" lon="5.28909">
        <ele>638.2</ele>
        <time>2022-01-20T09:39:31Z</time>
      </trkpt>
      <trkpt lat="44.01681" lon="5.28918">
        <ele>638.6</ele>
        <time>2022-01-20T09:39:44Z</time>
      </trkpt>
      <trkpt lat="44.01693" lon="5.28929">
        <ele>638.9</ele>
        <time>2022-01-20T09:39:55Z</time>
      </trkpt>
      <trkpt lat="44.01699" lon="5.28938">
        <ele>639.6</ele>
        <time>2022-01-20T09:40:06Z</time>
      </trkpt>
      <trkpt lat="44.01698" lon="5.28942">
        <ele>639.9</ele>
        <time>2022-01-20T09:40:28Z</time>
      </trkpt>
      <trkpt lat="44.01698" lon="5.28944">
        <ele>640.1</ele>
        <time>2022-01-20T09:41:24Z</time>
      </trkpt>
      <trkpt lat="44.017" lon="5.28945">
        <ele>640.3</ele>
        <time>2022-01-20T09:41:46Z</time>
      </trkpt>
      <trkpt lat="44.01708" lon="5.28953">
        <ele>641.4</ele>
        <time>2022-01-20T09:42:05Z</time>
      </trkpt>
      <trkpt lat="44.01718" lon="5.2896">
        <ele>642.5</ele>
        <time>2022-01-20T09:42:21Z</time>
      </trkpt>
      <trkpt lat="44.01734" lon="5.28972">
        <ele>644</ele>
        <time>2022-01-20T09:42:38Z</time>
      </trkpt>
      <trkpt lat="44.01754" lon="5.28985">
        <ele>645.4</ele>
        <time>2022-01-20T09:42:57Z</time>
      </trkpt>
      <trkpt lat="44.01775" lon="5.29">
        <ele>647</ele>
        <time>2022-01-20T09:43:17Z</time>
      </trkpt>
      <trkpt lat="44.01785" lon="5.29012">
        <ele>647.7</ele>
        <time>2022-01-20T09:43:30Z</time>
      </trkpt>
      <trkpt lat="44.01797" lon="5.2903">
        <ele>649.2</ele>
        <time>2022-01-20T09:43:46Z</time>
      </trkpt>
      <trkpt lat="44.01804" lon="5.29041">
        <ele>650.4</ele>
        <time>2022-01-20T09:43:57Z</time>
      </trkpt>
      <trkpt lat="44.0181" lon="5.29053">
        <ele>651.7</ele>
        <time>2022-01-20T09:44:08Z</time>
      </trkpt>
      <trkpt lat="44.01819" lon="5.29068">
        <ele>653.1</ele>
        <time>2022-01-20T09:44:21Z</time>
      </trkpt>
      <trkpt lat="44.01829" lon="5.29079">
        <ele>654.4</ele>
        <time>2022-01-20T09:44:31Z</time>
      </trkpt>
      <trkpt lat="44.01836" lon="5.2909">
        <ele>655.4</ele>
        <time>2022-01-20T09:44:44Z</time>
      </trkpt>
      <trkpt lat="44.01837" lon="5.29091">
        <ele>655.5</ele>
        <time>2022-01-20T09:44:45Z</time>
      </trkpt>
      <trkpt lat="44.01842" lon="5.29097">
        <ele>655.8</ele>
        <time>2022-01-20T09:44:50Z</time>
      </trkpt>
      <trkpt lat="44.0185" lon="5.29107">
        <ele>656.6</ele>
        <time>2022-01-20T09:45:00Z</time>
      </trkpt>
      <trkpt lat="44.01855" lon="5.29117">
        <ele>657.6</ele>
        <time>2022-01-20T09:45:09Z</time>
      </trkpt>
      <trkpt lat="44.01861" lon="5.29125">
        <ele>658.5</ele>
        <time>2022-01-20T09:45:19Z</time>
      </trkpt>
      <trkpt lat="44.01869" lon="5.29136">
        <ele>659.9</ele>
        <time>2022-01-20T09:45:31Z</time>
      </trkpt>
      <trkpt lat="44.0188" lon="5.29146">
        <ele>661.4</ele>
        <time>2022-01-20T09:45:46Z</time>
      </trkpt>
      <trkpt lat="44.01889" lon="5.29162">
        <ele>663.5</ele>
        <time>2022-01-20T09:46:00Z</time>
      </trkpt>
      <trkpt lat="44.01898" lon="5.29174">
        <ele>665.1</ele>
        <time>2022-01-20T09:46:15Z</time>
      </trkpt>
      <trkpt lat="44.01914" lon="5.29178">
        <ele>666.1</ele>
        <time>2022-01-20T09:46:30Z</time>
      </trkpt>
      <trkpt lat="44.01915" lon="5.29178">
        <ele>666.2</ele>
        <time>2022-01-20T09:46:31Z</time>
      </trkpt>
      <trkpt lat="44.01933" lon="5.29179">
        <ele>666.9</ele>
        <time>2022-01-20T09:46:49Z</time>
      </trkpt>
      <trkpt lat="44.01944" lon="5.29188">
        <ele>668.3</ele>
        <time>2022-01-20T09:47:07Z</time>
      </trkpt>
      <trkpt lat="44.01949" lon="5.29201">
        <ele>670.3</ele>
        <time>2022-01-20T09:47:26Z</time>
      </trkpt>
      <trkpt lat="44.01954" lon="5.29208">
        <ele>671.6</ele>
        <time>2022-01-20T09:47:45Z</time>
      </trkpt>
      <trkpt lat="44.01955" lon="5.29208">
        <ele>671.7</ele>
        <time>2022-01-20T09:48:13Z</time>
      </trkpt>
      <trkpt lat="44.01955" lon="5.29209">
        <ele>671.9</ele>
        <time>2022-01-20T09:49:34Z</time>
      </trkpt>
      <trkpt lat="44.01958" lon="5.29204">
        <ele>671.4</ele>
        <time>2022-01-20T09:49:59Z</time>
      </trkpt>
      <trkpt lat="44.01956" lon="5.29208">
        <ele>671.8</ele>
        <time>2022-01-20T09:50:10Z</time>
      </trkpt>
      <trkpt lat="44.01957" lon="5.2921">
        <ele>672.1</ele>
        <time>2022-01-20T09:50:22Z</time>
      </trkpt>
      <trkpt lat="44.01959" lon="5.2921">
        <ele>672.3</ele>
        <time>2022-01-20T09:50:36Z</time>
      </trkpt>
      <trkpt lat="44.01958" lon="5.29213">
        <ele>672.6</ele>
        <time>2022-01-20T09:50:46Z</time>
      </trkpt>
      <trkpt lat="44.01959" lon="5.29216">
        <ele>673.2</ele>
        <time>2022-01-20T09:51:09Z</time>
      </trkpt>
      <trkpt lat="44.01958" lon="5.29212">
        <ele>672.5</ele>
        <time>2022-01-20T09:51:26Z</time>
      </trkpt>
      <trkpt lat="44.0196" lon="5.29217">
        <ele>673.4</ele>
        <time>2022-01-20T09:51:37Z</time>
      </trkpt>
      <trkpt lat="44.01961" lon="5.29219">
        <ele>673.7</ele>
        <time>2022-01-20T09:51:54Z</time>
      </trkpt>
      <trkpt lat="44.01962" lon="5.29218">
        <ele>673.7</ele>
        <time>2022-01-20T09:52:05Z</time>
      </trkpt>
      <trkpt lat="44.01959" lon="5.29215">
        <ele>673</ele>
        <time>2022-01-20T09:52:17Z</time>
      </trkpt>
      <trkpt lat="44.01959" lon="5.29214">
        <ele>672.9</ele>
        <time>2022-01-20T09:52:49Z</time>
      </trkpt>
      <trkpt lat="44.01956" lon="5.29211">
        <ele>672.2</ele>
        <time>2022-01-20T09:53:20Z</time>
      </trkpt>
      <trkpt lat="44.01959" lon="5.29213">
        <ele>672.7</ele>
        <time>2022-01-20T09:53:38Z</time>
      </trkpt>
      <trkpt lat="44.01958" lon="5.29213">
        <ele>672.6</ele>
        <time>2022-01-20T09:53:55Z</time>
      </trkpt>
      <trkpt lat="44.01959" lon="5.29213">
        <ele>672.7</ele>
        <time>2022-01-20T09:54:23Z</time>
      </trkpt>
      <trkpt lat="44.01959" lon="5.29216">
        <ele>673.2</ele>
        <time>2022-01-20T09:54:44Z</time>
      </trkpt>
      <trkpt lat="44.01958" lon="5.29215">
        <ele>672.9</ele>
        <time>2022-01-20T09:54:59Z</time>
      </trkpt>
      <trkpt lat="44.01958" lon="5.29213">
        <ele>672.6</ele>
        <time>2022-01-20T09:55:19Z</time>
      </trkpt>
      <trkpt lat="44.01959" lon="5.29218">
        <ele>673.4</ele>
        <time>2022-01-20T09:55:32Z</time>
      </trkpt>
      <trkpt lat="44.01958" lon="5.29215">
        <ele>672.9</ele>
        <time>2022-01-20T09:55:51Z</time>
      </trkpt>
      <trkpt lat="44.01958" lon="5.29213">
        <ele>672.6</ele>
        <time>2022-01-20T09:56:18Z</time>
      </trkpt>
      <trkpt lat="44.0196" lon="5.29213">
        <ele>672.8</ele>
        <time>2022-01-20T09:56:45Z</time>
      </trkpt>
      <trkpt lat="44.01959" lon="5.29215">
        <ele>673</ele>
        <time>2022-01-20T09:56:55Z</time>
      </trkpt>
      <trkpt lat="44.01958" lon="5.29214">
        <ele>672.8</ele>
        <time>2022-01-20T09:57:45Z</time>
      </trkpt>
      <trkpt lat="44.01961" lon="5.29216">
        <ele>673.3</ele>
        <time>2022-01-20T09:58:04Z</time>
      </trkpt>
      <trkpt lat="44.01967" lon="5.29224">
        <ele>674.8</ele>
        <time>2022-01-20T09:58:18Z</time>
      </trkpt>
      <trkpt lat="44.01974" lon="5.29231">
        <ele>676.1</ele>
        <time>2022-01-20T09:58:35Z</time>
      </trkpt>
      <trkpt lat="44.01981" lon="5.29243">
        <ele>677.9</ele>
        <time>2022-01-20T09:58:49Z</time>
      </trkpt>
      <trkpt lat="44.01988" lon="5.29256">
        <ele>679.8</ele>
        <time>2022-01-20T09:59:03Z</time>
      </trkpt>
      <trkpt lat="44.0199" lon="5.29274">
        <ele>681.9</ele>
        <time>2022-01-20T09:59:18Z</time>
      </trkpt>
      <trkpt lat="44.01992" lon="5.29296">
        <ele>683.7</ele>
        <time>2022-01-20T09:59:36Z</time>
      </trkpt>
      <trkpt lat="44.01997" lon="5.29316">
        <ele>685.6</ele>
        <time>2022-01-20T09:59:52Z</time>
      </trkpt>
      <trkpt lat="44.02002" lon="5.29328">
        <ele>686.8</ele>
        <time>2022-01-20T10:00:03Z</time>
      </trkpt>
      <trkpt lat="44.02008" lon="5.29339">
        <ele>688.1</ele>
        <time>2022-01-20T10:00:15Z</time>
      </trkpt>
      <trkpt lat="44.02013" lon="5.29355">
        <ele>689.9</ele>
        <time>2022-01-20T10:00:30Z</time>
      </trkpt>
      <trkpt lat="44.02019" lon="5.29375">
        <ele>691.7</ele>
        <time>2022-01-20T10:00:46Z</time>
      </trkpt>
      <trkpt lat="44.02024" lon="5.29389">
        <ele>692.9</ele>
        <time>2022-01-20T10:00:59Z</time>
      </trkpt>
      <trkpt lat="44.02028" lon="5.29406">
        <ele>693.6</ele>
        <time>2022-01-20T10:01:12Z</time>
      </trkpt>
      <trkpt lat="44.02031" lon="5.29421">
        <ele>694.6</ele>
        <time>2022-01-20T10:01:24Z</time>
      </trkpt>
      <trkpt lat="44.02032" lon="5.29424">
        <ele>694.9</ele>
        <time>2022-01-20T10:01:26Z</time>
      </trkpt>
      <trkpt lat="44.02036" lon="5.29441">
        <ele>696.7</ele>
        <time>2022-01-20T10:01:39Z</time>
      </trkpt>
      <trkpt lat="44.0204" lon="5.29463">
        <ele>698</ele>
        <time>2022-01-20T10:01:55Z</time>
      </trkpt>
      <trkpt lat="44.02041" lon="5.29478">
        <ele>698.8</ele>
        <time>2022-01-20T10:02:06Z</time>
      </trkpt>
      <trkpt lat="44.02044" lon="5.29501">
        <ele>700.1</ele>
        <time>2022-01-20T10:02:23Z</time>
      </trkpt>
      <trkpt lat="44.02042" lon="5.2952">
        <ele>701.4</ele>
        <time>2022-01-20T10:02:37Z</time>
      </trkpt>
      <trkpt lat="44.0204" lon="5.29539">
        <ele>702.8</ele>
        <time>2022-01-20T10:02:50Z</time>
      </trkpt>
      <trkpt lat="44.02038" lon="5.29562">
        <ele>704.3</ele>
        <time>2022-01-20T10:03:06Z</time>
      </trkpt>
      <trkpt lat="44.02038" lon="5.29565">
        <ele>704.5</ele>
        <time>2022-01-20T10:03:08Z</time>
      </trkpt>
      <trkpt lat="44.0204" lon="5.29574">
        <ele>705</ele>
        <time>2022-01-20T10:03:14Z</time>
      </trkpt>
      <trkpt lat="44.02042" lon="5.29579">
        <ele>705.3</ele>
        <time>2022-01-20T10:03:18Z</time>
      </trkpt>
      <trkpt lat="44.02046" lon="5.29596">
        <ele>706.3</ele>
        <time>2022-01-20T10:03:36Z</time>
      </trkpt>
      <trkpt lat="44.0205" lon="5.29604">
        <ele>706.7</ele>
        <time>2022-01-20T10:03:50Z</time>
      </trkpt>
      <trkpt lat="44.02052" lon="5.2961">
        <ele>707</ele>
        <time>2022-01-20T10:04:04Z</time>
      </trkpt>
      <trkpt lat="44.02055" lon="5.29622">
        <ele>707.8</ele>
        <time>2022-01-20T10:04:16Z</time>
      </trkpt>
      <trkpt lat="44.02056" lon="5.29643">
        <ele>709.3</ele>
        <time>2022-01-20T10:04:34Z</time>
      </trkpt>
      <trkpt lat="44.02054" lon="5.29673">
        <ele>711.2</ele>
        <time>2022-01-20T10:04:55Z</time>
      </trkpt>
      <trkpt lat="44.0206" lon="5.29697">
        <ele>712.2</ele>
        <time>2022-01-20T10:05:13Z</time>
      </trkpt>
      <trkpt lat="44.02064" lon="5.29714">
        <ele>713.4</ele>
        <time>2022-01-20T10:05:26Z</time>
      </trkpt>
      <trkpt lat="44.02065" lon="5.29733">
        <ele>714.8</ele>
        <time>2022-01-20T10:05:39Z</time>
      </trkpt>
      <trkpt lat="44.02066" lon="5.29751">
        <ele>716</ele>
        <time>2022-01-20T10:05:53Z</time>
      </trkpt>
      <trkpt lat="44.02066" lon="5.29768">
        <ele>716.9</ele>
        <time>2022-01-20T10:06:06Z</time>
      </trkpt>
      <trkpt lat="44.02069" lon="5.29789">
        <ele>717.9</ele>
        <time>2022-01-20T10:06:21Z</time>
      </trkpt>
      <trkpt lat="44.02071" lon="5.29796">
        <ele>718.2</ele>
        <time>2022-01-20T10:06:27Z</time>
      </trkpt>
      <trkpt lat="44.02075" lon="5.29817">
        <ele>719.5</ele>
        <time>2022-01-20T10:06:44Z</time>
      </trkpt>
      <trkpt lat="44.0208" lon="5.29827">
        <ele>720.4</ele>
        <time>2022-01-20T10:06:54Z</time>
      </trkpt>
      <trkpt lat="44.02077" lon="5.29848">
        <ele>721.7</ele>
        <time>2022-01-20T10:07:10Z</time>
      </trkpt>
      <trkpt lat="44.02077" lon="5.2988">
        <ele>723.4</ele>
        <time>2022-01-20T10:07:34Z</time>
      </trkpt>
      <trkpt lat="44.02077" lon="5.299">
        <ele>724.6</ele>
        <time>2022-01-20T10:07:49Z</time>
      </trkpt>
      <trkpt lat="44.02078" lon="5.2992">
        <ele>726.2</ele>
        <time>2022-01-20T10:08:08Z</time>
      </trkpt>
      <trkpt lat="44.02072" lon="5.29943">
        <ele>728.4</ele>
        <time>2022-01-20T10:08:23Z</time>
      </trkpt>
      <trkpt lat="44.02069" lon="5.29952">
        <ele>729.2</ele>
        <time>2022-01-20T10:08:28Z</time>
      </trkpt>
      <trkpt lat="44.0207" lon="5.29963">
        <ele>730.2</ele>
        <time>2022-01-20T10:08:41Z</time>
      </trkpt>
      <trkpt lat="44.02065" lon="5.29982">
        <ele>731.6</ele>
        <time>2022-01-20T10:08:59Z</time>
      </trkpt>
      <trkpt lat="44.02068" lon="5.29997">
        <ele>733.2</ele>
        <time>2022-01-20T10:09:13Z</time>
      </trkpt>
      <trkpt lat="44.02072" lon="5.30015">
        <ele>735</ele>
        <time>2022-01-20T10:09:30Z</time>
      </trkpt>
      <trkpt lat="44.0208" lon="5.30036">
        <ele>737.4</ele>
        <time>2022-01-20T10:09:52Z</time>
      </trkpt>
      <trkpt lat="44.02084" lon="5.30057">
        <ele>739.2</ele>
        <time>2022-01-20T10:10:11Z</time>
      </trkpt>
      <trkpt lat="44.02091" lon="5.30083">
        <ele>741.7</ele>
        <time>2022-01-20T10:10:35Z</time>
      </trkpt>
      <trkpt lat="44.02096" lon="5.30094">
        <ele>742.5</ele>
        <time>2022-01-20T10:10:52Z</time>
      </trkpt>
      <trkpt lat="44.02098" lon="5.30096">
        <ele>742.6</ele>
        <time>2022-01-20T10:11:24Z</time>
      </trkpt>
      <trkpt lat="44.02099" lon="5.30096">
        <ele>742.6</ele>
        <time>2022-01-20T10:11:45Z</time>
      </trkpt>
      <trkpt lat="44.02103" lon="5.30097">
        <ele>742.6</ele>
        <time>2022-01-20T10:12:32Z</time>
      </trkpt>
      <trkpt lat="44.02102" lon="5.30096">
        <ele>742.5</ele>
        <time>2022-01-20T10:12:56Z</time>
      </trkpt>
      <trkpt lat="44.02101" lon="5.30097">
        <ele>742.7</ele>
        <time>2022-01-20T10:13:16Z</time>
      </trkpt>
      <trkpt lat="44.02103" lon="5.30096">
        <ele>742.5</ele>
        <time>2022-01-20T10:13:36Z</time>
      </trkpt>
      <trkpt lat="44.02104" lon="5.301">
        <ele>742.9</ele>
        <time>2022-01-20T10:13:57Z</time>
      </trkpt>
      <trkpt lat="44.02108" lon="5.30113">
        <ele>744.2</ele>
        <time>2022-01-20T10:14:11Z</time>
      </trkpt>
      <trkpt lat="44.02113" lon="5.3012">
        <ele>744.9</ele>
        <time>2022-01-20T10:14:20Z</time>
      </trkpt>
      <trkpt lat="44.02121" lon="5.30131">
        <ele>745.8</ele>
        <time>2022-01-20T10:14:31Z</time>
      </trkpt>
      <trkpt lat="44.02126" lon="5.30142">
        <ele>746.8</ele>
        <time>2022-01-20T10:14:44Z</time>
      </trkpt>
      <trkpt lat="44.02131" lon="5.30155">
        <ele>748</ele>
        <time>2022-01-20T10:15:00Z</time>
      </trkpt>
      <trkpt lat="44.02135" lon="5.30172">
        <ele>749.7</ele>
        <time>2022-01-20T10:15:16Z</time>
      </trkpt>
      <trkpt lat="44.02141" lon="5.30192">
        <ele>751.7</ele>
        <time>2022-01-20T10:15:33Z</time>
      </trkpt>
      <trkpt lat="44.02145" lon="5.30208">
        <ele>753.4</ele>
        <time>2022-01-20T10:15:49Z</time>
      </trkpt>
      <trkpt lat="44.02148" lon="5.30225">
        <ele>755.4</ele>
        <time>2022-01-20T10:16:05Z</time>
      </trkpt>
      <trkpt lat="44.02158" lon="5.30241">
        <ele>757.2</ele>
        <time>2022-01-20T10:16:22Z</time>
      </trkpt>
      <trkpt lat="44.02164" lon="5.30258">
        <ele>759.2</ele>
        <time>2022-01-20T10:16:41Z</time>
      </trkpt>
      <trkpt lat="44.02174" lon="5.30272">
        <ele>761</ele>
        <time>2022-01-20T10:16:58Z</time>
      </trkpt>
      <trkpt lat="44.0218" lon="5.30289">
        <ele>762.7</ele>
        <time>2022-01-20T10:17:15Z</time>
      </trkpt>
      <trkpt lat="44.02182" lon="5.30306">
        <ele>764.6</ele>
        <time>2022-01-20T10:17:34Z</time>
      </trkpt>
      <trkpt lat="44.02183" lon="5.30326">
        <ele>766.8</ele>
        <time>2022-01-20T10:17:51Z</time>
      </trkpt>
      <trkpt lat="44.02189" lon="5.30345">
        <ele>769.1</ele>
        <time>2022-01-20T10:18:10Z</time>
      </trkpt>
      <trkpt lat="44.02196" lon="5.30359">
        <ele>770.8</ele>
        <time>2022-01-20T10:18:28Z</time>
      </trkpt>
      <trkpt lat="44.02204" lon="5.30377">
        <ele>773.3</ele>
        <time>2022-01-20T10:18:47Z</time>
      </trkpt>
      <trkpt lat="44.02212" lon="5.30389">
        <ele>775</ele>
        <time>2022-01-20T10:19:06Z</time>
      </trkpt>
      <trkpt lat="44.02226" lon="5.30401">
        <ele>776.6</ele>
        <time>2022-01-20T10:19:26Z</time>
      </trkpt>
      <trkpt lat="44.02239" lon="5.30417">
        <ele>778.4</ele>
        <time>2022-01-20T10:19:45Z</time>
      </trkpt>
      <trkpt lat="44.0225" lon="5.3043">
        <ele>779.9</ele>
        <time>2022-01-20T10:20:04Z</time>
      </trkpt>
      <trkpt lat="44.02263" lon="5.30444">
        <ele>781</ele>
        <time>2022-01-20T10:20:22Z</time>
      </trkpt>
      <trkpt lat="44.02275" lon="5.3046">
        <ele>783.1</ele>
        <time>2022-01-20T10:20:40Z</time>
      </trkpt>
      <trkpt lat="44.02286" lon="5.30475">
        <ele>785</ele>
        <time>2022-01-20T10:20:59Z</time>
      </trkpt>
      <trkpt lat="44.02297" lon="5.30485">
        <ele>786.1</ele>
        <time>2022-01-20T10:21:14Z</time>
      </trkpt>
      <trkpt lat="44.02313" lon="5.305">
        <ele>786.9</ele>
        <time>2022-01-20T10:21:34Z</time>
      </trkpt>
      <trkpt lat="44.02322" lon="5.3051">
        <ele>787.8</ele>
        <time>2022-01-20T10:21:49Z</time>
      </trkpt>
      <trkpt lat="44.02335" lon="5.30527">
        <ele>789.5</ele>
        <time>2022-01-20T10:22:05Z</time>
      </trkpt>
      <trkpt lat="44.02346" lon="5.30544">
        <ele>791.5</ele>
        <time>2022-01-20T10:22:23Z</time>
      </trkpt>
      <trkpt lat="44.02355" lon="5.30559">
        <ele>793.4</ele>
        <time>2022-01-20T10:22:39Z</time>
      </trkpt>
      <trkpt lat="44.02359" lon="5.30578">
        <ele>795.6</ele>
        <time>2022-01-20T10:22:56Z</time>
      </trkpt>
      <trkpt lat="44.02361" lon="5.30594">
        <ele>797.9</ele>
        <time>2022-01-20T10:23:13Z</time>
      </trkpt>
      <trkpt lat="44.02363" lon="5.30606">
        <ele>799.7</ele>
        <time>2022-01-20T10:23:28Z</time>
      </trkpt>
      <trkpt lat="44.02364" lon="5.30614">
        <ele>800.7</ele>
        <time>2022-01-20T10:23:46Z</time>
      </trkpt>
      <trkpt lat="44.02369" lon="5.30613">
        <ele>799.5</ele>
        <time>2022-01-20T10:24:12Z</time>
      </trkpt>
      <trkpt lat="44.02368" lon="5.30615">
        <ele>799.9</ele>
        <time>2022-01-20T10:24:47Z</time>
      </trkpt>
      <trkpt lat="44.02368" lon="5.30617">
        <ele>800.1</ele>
        <time>2022-01-20T10:25:37Z</time>
      </trkpt>
      <trkpt lat="44.02369" lon="5.30625">
        <ele>800.8</ele>
        <time>2022-01-20T10:25:54Z</time>
      </trkpt>
      <trkpt lat="44.02375" lon="5.30645">
        <ele>801.6</ele>
        <time>2022-01-20T10:26:14Z</time>
      </trkpt>
      <trkpt lat="44.02376" lon="5.3065">
        <ele>801.8</ele>
        <time>2022-01-20T10:26:18Z</time>
      </trkpt>
      <trkpt lat="44.02374" lon="5.30676">
        <ele>803.5</ele>
        <time>2022-01-20T10:26:35Z</time>
      </trkpt>
      <trkpt lat="44.02372" lon="5.30699">
        <ele>804</ele>
        <time>2022-01-20T10:26:53Z</time>
      </trkpt>
      <trkpt lat="44.02373" lon="5.30714">
        <ele>804.8</ele>
        <time>2022-01-20T10:27:08Z</time>
      </trkpt>
      <trkpt lat="44.02375" lon="5.30738">
        <ele>807.3</ele>
        <time>2022-01-20T10:27:26Z</time>
      </trkpt>
      <trkpt lat="44.02377" lon="5.30769">
        <ele>811.3</ele>
        <time>2022-01-20T10:27:51Z</time>
      </trkpt>
      <trkpt lat="44.02382" lon="5.30791">
        <ele>814</ele>
        <time>2022-01-20T10:28:11Z</time>
      </trkpt>
      <trkpt lat="44.02387" lon="5.30809">
        <ele>816.1</ele>
        <time>2022-01-20T10:28:31Z</time>
      </trkpt>
      <trkpt lat="44.02392" lon="5.30828">
        <ele>818.5</ele>
        <time>2022-01-20T10:28:51Z</time>
      </trkpt>
      <trkpt lat="44.02398" lon="5.30846">
        <ele>820.9</ele>
        <time>2022-01-20T10:29:12Z</time>
      </trkpt>
      <trkpt lat="44.02401" lon="5.30861">
        <ele>823.4</ele>
        <time>2022-01-20T10:29:30Z</time>
      </trkpt>
      <trkpt lat="44.02407" lon="5.30879">
        <ele>824.9</ele>
        <time>2022-01-20T10:29:50Z</time>
      </trkpt>
      <trkpt lat="44.02412" lon="5.30899">
        <ele>826.6</ele>
        <time>2022-01-20T10:30:10Z</time>
      </trkpt>
      <trkpt lat="44.02416" lon="5.30912">
        <ele>827.5</ele>
        <time>2022-01-20T10:30:25Z</time>
      </trkpt>
      <trkpt lat="44.02424" lon="5.3093">
        <ele>827.6</ele>
        <time>2022-01-20T10:30:45Z</time>
      </trkpt>
      <trkpt lat="44.02429" lon="5.30957">
        <ele>829.5</ele>
        <time>2022-01-20T10:31:09Z</time>
      </trkpt>
      <trkpt lat="44.02432" lon="5.30989">
        <ele>832.1</ele>
        <time>2022-01-20T10:31:34Z</time>
      </trkpt>
      <trkpt lat="44.02431" lon="5.31006">
        <ele>833.7</ele>
        <time>2022-01-20T10:31:51Z</time>
      </trkpt>
      <trkpt lat="44.02431" lon="5.31027">
        <ele>834.9</ele>
        <time>2022-01-20T10:32:11Z</time>
      </trkpt>
      <trkpt lat="44.02433" lon="5.31052">
        <ele>835.9</ele>
        <time>2022-01-20T10:32:31Z</time>
      </trkpt>
      <trkpt lat="44.02435" lon="5.31078">
        <ele>837</ele>
        <time>2022-01-20T10:32:49Z</time>
      </trkpt>
      <trkpt lat="44.02435" lon="5.31106">
        <ele>839.3</ele>
        <time>2022-01-20T10:33:09Z</time>
      </trkpt>
      <trkpt lat="44.02433" lon="5.3113">
        <ele>841.4</ele>
        <time>2022-01-20T10:33:26Z</time>
      </trkpt>
      <trkpt lat="44.02432" lon="5.3115">
        <ele>843.6</ele>
        <time>2022-01-20T10:33:47Z</time>
      </trkpt>
      <trkpt lat="44.02432" lon="5.31153">
        <ele>844</ele>
        <time>2022-01-20T10:33:52Z</time>
      </trkpt>
      <trkpt lat="44.02421" lon="5.31162">
        <ele>847.4</ele>
        <time>2022-01-20T10:34:10Z</time>
      </trkpt>
      <trkpt lat="44.02424" lon="5.31159">
        <ele>846.4</ele>
        <time>2022-01-20T10:34:42Z</time>
      </trkpt>
      <trkpt lat="44.02426" lon="5.31161">
        <ele>846.2</ele>
        <time>2022-01-20T10:35:38Z</time>
      </trkpt>
      <trkpt lat="44.02428" lon="5.31159">
        <ele>845.6</ele>
        <time>2022-01-20T10:35:59Z</time>
      </trkpt>
      <trkpt lat="44.02433" lon="5.31166">
        <ele>845.4</ele>
        <time>2022-01-20T10:36:23Z</time>
      </trkpt>
      <trkpt lat="44.02442" lon="5.3118">
        <ele>846.1</ele>
        <time>2022-01-20T10:36:43Z</time>
      </trkpt>
      <trkpt lat="44.0245" lon="5.31195">
        <ele>846.5</ele>
        <time>2022-01-20T10:37:00Z</time>
      </trkpt>
      <trkpt lat="44.02454" lon="5.31215">
        <ele>848.5</ele>
        <time>2022-01-20T10:37:16Z</time>
      </trkpt>
      <trkpt lat="44.02462" lon="5.31233">
        <ele>849</ele>
        <time>2022-01-20T10:37:33Z</time>
      </trkpt>
      <trkpt lat="44.02467" lon="5.31245">
        <ele>849.4</ele>
        <time>2022-01-20T10:37:48Z</time>
      </trkpt>
      <trkpt lat="44.02473" lon="5.31267">
        <ele>851.9</ele>
        <time>2022-01-20T10:38:03Z</time>
      </trkpt>
      <trkpt lat="44.02482" lon="5.31287">
        <ele>853.7</ele>
        <time>2022-01-20T10:38:21Z</time>
      </trkpt>
      <trkpt lat="44.02487" lon="5.313">
        <ele>855</ele>
        <time>2022-01-20T10:38:34Z</time>
      </trkpt>
      <trkpt lat="44.02497" lon="5.31315">
        <ele>855.8</ele>
        <time>2022-01-20T10:38:50Z</time>
      </trkpt>
      <trkpt lat="44.02507" lon="5.31334">
        <ele>857.1</ele>
        <time>2022-01-20T10:39:09Z</time>
      </trkpt>
      <trkpt lat="44.02518" lon="5.31356">
        <ele>859.2</ele>
        <time>2022-01-20T10:39:29Z</time>
      </trkpt>
      <trkpt lat="44.02528" lon="5.31373">
        <ele>860.3</ele>
        <time>2022-01-20T10:39:49Z</time>
      </trkpt>
      <trkpt lat="44.02528" lon="5.31381">
        <ele>861.1</ele>
        <time>2022-01-20T10:39:53Z</time>
      </trkpt>
      <trkpt lat="44.02528" lon="5.31398">
        <ele>863</ele>
        <time>2022-01-20T10:40:04Z</time>
      </trkpt>
      <trkpt lat="44.02534" lon="5.31409">
        <ele>863.8</ele>
        <time>2022-01-20T10:40:16Z</time>
      </trkpt>
      <trkpt lat="44.02537" lon="5.31422">
        <ele>864.5</ele>
        <time>2022-01-20T10:40:35Z</time>
      </trkpt>
      <trkpt lat="44.02537" lon="5.31425">
        <ele>864.5</ele>
        <time>2022-01-20T10:40:59Z</time>
      </trkpt>
      <trkpt lat="44.02538" lon="5.31425">
        <ele>864.5</ele>
        <time>2022-01-20T10:41:33Z</time>
      </trkpt>
      <trkpt lat="44.02537" lon="5.31425">
        <ele>864.5</ele>
        <time>2022-01-20T10:41:55Z</time>
      </trkpt>
      <trkpt lat="44.02543" lon="5.3143">
        <ele>864.1</ele>
        <time>2022-01-20T10:42:46Z</time>
      </trkpt>
      <trkpt lat="44.0255" lon="5.31437">
        <ele>863.5</ele>
        <time>2022-01-20T10:43:00Z</time>
      </trkpt>
      <trkpt lat="44.02562" lon="5.31443">
        <ele>863</ele>
        <time>2022-01-20T10:43:15Z</time>
      </trkpt>
      <trkpt lat="44.02567" lon="5.31446">
        <ele>862.8</ele>
        <time>2022-01-20T10:43:31Z</time>
      </trkpt>
      <trkpt lat="44.02577" lon="5.31456">
        <ele>861.4</ele>
        <time>2022-01-20T10:43:46Z</time>
      </trkpt>
      <trkpt lat="44.02592" lon="5.31467">
        <ele>859.8</ele>
        <time>2022-01-20T10:44:04Z</time>
      </trkpt>
      <trkpt lat="44.02602" lon="5.31475">
        <ele>858.4</ele>
        <time>2022-01-20T10:44:18Z</time>
      </trkpt>
      <trkpt lat="44.02615" lon="5.31487">
        <ele>855.9</ele>
        <time>2022-01-20T10:44:36Z</time>
      </trkpt>
      <trkpt lat="44.02623" lon="5.31495">
        <ele>854.5</ele>
        <time>2022-01-20T10:44:48Z</time>
      </trkpt>
      <trkpt lat="44.02632" lon="5.315">
        <ele>853.8</ele>
        <time>2022-01-20T10:44:59Z</time>
      </trkpt>
      <trkpt lat="44.02645" lon="5.31516">
        <ele>851.4</ele>
        <time>2022-01-20T10:45:20Z</time>
      </trkpt>
      <trkpt lat="44.02647" lon="5.31534">
        <ele>848.6</ele>
        <time>2022-01-20T10:45:37Z</time>
      </trkpt>
      <trkpt lat="44.02645" lon="5.31555">
        <ele>846.1</ele>
        <time>2022-01-20T10:45:57Z</time>
      </trkpt>
      <trkpt lat="44.02641" lon="5.31577">
        <ele>842.1</ele>
        <time>2022-01-20T10:46:16Z</time>
      </trkpt>
      <trkpt lat="44.0264" lon="5.31591">
        <ele>839.9</ele>
        <time>2022-01-20T10:46:27Z</time>
      </trkpt>
      <trkpt lat="44.02633" lon="5.31602">
        <ele>838.5</ele>
        <time>2022-01-20T10:46:42Z</time>
      </trkpt>
      <trkpt lat="44.02622" lon="5.31607">
        <ele>838.2</ele>
        <time>2022-01-20T10:46:57Z</time>
      </trkpt>
      <trkpt lat="44.02612" lon="5.31617">
        <ele>836.9</ele>
        <time>2022-01-20T10:47:11Z</time>
      </trkpt>
      <trkpt lat="44.026" lon="5.31632">
        <ele>835.2</ele>
        <time>2022-01-20T10:47:27Z</time>
      </trkpt>
      <trkpt lat="44.02595" lon="5.31646">
        <ele>834.1</ele>
        <time>2022-01-20T10:47:39Z</time>
      </trkpt>
      <trkpt lat="44.02595" lon="5.31662">
        <ele>832.7</ele>
        <time>2022-01-20T10:47:53Z</time>
      </trkpt>
      <trkpt lat="44.02599" lon="5.31681">
        <ele>831.5</ele>
        <time>2022-01-20T10:48:07Z</time>
      </trkpt>
      <trkpt lat="44.02598" lon="5.3169">
        <ele>831.5</ele>
        <time>2022-01-20T10:48:12Z</time>
      </trkpt>
      <trkpt lat="44.026" lon="5.31708">
        <ele>830.5</ele>
        <time>2022-01-20T10:48:26Z</time>
      </trkpt>
      <trkpt lat="44.026" lon="5.31727">
        <ele>829.8</ele>
        <time>2022-01-20T10:48:39Z</time>
      </trkpt>
      <trkpt lat="44.02598" lon="5.31754">
        <ele>829.9</ele>
        <time>2022-01-20T10:48:56Z</time>
      </trkpt>
      <trkpt lat="44.02598" lon="5.31767">
        <ele>829.7</ele>
        <time>2022-01-20T10:49:05Z</time>
      </trkpt>
      <trkpt lat="44.026" lon="5.31785">
        <ele>829.4</ele>
        <time>2022-01-20T10:49:20Z</time>
      </trkpt>
      <trkpt lat="44.026" lon="5.31787">
        <ele>829.4</ele>
        <time>2022-01-20T10:49:21Z</time>
      </trkpt>
      <trkpt lat="44.02601" lon="5.31794">
        <ele>829.4</ele>
        <time>2022-01-20T10:49:25Z</time>
      </trkpt>
      <trkpt lat="44.026" lon="5.31815">
        <ele>829.4</ele>
        <time>2022-01-20T10:49:38Z</time>
      </trkpt>
      <trkpt lat="44.026" lon="5.31834">
        <ele>829.4</ele>
        <time>2022-01-20T10:49:51Z</time>
      </trkpt>
      <trkpt lat="44.02601" lon="5.31857">
        <ele>829.1</ele>
        <time>2022-01-20T10:50:06Z</time>
      </trkpt>
      <trkpt lat="44.02603" lon="5.31874">
        <ele>829</ele>
        <time>2022-01-20T10:50:17Z</time>
      </trkpt>
      <trkpt lat="44.02603" lon="5.31877">
        <ele>829</ele>
        <time>2022-01-20T10:50:19Z</time>
      </trkpt>
      <trkpt lat="44.02606" lon="5.319">
        <ele>828.9</ele>
        <time>2022-01-20T10:50:34Z</time>
      </trkpt>
      <trkpt lat="44.02601" lon="5.31915">
        <ele>828.7</ele>
        <time>2022-01-20T10:50:44Z</time>
      </trkpt>
      <trkpt lat="44.02597" lon="5.3192">
        <ele>828.4</ele>
        <time>2022-01-20T10:50:50Z</time>
      </trkpt>
      <trkpt lat="44.02594" lon="5.3193">
        <ele>828.1</ele>
        <time>2022-01-20T10:51:03Z</time>
      </trkpt>
      <trkpt lat="44.02593" lon="5.31947">
        <ele>827.7</ele>
        <time>2022-01-20T10:51:15Z</time>
      </trkpt>
      <trkpt lat="44.02592" lon="5.31958">
        <ele>827.5</ele>
        <time>2022-01-20T10:51:24Z</time>
      </trkpt>
      <trkpt lat="44.02589" lon="5.31974">
        <ele>827.1</ele>
        <time>2022-01-20T10:51:36Z</time>
      </trkpt>
      <trkpt lat="44.0258" lon="5.31996">
        <ele>826.1</ele>
        <time>2022-01-20T10:51:55Z</time>
      </trkpt>
      <trkpt lat="44.02572" lon="5.32012">
        <ele>825.7</ele>
        <time>2022-01-20T10:52:10Z</time>
      </trkpt>
      <trkpt lat="44.02563" lon="5.3203">
        <ele>825.7</ele>
        <time>2022-01-20T10:52:23Z</time>
      </trkpt>
      <trkpt lat="44.02556" lon="5.32041">
        <ele>826</ele>
        <time>2022-01-20T10:52:32Z</time>
      </trkpt>
      <trkpt lat="44.02553" lon="5.32044">
        <ele>826.1</ele>
        <time>2022-01-20T10:52:34Z</time>
      </trkpt>
      <trkpt lat="44.02552" lon="5.32048">
        <ele>826.1</ele>
        <time>2022-01-20T10:52:37Z</time>
      </trkpt>
      <trkpt lat="44.0254" lon="5.32069">
        <ele>827</ele>
        <time>2022-01-20T10:52:51Z</time>
      </trkpt>
      <trkpt lat="44.02529" lon="5.32095">
        <ele>828.8</ele>
        <time>2022-01-20T10:53:08Z</time>
      </trkpt>
      <trkpt lat="44.02527" lon="5.32111">
        <ele>830</ele>
        <time>2022-01-20T10:53:21Z</time>
      </trkpt>
      <trkpt lat="44.02523" lon="5.32131">
        <ele>830.9</ele>
        <time>2022-01-20T10:53:36Z</time>
      </trkpt>
      <trkpt lat="44.0252" lon="5.32142">
        <ele>831.3</ele>
        <time>2022-01-20T10:53:52Z</time>
      </trkpt>
      <trkpt lat="44.02517" lon="5.32144">
        <ele>831.4</ele>
        <time>2022-01-20T10:54:14Z</time>
      </trkpt>
      <trkpt lat="44.02517" lon="5.32143">
        <ele>831.4</ele>
        <time>2022-01-20T10:54:19Z</time>
      </trkpt>
      <trkpt lat="44.02517" lon="5.32152">
        <ele>831.4</ele>
        <time>2022-01-20T10:54:38Z</time>
      </trkpt>
      <trkpt lat="44.02515" lon="5.32159">
        <ele>831.5</ele>
        <time>2022-01-20T10:54:57Z</time>
      </trkpt>
      <trkpt lat="44.02512" lon="5.32176">
        <ele>831.6</ele>
        <time>2022-01-20T10:55:13Z</time>
      </trkpt>
      <trkpt lat="44.02509" lon="5.32205">
        <ele>831.3</ele>
        <time>2022-01-20T10:55:36Z</time>
      </trkpt>
      <trkpt lat="44.02512" lon="5.32226">
        <ele>830.5</ele>
        <time>2022-01-20T10:55:53Z</time>
      </trkpt>
      <trkpt lat="44.02515" lon="5.32244">
        <ele>830</ele>
        <time>2022-01-20T10:56:06Z</time>
      </trkpt>
      <trkpt lat="44.02518" lon="5.32268">
        <ele>829.9</ele>
        <time>2022-01-20T10:56:24Z</time>
      </trkpt>
      <trkpt lat="44.02518" lon="5.32279">
        <ele>830.1</ele>
        <time>2022-01-20T10:56:35Z</time>
      </trkpt>
      <trkpt lat="44.02519" lon="5.32282">
        <ele>830.1</ele>
        <time>2022-01-20T10:56:38Z</time>
      </trkpt>
      <trkpt lat="44.02522" lon="5.32305">
        <ele>830.6</ele>
        <time>2022-01-20T10:56:54Z</time>
      </trkpt>
      <trkpt lat="44.02525" lon="5.32325">
        <ele>831</ele>
        <time>2022-01-20T10:57:09Z</time>
      </trkpt>
      <trkpt lat="44.02526" lon="5.32352">
        <ele>831.9</ele>
        <time>2022-01-20T10:57:27Z</time>
      </trkpt>
      <trkpt lat="44.02526" lon="5.32365">
        <ele>832.5</ele>
        <time>2022-01-20T10:57:37Z</time>
      </trkpt>
      <trkpt lat="44.02526" lon="5.32384">
        <ele>833.9</ele>
        <time>2022-01-20T10:57:51Z</time>
      </trkpt>
      <trkpt lat="44.0253" lon="5.32398">
        <ele>834.6</ele>
        <time>2022-01-20T10:58:03Z</time>
      </trkpt>
      <trkpt lat="44.02534" lon="5.32422">
        <ele>836.4</ele>
        <time>2022-01-20T10:58:22Z</time>
      </trkpt>
      <trkpt lat="44.02535" lon="5.32431">
        <ele>837</ele>
        <time>2022-01-20T10:58:28Z</time>
      </trkpt>
      <trkpt lat="44.02536" lon="5.32447">
        <ele>838.4</ele>
        <time>2022-01-20T10:58:40Z</time>
      </trkpt>
      <trkpt lat="44.02537" lon="5.32464">
        <ele>840.1</ele>
        <time>2022-01-20T10:58:54Z</time>
      </trkpt>
      <trkpt lat="44.02534" lon="5.32476">
        <ele>841.6</ele>
        <time>2022-01-20T10:59:06Z</time>
      </trkpt>
      <trkpt lat="44.02533" lon="5.32479">
        <ele>842</ele>
        <time>2022-01-20T10:59:08Z</time>
      </trkpt>
      <trkpt lat="44.02531" lon="5.32485">
        <ele>842.6</ele>
        <time>2022-01-20T10:59:12Z</time>
      </trkpt>
      <trkpt lat="44.02532" lon="5.32495">
        <ele>843.3</ele>
        <time>2022-01-20T10:59:23Z</time>
      </trkpt>
      <trkpt lat="44.0253" lon="5.32504">
        <ele>844.4</ele>
        <time>2022-01-20T10:59:36Z</time>
      </trkpt>
      <trkpt lat="44.02527" lon="5.32501">
        <ele>844.3</ele>
        <time>2022-01-20T10:59:40Z</time>
      </trkpt>
      <trkpt lat="44.02522" lon="5.32494">
        <ele>844.5</ele>
        <time>2022-01-20T10:59:47Z</time>
      </trkpt>
      <trkpt lat="44.02518" lon="5.32493">
        <ele>845.1</ele>
        <time>2022-01-20T10:59:52Z</time>
      </trkpt>
      <trkpt lat="44.02512" lon="5.32511">
        <ele>848.4</ele>
        <time>2022-01-20T11:00:04Z</time>
      </trkpt>
      <trkpt lat="44.02513" lon="5.32521">
        <ele>849.7</ele>
        <time>2022-01-20T11:00:13Z</time>
      </trkpt>
      <trkpt lat="44.02517" lon="5.32537">
        <ele>850.9</ele>
        <time>2022-01-20T11:00:31Z</time>
      </trkpt>
      <trkpt lat="44.02522" lon="5.32552">
        <ele>851.7</ele>
        <time>2022-01-20T11:00:44Z</time>
      </trkpt>
      <trkpt lat="44.02522" lon="5.32573">
        <ele>852.9</ele>
        <time>2022-01-20T11:01:00Z</time>
      </trkpt>
      <trkpt lat="44.02522" lon="5.3258">
        <ele>853.3</ele>
        <time>2022-01-20T11:01:04Z</time>
      </trkpt>
      <trkpt lat="44.02521" lon="5.32589">
        <ele>853.7</ele>
        <time>2022-01-20T11:01:13Z</time>
      </trkpt>
      <trkpt lat="44.02515" lon="5.32599">
        <ele>855</ele>
        <time>2022-01-20T11:01:26Z</time>
      </trkpt>
      <trkpt lat="44.0251" lon="5.32611">
        <ele>855.8</ele>
        <time>2022-01-20T11:01:41Z</time>
      </trkpt>
      <trkpt lat="44.0251" lon="5.32613">
        <ele>855.7</ele>
        <time>2022-01-20T11:01:44Z</time>
      </trkpt>
      <trkpt lat="44.02505" lon="5.32632">
        <ele>856</ele>
        <time>2022-01-20T11:01:57Z</time>
      </trkpt>
      <trkpt lat="44.02492" lon="5.32662">
        <ele>859.1</ele>
        <time>2022-01-20T11:02:13Z</time>
      </trkpt>
      <trkpt lat="44.02484" lon="5.32682">
        <ele>861.5</ele>
        <time>2022-01-20T11:02:26Z</time>
      </trkpt>
      <trkpt lat="44.02485" lon="5.32687">
        <ele>861.5</ele>
        <time>2022-01-20T11:02:29Z</time>
      </trkpt>
      <trkpt lat="44.02485" lon="5.32688">
        <ele>861.5</ele>
        <time>2022-01-20T11:02:30Z</time>
      </trkpt>
      <trkpt lat="44.02486" lon="5.32689">
        <ele>861.3</ele>
        <time>2022-01-20T11:02:31Z</time>
      </trkpt>
      <trkpt lat="44.02487" lon="5.32699">
        <ele>862</ele>
        <time>2022-01-20T11:02:37Z</time>
      </trkpt>
      <trkpt lat="44.02489" lon="5.32701">
        <ele>862</ele>
        <time>2022-01-20T11:02:38Z</time>
      </trkpt>
      <trkpt lat="44.02495" lon="5.32702">
        <ele>861.2</ele>
        <time>2022-01-20T11:02:44Z</time>
      </trkpt>
      <trkpt lat="44.02507" lon="5.32707">
        <ele>860.6</ele>
        <time>2022-01-20T11:02:54Z</time>
      </trkpt>
      <trkpt lat="44.02524" lon="5.3271">
        <ele>859.6</ele>
        <time>2022-01-20T11:03:05Z</time>
      </trkpt>
      <trkpt lat="44.02525" lon="5.32714">
        <ele>860.1</ele>
        <time>2022-01-20T11:03:11Z</time>
      </trkpt>
      <trkpt lat="44.02528" lon="5.32715">
        <ele>860</ele>
        <time>2022-01-20T11:03:14Z</time>
      </trkpt>
      <trkpt lat="44.02529" lon="5.32715">
        <ele>859.9</ele>
        <time>2022-01-20T11:03:15Z</time>
      </trkpt>
      <trkpt lat="44.02541" lon="5.32723">
        <ele>860.7</ele>
        <time>2022-01-20T11:03:26Z</time>
      </trkpt>
      <trkpt lat="44.02542" lon="5.32723">
        <ele>860.6</ele>
        <time>2022-01-20T11:03:27Z</time>
      </trkpt>
      <trkpt lat="44.02543" lon="5.32725">
        <ele>860.9</ele>
        <time>2022-01-20T11:03:29Z</time>
      </trkpt>
      <trkpt lat="44.02543" lon="5.32726">
        <ele>861</ele>
        <time>2022-01-20T11:03:30Z</time>
      </trkpt>
      <trkpt lat="44.02545" lon="5.3273">
        <ele>861.5</ele>
        <time>2022-01-20T11:03:33Z</time>
      </trkpt>
      <trkpt lat="44.02544" lon="5.32732">
        <ele>861.9</ele>
        <time>2022-01-20T11:03:34Z</time>
      </trkpt>
      <trkpt lat="44.02545" lon="5.32734">
        <ele>862.1</ele>
        <time>2022-01-20T11:03:35Z</time>
      </trkpt>
      <trkpt lat="44.02545" lon="5.32735">
        <ele>862.3</ele>
        <time>2022-01-20T11:03:36Z</time>
      </trkpt>
      <trkpt lat="44.02545" lon="5.32736">
        <ele>862.4</ele>
        <time>2022-01-20T11:03:37Z</time>
      </trkpt>
      <trkpt lat="44.02546" lon="5.32739">
        <ele>862.8</ele>
        <time>2022-01-20T11:03:39Z</time>
      </trkpt>
      <trkpt lat="44.02546" lon="5.3274">
        <ele>862.9</ele>
        <time>2022-01-20T11:03:40Z</time>
      </trkpt>
      <trkpt lat="44.02547" lon="5.3274">
        <ele>862.8</ele>
        <time>2022-01-20T11:03:41Z</time>
      </trkpt>
      <trkpt lat="44.02555" lon="5.32749">
        <ele>863</ele>
        <time>2022-01-20T11:03:52Z</time>
      </trkpt>
      <trkpt lat="44.02555" lon="5.3276">
        <ele>863.8</ele>
        <time>2022-01-20T11:04:00Z</time>
      </trkpt>
      <trkpt lat="44.02555" lon="5.32761">
        <ele>863.9</ele>
        <time>2022-01-20T11:04:01Z</time>
      </trkpt>
      <trkpt lat="44.02556" lon="5.32762">
        <ele>863.8</ele>
        <time>2022-01-20T11:04:02Z</time>
      </trkpt>
      <trkpt lat="44.02555" lon="5.32765">
        <ele>864.2</ele>
        <time>2022-01-20T11:04:04Z</time>
      </trkpt>
      <trkpt lat="44.02554" lon="5.32767">
        <ele>864.5</ele>
        <time>2022-01-20T11:04:05Z</time>
      </trkpt>
      <trkpt lat="44.02555" lon="5.32768">
        <ele>864.4</ele>
        <time>2022-01-20T11:04:06Z</time>
      </trkpt>
      <trkpt lat="44.02555" lon="5.3277">
        <ele>864.5</ele>
        <time>2022-01-20T11:04:07Z</time>
      </trkpt>
      <trkpt lat="44.02556" lon="5.32771">
        <ele>864.4</ele>
        <time>2022-01-20T11:04:08Z</time>
      </trkpt>
      <trkpt lat="44.02556" lon="5.32772">
        <ele>864.5</ele>
        <time>2022-01-20T11:04:09Z</time>
      </trkpt>
      <trkpt lat="44.02556" lon="5.32773">
        <ele>864.6</ele>
        <time>2022-01-20T11:04:10Z</time>
      </trkpt>
      <trkpt lat="44.02556" lon="5.32774">
        <ele>864.7</ele>
        <time>2022-01-20T11:04:11Z</time>
      </trkpt>
      <trkpt lat="44.02556" lon="5.32787">
        <ele>864.9</ele>
        <time>2022-01-20T11:04:20Z</time>
      </trkpt>
      <trkpt lat="44.0255" lon="5.32802">
        <ele>866</ele>
        <time>2022-01-20T11:04:33Z</time>
      </trkpt>
      <trkpt lat="44.02545" lon="5.32807">
        <ele>866.7</ele>
        <time>2022-01-20T11:04:43Z</time>
      </trkpt>
      <trkpt lat="44.02542" lon="5.32812">
        <ele>866.6</ele>
        <time>2022-01-20T11:04:49Z</time>
      </trkpt>
      <trkpt lat="44.02541" lon="5.32813">
        <ele>866.7</ele>
        <time>2022-01-20T11:04:50Z</time>
      </trkpt>
      <trkpt lat="44.02537" lon="5.32815">
        <ele>867.2</ele>
        <time>2022-01-20T11:05:01Z</time>
      </trkpt>
      <trkpt lat="44.02537" lon="5.32816">
        <ele>867.1</ele>
        <time>2022-01-20T11:05:02Z</time>
      </trkpt>
      <trkpt lat="44.02532" lon="5.32818">
        <ele>867.8</ele>
        <time>2022-01-20T11:05:10Z</time>
      </trkpt>
      <trkpt lat="44.02531" lon="5.3282">
        <ele>867.8</ele>
        <time>2022-01-20T11:05:12Z</time>
      </trkpt>
      <trkpt lat="44.0253" lon="5.32821">
        <ele>867.9</ele>
        <time>2022-01-20T11:05:13Z</time>
      </trkpt>
      <trkpt lat="44.02529" lon="5.32823">
        <ele>867.9</ele>
        <time>2022-01-20T11:05:14Z</time>
      </trkpt>
      <trkpt lat="44.02528" lon="5.32825">
        <ele>867.9</ele>
        <time>2022-01-20T11:05:15Z</time>
      </trkpt>
      <trkpt lat="44.02528" lon="5.32826">
        <ele>867.7</ele>
        <time>2022-01-20T11:05:16Z</time>
      </trkpt>
      <trkpt lat="44.02527" lon="5.32828">
        <ele>867.7</ele>
        <time>2022-01-20T11:05:17Z</time>
      </trkpt>
      <trkpt lat="44.02526" lon="5.3283">
        <ele>867.7</ele>
        <time>2022-01-20T11:05:19Z</time>
      </trkpt>
      <trkpt lat="44.02525" lon="5.32832">
        <ele>867.7</ele>
        <time>2022-01-20T11:05:21Z</time>
      </trkpt>
      <trkpt lat="44.02525" lon="5.32833">
        <ele>867.6</ele>
        <time>2022-01-20T11:05:22Z</time>
      </trkpt>
      <trkpt lat="44.02524" lon="5.32834">
        <ele>867.8</ele>
        <time>2022-01-20T11:05:23Z</time>
      </trkpt>
      <trkpt lat="44.02523" lon="5.32835">
        <ele>868</ele>
        <time>2022-01-20T11:05:24Z</time>
      </trkpt>
      <trkpt lat="44.02523" lon="5.32836">
        <ele>868</ele>
        <time>2022-01-20T11:05:25Z</time>
      </trkpt>
      <trkpt lat="44.02521" lon="5.3285">
        <ele>868.2</ele>
        <time>2022-01-20T11:05:36Z</time>
      </trkpt>
      <trkpt lat="44.02519" lon="5.32872">
        <ele>868.3</ele>
        <time>2022-01-20T11:05:52Z</time>
      </trkpt>
      <trkpt lat="44.02518" lon="5.32901">
        <ele>868</ele>
        <time>2022-01-20T11:06:13Z</time>
      </trkpt>
      <trkpt lat="44.02515" lon="5.32929">
        <ele>868</ele>
        <time>2022-01-20T11:06:30Z</time>
      </trkpt>
      <trkpt lat="44.0251" lon="5.32949">
        <ele>868.4</ele>
        <time>2022-01-20T11:06:45Z</time>
      </trkpt>
      <trkpt lat="44.02505" lon="5.32972">
        <ele>868.9</ele>
        <time>2022-01-20T11:07:05Z</time>
      </trkpt>
      <trkpt lat="44.025" lon="5.32977">
        <ele>870</ele>
        <time>2022-01-20T11:07:42Z</time>
      </trkpt>
      <trkpt lat="44.02494" lon="5.32989">
        <ele>871.5</ele>
        <time>2022-01-20T11:07:58Z</time>
      </trkpt>
      <trkpt lat="44.02483" lon="5.33">
        <ele>873.7</ele>
        <time>2022-01-20T11:08:15Z</time>
      </trkpt>
      <trkpt lat="44.02475" lon="5.33007">
        <ele>875.2</ele>
        <time>2022-01-20T11:08:32Z</time>
      </trkpt>
      <trkpt lat="44.02463" lon="5.3302">
        <ele>877.3</ele>
        <time>2022-01-20T11:08:49Z</time>
      </trkpt>
      <trkpt lat="44.02451" lon="5.33038">
        <ele>879.8</ele>
        <time>2022-01-20T11:09:09Z</time>
      </trkpt>
      <trkpt lat="44.0244" lon="5.33058">
        <ele>882.1</ele>
        <time>2022-01-20T11:09:29Z</time>
      </trkpt>
      <trkpt lat="44.0243" lon="5.33074">
        <ele>884.4</ele>
        <time>2022-01-20T11:09:48Z</time>
      </trkpt>
      <trkpt lat="44.02427" lon="5.3308">
        <ele>884.9</ele>
        <time>2022-01-20T11:09:54Z</time>
      </trkpt>
      <trkpt lat="44.02421" lon="5.33089">
        <ele>885.7</ele>
        <time>2022-01-20T11:10:06Z</time>
      </trkpt>
      <trkpt lat="44.02415" lon="5.33097">
        <ele>886.6</ele>
        <time>2022-01-20T11:10:18Z</time>
      </trkpt>
      <trkpt lat="44.02402" lon="5.33106">
        <ele>887.5</ele>
        <time>2022-01-20T11:10:32Z</time>
      </trkpt>
      <trkpt lat="44.02391" lon="5.33118">
        <ele>887.9</ele>
        <time>2022-01-20T11:10:47Z</time>
      </trkpt>
      <trkpt lat="44.0238" lon="5.33127">
        <ele>887.7</ele>
        <time>2022-01-20T11:11:03Z</time>
      </trkpt>
      <trkpt lat="44.02375" lon="5.33126">
        <ele>887.5</ele>
        <time>2022-01-20T11:11:16Z</time>
      </trkpt>
      <trkpt lat="44.02359" lon="5.33124">
        <ele>886.8</ele>
        <time>2022-01-20T11:11:31Z</time>
      </trkpt>
      <trkpt lat="44.02352" lon="5.33128">
        <ele>886</ele>
        <time>2022-01-20T11:11:39Z</time>
      </trkpt>
      <trkpt lat="44.02344" lon="5.33128">
        <ele>885.2</ele>
        <time>2022-01-20T11:11:51Z</time>
      </trkpt>
      <trkpt lat="44.02335" lon="5.33129">
        <ele>884.2</ele>
        <time>2022-01-20T11:12:02Z</time>
      </trkpt>
      <trkpt lat="44.02318" lon="5.33129">
        <ele>882.3</ele>
        <time>2022-01-20T11:12:19Z</time>
      </trkpt>
      <trkpt lat="44.02306" lon="5.33129">
        <ele>881</ele>
        <time>2022-01-20T11:12:31Z</time>
      </trkpt>
      <trkpt lat="44.02291" lon="5.3313">
        <ele>878.9</ele>
        <time>2022-01-20T11:12:45Z</time>
      </trkpt>
      <trkpt lat="44.02285" lon="5.33129">
        <ele>878</ele>
        <time>2022-01-20T11:12:55Z</time>
      </trkpt>
      <trkpt lat="44.02278" lon="5.33122">
        <ele>877</ele>
        <time>2022-01-20T11:13:09Z</time>
      </trkpt>
      <trkpt lat="44.02269" lon="5.33107">
        <ele>874.9</ele>
        <time>2022-01-20T11:13:23Z</time>
      </trkpt>
      <trkpt lat="44.02259" lon="5.33093">
        <ele>873.8</ele>
        <time>2022-01-20T11:13:40Z</time>
      </trkpt>
      <trkpt lat="44.02249" lon="5.33085">
        <ele>872.5</ele>
        <time>2022-01-20T11:13:55Z</time>
      </trkpt>
      <trkpt lat="44.02239" lon="5.33073">
        <ele>872.1</ele>
        <time>2022-01-20T11:14:09Z</time>
      </trkpt>
      <trkpt lat="44.02231" lon="5.33064">
        <ele>871.7</ele>
        <time>2022-01-20T11:14:17Z</time>
      </trkpt>
      <trkpt lat="44.0222" lon="5.33053">
        <ele>871.1</ele>
        <time>2022-01-20T11:14:30Z</time>
      </trkpt>
      <trkpt lat="44.02211" lon="5.33046">
        <ele>870.8</ele>
        <time>2022-01-20T11:14:41Z</time>
      </trkpt>
      <trkpt lat="44.02206" lon="5.3304">
        <ele>871.2</ele>
        <time>2022-01-20T11:14:47Z</time>
      </trkpt>
      <trkpt lat="44.02196" lon="5.33032">
        <ele>871.3</ele>
        <time>2022-01-20T11:14:57Z</time>
      </trkpt>
      <trkpt lat="44.0219" lon="5.33031">
        <ele>870.5</ele>
        <time>2022-01-20T11:15:02Z</time>
      </trkpt>
      <trkpt lat="44.0217" lon="5.33021">
        <ele>869.2</ele>
        <time>2022-01-20T11:15:21Z</time>
      </trkpt>
      <trkpt lat="44.02156" lon="5.33017">
        <ele>868.4</ele>
        <time>2022-01-20T11:15:34Z</time>
      </trkpt>
      <trkpt lat="44.02145" lon="5.33015">
        <ele>867.5</ele>
        <time>2022-01-20T11:15:44Z</time>
      </trkpt>
      <trkpt lat="44.02135" lon="5.33014">
        <ele>866.6</ele>
        <time>2022-01-20T11:15:54Z</time>
      </trkpt>
      <trkpt lat="44.02128" lon="5.33014">
        <ele>866</ele>
        <time>2022-01-20T11:16:01Z</time>
      </trkpt>
      <trkpt lat="44.02115" lon="5.33012">
        <ele>865.3</ele>
        <time>2022-01-20T11:16:12Z</time>
      </trkpt>
      <trkpt lat="44.02104" lon="5.33011">
        <ele>864.6</ele>
        <time>2022-01-20T11:16:22Z</time>
      </trkpt>
      <trkpt lat="44.02092" lon="5.33009">
        <ele>864.1</ele>
        <time>2022-01-20T11:16:33Z</time>
      </trkpt>
      <trkpt lat="44.02076" lon="5.33007">
        <ele>863.3</ele>
        <time>2022-01-20T11:16:48Z</time>
      </trkpt>
      <trkpt lat="44.02058" lon="5.33006">
        <ele>861.7</ele>
        <time>2022-01-20T11:17:05Z</time>
      </trkpt>
      <trkpt lat="44.02043" lon="5.33005">
        <ele>860.8</ele>
        <time>2022-01-20T11:17:17Z</time>
      </trkpt>
      <trkpt lat="44.02034" lon="5.33004">
        <ele>860.3</ele>
        <time>2022-01-20T11:17:25Z</time>
      </trkpt>
      <trkpt lat="44.02026" lon="5.33003">
        <ele>859.9</ele>
        <time>2022-01-20T11:17:31Z</time>
      </trkpt>
      <trkpt lat="44.02008" lon="5.32999">
        <ele>858.4</ele>
        <time>2022-01-20T11:17:48Z</time>
      </trkpt>
      <trkpt lat="44.01991" lon="5.32994">
        <ele>856.7</ele>
        <time>2022-01-20T11:18:04Z</time>
      </trkpt>
      <trkpt lat="44.01973" lon="5.32987">
        <ele>854.5</ele>
        <time>2022-01-20T11:18:20Z</time>
      </trkpt>
      <trkpt lat="44.01958" lon="5.3298">
        <ele>853.5</ele>
        <time>2022-01-20T11:18:35Z</time>
      </trkpt>
      <trkpt lat="44.0194" lon="5.32974">
        <ele>851.9</ele>
        <time>2022-01-20T11:18:51Z</time>
      </trkpt>
      <trkpt lat="44.01926" lon="5.32969">
        <ele>851.1</ele>
        <time>2022-01-20T11:19:06Z</time>
      </trkpt>
      <trkpt lat="44.01919" lon="5.32965">
        <ele>850.9</ele>
        <time>2022-01-20T11:19:12Z</time>
      </trkpt>
      <trkpt lat="44.01902" lon="5.32954">
        <ele>850.3</ele>
        <time>2022-01-20T11:19:29Z</time>
      </trkpt>
      <trkpt lat="44.01883" lon="5.32941">
        <ele>850</ele>
        <time>2022-01-20T11:19:47Z</time>
      </trkpt>
      <trkpt lat="44.01867" lon="5.32938">
        <ele>848.6</ele>
        <time>2022-01-20T11:20:05Z</time>
      </trkpt>
      <trkpt lat="44.01856" lon="5.32933">
        <ele>848</ele>
        <time>2022-01-20T11:20:19Z</time>
      </trkpt>
      <trkpt lat="44.01852" lon="5.3293">
        <ele>847.9</ele>
        <time>2022-01-20T11:20:37Z</time>
      </trkpt>
      <trkpt lat="44.01848" lon="5.32927">
        <ele>847.8</ele>
        <time>2022-01-20T11:20:42Z</time>
      </trkpt>
      <trkpt lat="44.0183" lon="5.32914">
        <ele>846.8</ele>
        <time>2022-01-20T11:21:02Z</time>
      </trkpt>
      <trkpt lat="44.01814" lon="5.32898">
        <ele>846.3</ele>
        <time>2022-01-20T11:21:21Z</time>
      </trkpt>
      <trkpt lat="44.01802" lon="5.32886">
        <ele>846.1</ele>
        <time>2022-01-20T11:21:35Z</time>
      </trkpt>
      <trkpt lat="44.01791" lon="5.32879">
        <ele>846</ele>
        <time>2022-01-20T11:21:48Z</time>
      </trkpt>
      <trkpt lat="44.01785" lon="5.32877">
        <ele>845.8</ele>
        <time>2022-01-20T11:21:54Z</time>
      </trkpt>
      <trkpt lat="44.01772" lon="5.3287">
        <ele>845.5</ele>
        <time>2022-01-20T11:22:08Z</time>
      </trkpt>
      <trkpt lat="44.01764" lon="5.32858">
        <ele>845.5</ele>
        <time>2022-01-20T11:22:23Z</time>
      </trkpt>
      <trkpt lat="44.01761" lon="5.32851">
        <ele>845.4</ele>
        <time>2022-01-20T11:22:33Z</time>
      </trkpt>
      <trkpt lat="44.01757" lon="5.32839">
        <ele>845.3</ele>
        <time>2022-01-20T11:22:46Z</time>
      </trkpt>
      <trkpt lat="44.01753" lon="5.32829">
        <ele>845.1</ele>
        <time>2022-01-20T11:22:57Z</time>
      </trkpt>
      <trkpt lat="44.01743" lon="5.32833">
        <ele>844.7</ele>
        <time>2022-01-20T11:23:11Z</time>
      </trkpt>
      <trkpt lat="44.01734" lon="5.32845">
        <ele>844.4</ele>
        <time>2022-01-20T11:23:26Z</time>
      </trkpt>
      <trkpt lat="44.01724" lon="5.32854">
        <ele>844.1</ele>
        <time>2022-01-20T11:23:39Z</time>
      </trkpt>
      <trkpt lat="44.01716" lon="5.3286">
        <ele>843.6</ele>
        <time>2022-01-20T11:23:53Z</time>
      </trkpt>
      <trkpt lat="44.01711" lon="5.3287">
        <ele>842.7</ele>
        <time>2022-01-20T11:24:09Z</time>
      </trkpt>
      <trkpt lat="44.01709" lon="5.3288">
        <ele>842</ele>
        <time>2022-01-20T11:24:23Z</time>
      </trkpt>
      <trkpt lat="44.01711" lon="5.32891">
        <ele>841.6</ele>
        <time>2022-01-20T11:24:37Z</time>
      </trkpt>
      <trkpt lat="44.01717" lon="5.32897">
        <ele>841.6</ele>
        <time>2022-01-20T11:24:51Z</time>
      </trkpt>
      <trkpt lat="44.01718" lon="5.32899">
        <ele>841.5</ele>
        <time>2022-01-20T11:25:10Z</time>
      </trkpt>
      <trkpt lat="44.01718" lon="5.32902">
        <ele>841.1</ele>
        <time>2022-01-20T11:25:27Z</time>
      </trkpt>
      <trkpt lat="44.01716" lon="5.32904">
        <ele>840.7</ele>
        <time>2022-01-20T11:25:43Z</time>
      </trkpt>
      <trkpt lat="44.01715" lon="5.32903">
        <ele>840.7</ele>
        <time>2022-01-20T11:25:57Z</time>
      </trkpt>
      <trkpt lat="44.01716" lon="5.32902">
        <ele>840.9</ele>
        <time>2022-01-20T11:26:28Z</time>
      </trkpt>
      <trkpt lat="44.01716" lon="5.32901">
        <ele>841</ele>
        <time>2022-01-20T11:26:55Z</time>
      </trkpt>
      <trkpt lat="44.01716" lon="5.32905">
        <ele>840.6</ele>
        <time>2022-01-20T11:39:31Z</time>
      </trkpt>
      <trkpt lat="44.01718" lon="5.32904">
        <ele>840.9</ele>
        <time>2022-01-20T11:45:49Z</time>
      </trkpt>
      <trkpt lat="44.01718" lon="5.32903">
        <ele>841</ele>
        <time>2022-01-20T11:46:42Z</time>
      </trkpt>
      <trkpt lat="44.01718" lon="5.32901">
        <ele>841.2</ele>
        <time>2022-01-20T11:47:05Z</time>
      </trkpt>
      <trkpt lat="44.01716" lon="5.32902">
        <ele>840.9</ele>
        <time>2022-01-20T11:52:30Z</time>
      </trkpt>
      <trkpt lat="44.01716" lon="5.32901">
        <ele>841</ele>
        <time>2022-01-20T11:53:28Z</time>
      </trkpt>
      <trkpt lat="44.01716" lon="5.329">
        <ele>841.1</ele>
        <time>2022-01-20T11:54:34Z</time>
      </trkpt>
      <trkpt lat="44.01717" lon="5.32905">
        <ele>840.7</ele>
        <time>2022-01-20T11:57:28Z</time>
      </trkpt>
      <trkpt lat="44.01715" lon="5.32905">
        <ele>840.5</ele>
        <time>2022-01-20T12:08:29Z</time>
      </trkpt>
      <trkpt lat="44.01718" lon="5.32904">
        <ele>840.9</ele>
        <time>2022-01-20T12:15:38Z</time>
      </trkpt>
      <trkpt lat="44.01717" lon="5.32903">
        <ele>840.9</ele>
        <time>2022-01-20T12:15:58Z</time>
      </trkpt>
      <trkpt lat="44.01715" lon="5.32898">
        <ele>841.2</ele>
        <time>2022-01-20T12:16:29Z</time>
      </trkpt>
      <trkpt lat="44.01714" lon="5.32893">
        <ele>841.7</ele>
        <time>2022-01-20T12:16:49Z</time>
      </trkpt>
      <trkpt lat="44.01713" lon="5.32892">
        <ele>841.7</ele>
        <time>2022-01-20T12:17:17Z</time>
      </trkpt>
      <trkpt lat="44.01714" lon="5.32893">
        <ele>841.7</ele>
        <time>2022-01-20T12:17:38Z</time>
      </trkpt>
      <trkpt lat="44.01715" lon="5.32891">
        <ele>842</ele>
        <time>2022-01-20T12:18:54Z</time>
      </trkpt>
      <trkpt lat="44.01715" lon="5.32893">
        <ele>841.8</ele>
        <time>2022-01-20T12:19:18Z</time>
      </trkpt>
      <trkpt lat="44.01715" lon="5.32894">
        <ele>841.7</ele>
        <time>2022-01-20T12:19:54Z</time>
      </trkpt>
      <trkpt lat="44.01714" lon="5.32897">
        <ele>841.2</ele>
        <time>2022-01-20T12:20:45Z</time>
      </trkpt>
      <trkpt lat="44.01713" lon="5.32897">
        <ele>841.1</ele>
        <time>2022-01-20T12:21:48Z</time>
      </trkpt>
      <trkpt lat="44.0171" lon="5.32893">
        <ele>841.2</ele>
        <time>2022-01-20T12:22:27Z</time>
      </trkpt>
      <trkpt lat="44.01707" lon="5.3289">
        <ele>841.2</ele>
        <time>2022-01-20T12:22:44Z</time>
      </trkpt>
      <trkpt lat="44.01701" lon="5.3289">
        <ele>840.6</ele>
        <time>2022-01-20T12:22:55Z</time>
      </trkpt>
      <trkpt lat="44.01691" lon="5.32883">
        <ele>840.1</ele>
        <time>2022-01-20T12:23:09Z</time>
      </trkpt>
      <trkpt lat="44.01689" lon="5.32881">
        <ele>840</ele>
        <time>2022-01-20T12:23:23Z</time>
      </trkpt>
      <trkpt lat="44.01686" lon="5.32877">
        <ele>839.9</ele>
        <time>2022-01-20T12:24:01Z</time>
      </trkpt>
      <trkpt lat="44.01684" lon="5.32871">
        <ele>840.2</ele>
        <time>2022-01-20T12:24:30Z</time>
      </trkpt>
      <trkpt lat="44.01675" lon="5.3286">
        <ele>840</ele>
        <time>2022-01-20T12:24:44Z</time>
      </trkpt>
      <trkpt lat="44.01666" lon="5.32852">
        <ele>839.6</ele>
        <time>2022-01-20T12:24:57Z</time>
      </trkpt>
      <trkpt lat="44.01654" lon="5.32844">
        <ele>839.6</ele>
        <time>2022-01-20T12:25:10Z</time>
      </trkpt>
      <trkpt lat="44.01653" lon="5.32825">
        <ele>840.8</ele>
        <time>2022-01-20T12:25:23Z</time>
      </trkpt>
      <trkpt lat="44.01652" lon="5.32813">
        <ele>841.2</ele>
        <time>2022-01-20T12:25:33Z</time>
      </trkpt>
      <trkpt lat="44.01648" lon="5.32801">
        <ele>841.2</ele>
        <time>2022-01-20T12:25:43Z</time>
      </trkpt>
      <trkpt lat="44.01646" lon="5.32796">
        <ele>841</ele>
        <time>2022-01-20T12:25:47Z</time>
      </trkpt>
      <trkpt lat="44.01641" lon="5.32772">
        <ele>840.1</ele>
        <time>2022-01-20T12:26:01Z</time>
      </trkpt>
      <trkpt lat="44.0164" lon="5.32767">
        <ele>840.1</ele>
        <time>2022-01-20T12:26:04Z</time>
      </trkpt>
      <trkpt lat="44.01635" lon="5.32753">
        <ele>839.9</ele>
        <time>2022-01-20T12:26:15Z</time>
      </trkpt>
      <trkpt lat="44.01633" lon="5.32739">
        <ele>839.4</ele>
        <time>2022-01-20T12:26:25Z</time>
      </trkpt>
      <trkpt lat="44.01635" lon="5.32732">
        <ele>839.2</ele>
        <time>2022-01-20T12:26:29Z</time>
      </trkpt>
      <trkpt lat="44.01647" lon="5.32719">
        <ele>839.1</ele>
        <time>2022-01-20T12:26:42Z</time>
      </trkpt>
      <trkpt lat="44.01648" lon="5.3271">
        <ele>838.6</ele>
        <time>2022-01-20T12:26:49Z</time>
      </trkpt>
      <trkpt lat="44.01651" lon="5.32699">
        <ele>838.1</ele>
        <time>2022-01-20T12:26:57Z</time>
      </trkpt>
      <trkpt lat="44.01647" lon="5.32678">
        <ele>836.6</ele>
        <time>2022-01-20T12:27:12Z</time>
      </trkpt>
      <trkpt lat="44.01636" lon="5.3266">
        <ele>834.5</ele>
        <time>2022-01-20T12:27:28Z</time>
      </trkpt>
      <trkpt lat="44.01624" lon="5.32644">
        <ele>832.9</ele>
        <time>2022-01-20T12:27:44Z</time>
      </trkpt>
      <trkpt lat="44.01622" lon="5.32642">
        <ele>832.7</ele>
        <time>2022-01-20T12:27:46Z</time>
      </trkpt>
      <trkpt lat="44.01617" lon="5.32623">
        <ele>829</ele>
        <time>2022-01-20T12:28:01Z</time>
      </trkpt>
      <trkpt lat="44.01615" lon="5.32609">
        <ele>826.1</ele>
        <time>2022-01-20T12:28:12Z</time>
      </trkpt>
      <trkpt lat="44.01619" lon="5.32604">
        <ele>825.8</ele>
        <time>2022-01-20T12:28:18Z</time>
      </trkpt>
      <trkpt lat="44.01612" lon="5.32592">
        <ele>822.7</ele>
        <time>2022-01-20T12:28:30Z</time>
      </trkpt>
      <trkpt lat="44.01612" lon="5.32591">
        <ele>822.5</ele>
        <time>2022-01-20T12:28:31Z</time>
      </trkpt>
      <trkpt lat="44.01607" lon="5.32577">
        <ele>820.8</ele>
        <time>2022-01-20T12:28:42Z</time>
      </trkpt>
      <trkpt lat="44.01594" lon="5.32561">
        <ele>819.6</ele>
        <time>2022-01-20T12:28:57Z</time>
      </trkpt>
      <trkpt lat="44.01594" lon="5.32549">
        <ele>818.2</ele>
        <time>2022-01-20T12:29:06Z</time>
      </trkpt>
      <trkpt lat="44.0159" lon="5.32539">
        <ele>817.1</ele>
        <time>2022-01-20T12:29:14Z</time>
      </trkpt>
      <trkpt lat="44.0159" lon="5.32523">
        <ele>815.1</ele>
        <time>2022-01-20T12:29:27Z</time>
      </trkpt>
      <trkpt lat="44.01588" lon="5.32519">
        <ele>814.6</ele>
        <time>2022-01-20T12:29:31Z</time>
      </trkpt>
      <trkpt lat="44.01588" lon="5.32514">
        <ele>813.9</ele>
        <time>2022-01-20T12:29:34Z</time>
      </trkpt>
      <trkpt lat="44.01577" lon="5.32499">
        <ele>811.9</ele>
        <time>2022-01-20T12:29:45Z</time>
      </trkpt>
      <trkpt lat="44.01571" lon="5.32488">
        <ele>811.2</ele>
        <time>2022-01-20T12:29:56Z</time>
      </trkpt>
      <trkpt lat="44.01567" lon="5.32484">
        <ele>810.7</ele>
        <time>2022-01-20T12:30:07Z</time>
      </trkpt>
      <trkpt lat="44.01563" lon="5.32486">
        <ele>810.8</ele>
        <time>2022-01-20T12:30:19Z</time>
      </trkpt>
      <trkpt lat="44.0156" lon="5.32488">
        <ele>810.8</ele>
        <time>2022-01-20T12:30:37Z</time>
      </trkpt>
      <trkpt lat="44.01554" lon="5.32484">
        <ele>810.4</ele>
        <time>2022-01-20T12:30:50Z</time>
      </trkpt>
      <trkpt lat="44.01551" lon="5.32479">
        <ele>810.3</ele>
        <time>2022-01-20T12:31:06Z</time>
      </trkpt>
      <trkpt lat="44.01541" lon="5.32469">
        <ele>811.2</ele>
        <time>2022-01-20T12:31:23Z</time>
      </trkpt>
      <trkpt lat="44.01536" lon="5.32468">
        <ele>811.9</ele>
        <time>2022-01-20T12:31:42Z</time>
      </trkpt>
      <trkpt lat="44.01533" lon="5.32466">
        <ele>812.3</ele>
        <time>2022-01-20T12:31:46Z</time>
      </trkpt>
      <trkpt lat="44.0152" lon="5.3246">
        <ele>813.6</ele>
        <time>2022-01-20T12:32:01Z</time>
      </trkpt>
      <trkpt lat="44.0151" lon="5.32455">
        <ele>814.3</ele>
        <time>2022-01-20T12:32:14Z</time>
      </trkpt>
      <trkpt lat="44.01503" lon="5.32445">
        <ele>814.8</ele>
        <time>2022-01-20T12:32:23Z</time>
      </trkpt>
      <trkpt lat="44.01495" lon="5.32437">
        <ele>815.7</ele>
        <time>2022-01-20T12:32:33Z</time>
      </trkpt>
      <trkpt lat="44.0149" lon="5.32433">
        <ele>816</ele>
        <time>2022-01-20T12:32:39Z</time>
      </trkpt>
      <trkpt lat="44.0148" lon="5.3242">
        <ele>816.1</ele>
        <time>2022-01-20T12:32:54Z</time>
      </trkpt>
      <trkpt lat="44.01475" lon="5.32421">
        <ele>816.3</ele>
        <time>2022-01-20T12:33:08Z</time>
      </trkpt>
      <trkpt lat="44.01466" lon="5.3242">
        <ele>816.2</ele>
        <time>2022-01-20T12:33:20Z</time>
      </trkpt>
      <trkpt lat="44.01457" lon="5.32423">
        <ele>816.5</ele>
        <time>2022-01-20T12:33:34Z</time>
      </trkpt>
      <trkpt lat="44.01455" lon="5.32431">
        <ele>817</ele>
        <time>2022-01-20T12:33:48Z</time>
      </trkpt>
      <trkpt lat="44.01454" lon="5.32435">
        <ele>817.3</ele>
        <time>2022-01-20T12:34:16Z</time>
      </trkpt>
      <trkpt lat="44.01455" lon="5.32431">
        <ele>817</ele>
        <time>2022-01-20T12:34:36Z</time>
      </trkpt>
      <trkpt lat="44.01454" lon="5.32429">
        <ele>816.9</ele>
        <time>2022-01-20T12:34:51Z</time>
      </trkpt>
      <trkpt lat="44.01455" lon="5.32428">
        <ele>816.8</ele>
        <time>2022-01-20T12:35:10Z</time>
      </trkpt>
      <trkpt lat="44.01455" lon="5.32431">
        <ele>817</ele>
        <time>2022-01-20T12:35:46Z</time>
      </trkpt>
      <trkpt lat="44.01455" lon="5.32437">
        <ele>817.5</ele>
        <time>2022-01-20T12:35:59Z</time>
      </trkpt>
      <trkpt lat="44.01457" lon="5.32432">
        <ele>817.1</ele>
        <time>2022-01-20T12:36:27Z</time>
      </trkpt>
      <trkpt lat="44.01454" lon="5.32429">
        <ele>816.9</ele>
        <time>2022-01-20T12:36:45Z</time>
      </trkpt>
      <trkpt lat="44.01453" lon="5.32427">
        <ele>816.7</ele>
        <time>2022-01-20T12:37:07Z</time>
      </trkpt>
      <trkpt lat="44.01451" lon="5.32424">
        <ele>816.5</ele>
        <time>2022-01-20T12:37:30Z</time>
      </trkpt>
      <trkpt lat="44.01448" lon="5.32424">
        <ele>816.5</ele>
        <time>2022-01-20T12:37:46Z</time>
      </trkpt>
      <trkpt lat="44.01444" lon="5.32422">
        <ele>816.4</ele>
        <time>2022-01-20T12:38:06Z</time>
      </trkpt>
      <trkpt lat="44.01441" lon="5.32423">
        <ele>816.4</ele>
        <time>2022-01-20T12:38:09Z</time>
      </trkpt>
      <trkpt lat="44.01425" lon="5.32421">
        <ele>816.2</ele>
        <time>2022-01-20T12:38:26Z</time>
      </trkpt>
      <trkpt lat="44.01407" lon="5.32413">
        <ele>815.4</ele>
        <time>2022-01-20T12:38:42Z</time>
      </trkpt>
      <trkpt lat="44.01389" lon="5.32408">
        <ele>814.7</ele>
        <time>2022-01-20T12:38:58Z</time>
      </trkpt>
      <trkpt lat="44.01374" lon="5.32404">
        <ele>814.3</ele>
        <time>2022-01-20T12:39:13Z</time>
      </trkpt>
      <trkpt lat="44.01368" lon="5.324">
        <ele>814.1</ele>
        <time>2022-01-20T12:39:21Z</time>
      </trkpt>
      <trkpt lat="44.01359" lon="5.3238">
        <ele>814.2</ele>
        <time>2022-01-20T12:39:37Z</time>
      </trkpt>
      <trkpt lat="44.01354" lon="5.32372">
        <ele>814.1</ele>
        <time>2022-01-20T12:39:48Z</time>
      </trkpt>
      <trkpt lat="44.01351" lon="5.32377">
        <ele>813.7</ele>
        <time>2022-01-20T12:39:59Z</time>
      </trkpt>
      <trkpt lat="44.01346" lon="5.32385">
        <ele>813.1</ele>
        <time>2022-01-20T12:40:11Z</time>
      </trkpt>
      <trkpt lat="44.01336" lon="5.32384">
        <ele>812.4</ele>
        <time>2022-01-20T12:40:24Z</time>
      </trkpt>
      <trkpt lat="44.01332" lon="5.32382">
        <ele>812.2</ele>
        <time>2022-01-20T12:40:29Z</time>
      </trkpt>
      <trkpt lat="44.01316" lon="5.32372">
        <ele>811.6</ele>
        <time>2022-01-20T12:40:46Z</time>
      </trkpt>
      <trkpt lat="44.01301" lon="5.32363">
        <ele>810.8</ele>
        <time>2022-01-20T12:41:02Z</time>
      </trkpt>
      <trkpt lat="44.01289" lon="5.32357">
        <ele>810.6</ele>
        <time>2022-01-20T12:41:16Z</time>
      </trkpt>
      <trkpt lat="44.01278" lon="5.3235">
        <ele>810.4</ele>
        <time>2022-01-20T12:41:29Z</time>
      </trkpt>
      <trkpt lat="44.01271" lon="5.32341">
        <ele>810.5</ele>
        <time>2022-01-20T12:41:36Z</time>
      </trkpt>
      <trkpt lat="44.01256" lon="5.32334">
        <ele>810.2</ele>
        <time>2022-01-20T12:41:49Z</time>
      </trkpt>
      <trkpt lat="44.01244" lon="5.32327">
        <ele>809.6</ele>
        <time>2022-01-20T12:42:00Z</time>
      </trkpt>
      <trkpt lat="44.01234" lon="5.32322">
        <ele>809.1</ele>
        <time>2022-01-20T12:42:11Z</time>
      </trkpt>
      <trkpt lat="44.01228" lon="5.32319">
        <ele>808.8</ele>
        <time>2022-01-20T12:42:17Z</time>
      </trkpt>
      <trkpt lat="44.01212" lon="5.32312">
        <ele>807.7</ele>
        <time>2022-01-20T12:42:30Z</time>
      </trkpt>
      <trkpt lat="44.01197" lon="5.32307">
        <ele>806.3</ele>
        <time>2022-01-20T12:42:45Z</time>
      </trkpt>
      <trkpt lat="44.01186" lon="5.3231">
        <ele>805.6</ele>
        <time>2022-01-20T12:42:57Z</time>
      </trkpt>
      <trkpt lat="44.01173" lon="5.32314">
        <ele>804.8</ele>
        <time>2022-01-20T12:43:09Z</time>
      </trkpt>
      <trkpt lat="44.01152" lon="5.32311">
        <ele>803.7</ele>
        <time>2022-01-20T12:43:26Z</time>
      </trkpt>
      <trkpt lat="44.01135" lon="5.32303">
        <ele>802.8</ele>
        <time>2022-01-20T12:43:43Z</time>
      </trkpt>
      <trkpt lat="44.01132" lon="5.32301">
        <ele>802.7</ele>
        <time>2022-01-20T12:43:46Z</time>
      </trkpt>
      <trkpt lat="44.0111" lon="5.32284">
        <ele>801.7</ele>
        <time>2022-01-20T12:44:09Z</time>
      </trkpt>
      <trkpt lat="44.01089" lon="5.32262">
        <ele>799.6</ele>
        <time>2022-01-20T12:44:32Z</time>
      </trkpt>
      <trkpt lat="44.01069" lon="5.32246">
        <ele>798</ele>
        <time>2022-01-20T12:44:53Z</time>
      </trkpt>
      <trkpt lat="44.01051" lon="5.32221">
        <ele>796.5</ele>
        <time>2022-01-20T12:45:15Z</time>
      </trkpt>
      <trkpt lat="44.01031" lon="5.32203">
        <ele>794.3</ele>
        <time>2022-01-20T12:45:36Z</time>
      </trkpt>
      <trkpt lat="44.01004" lon="5.32182">
        <ele>792.3</ele>
        <time>2022-01-20T12:46:03Z</time>
      </trkpt>
      <trkpt lat="44.00982" lon="5.32175">
        <ele>790.1</ele>
        <time>2022-01-20T12:46:23Z</time>
      </trkpt>
      <trkpt lat="44.00959" lon="5.32162">
        <ele>788.1</ele>
        <time>2022-01-20T12:46:45Z</time>
      </trkpt>
      <trkpt lat="44.00934" lon="5.32146">
        <ele>786.2</ele>
        <time>2022-01-20T12:47:08Z</time>
      </trkpt>
      <trkpt lat="44.00912" lon="5.32126">
        <ele>784.7</ele>
        <time>2022-01-20T12:47:31Z</time>
      </trkpt>
      <trkpt lat="44.00888" lon="5.32106">
        <ele>783</ele>
        <time>2022-01-20T12:47:55Z</time>
      </trkpt>
      <trkpt lat="44.00867" lon="5.32081">
        <ele>782.2</ele>
        <time>2022-01-20T12:48:18Z</time>
      </trkpt>
      <trkpt lat="44.00849" lon="5.32062">
        <ele>780.4</ele>
        <time>2022-01-20T12:48:39Z</time>
      </trkpt>
      <trkpt lat="44.00829" lon="5.32063">
        <ele>778.9</ele>
        <time>2022-01-20T12:48:56Z</time>
      </trkpt>
      <trkpt lat="44.00807" lon="5.3206">
        <ele>777.1</ele>
        <time>2022-01-20T12:49:15Z</time>
      </trkpt>
      <trkpt lat="44.00783" lon="5.3205">
        <ele>774.4</ele>
        <time>2022-01-20T12:49:37Z</time>
      </trkpt>
      <trkpt lat="44.00762" lon="5.32046">
        <ele>772</ele>
        <time>2022-01-20T12:49:57Z</time>
      </trkpt>
      <trkpt lat="44.00742" lon="5.32043">
        <ele>769.6</ele>
        <time>2022-01-20T12:50:16Z</time>
      </trkpt>
      <trkpt lat="44.00728" lon="5.32031">
        <ele>767</ele>
        <time>2022-01-20T12:50:32Z</time>
      </trkpt>
      <trkpt lat="44.0071" lon="5.3202">
        <ele>764.3</ele>
        <time>2022-01-20T12:50:54Z</time>
      </trkpt>
      <trkpt lat="44.00709" lon="5.3202">
        <ele>764.2</ele>
        <time>2022-01-20T12:51:17Z</time>
      </trkpt>
      <trkpt lat="44.00705" lon="5.32019">
        <ele>763.6</ele>
        <time>2022-01-20T12:51:49Z</time>
      </trkpt>
      <trkpt lat="44.00692" lon="5.32004">
        <ele>761</ele>
        <time>2022-01-20T12:52:07Z</time>
      </trkpt>
      <trkpt lat="44.00675" lon="5.32002">
        <ele>759</ele>
        <time>2022-01-20T12:52:23Z</time>
      </trkpt>
      <trkpt lat="44.00656" lon="5.32001">
        <ele>756.5</ele>
        <time>2022-01-20T12:52:41Z</time>
      </trkpt>
      <trkpt lat="44.00633" lon="5.31998">
        <ele>753.1</ele>
        <time>2022-01-20T12:53:02Z</time>
      </trkpt>
      <trkpt lat="44.00609" lon="5.31998">
        <ele>750.6</ele>
        <time>2022-01-20T12:53:23Z</time>
      </trkpt>
      <trkpt lat="44.00586" lon="5.31997">
        <ele>748.9</ele>
        <time>2022-01-20T12:53:43Z</time>
      </trkpt>
      <trkpt lat="44.00558" lon="5.31994">
        <ele>745.6</ele>
        <time>2022-01-20T12:54:07Z</time>
      </trkpt>
      <trkpt lat="44.00534" lon="5.31993">
        <ele>742.9</ele>
        <time>2022-01-20T12:54:28Z</time>
      </trkpt>
      <trkpt lat="44.0051" lon="5.31991">
        <ele>739.9</ele>
        <time>2022-01-20T12:54:49Z</time>
      </trkpt>
      <trkpt lat="44.00489" lon="5.31991">
        <ele>737.7</ele>
        <time>2022-01-20T12:55:07Z</time>
      </trkpt>
      <trkpt lat="44.00476" lon="5.3199">
        <ele>736.7</ele>
        <time>2022-01-20T12:55:20Z</time>
      </trkpt>
      <trkpt lat="44.00464" lon="5.31988">
        <ele>736.1</ele>
        <time>2022-01-20T12:55:32Z</time>
      </trkpt>
      <trkpt lat="44.00449" lon="5.31988">
        <ele>735.5</ele>
        <time>2022-01-20T12:55:45Z</time>
      </trkpt>
      <trkpt lat="44.00428" lon="5.31987">
        <ele>736</ele>
        <time>2022-01-20T12:56:02Z</time>
      </trkpt>
      <trkpt lat="44.00412" lon="5.31986">
        <ele>736.8</ele>
        <time>2022-01-20T12:56:17Z</time>
      </trkpt>
      <trkpt lat="44.00399" lon="5.31986">
        <ele>737.5</ele>
        <time>2022-01-20T12:56:28Z</time>
      </trkpt>
      <trkpt lat="44.00382" lon="5.31988">
        <ele>737.9</ele>
        <time>2022-01-20T12:56:44Z</time>
      </trkpt>
      <trkpt lat="44.00364" lon="5.3199">
        <ele>738</ele>
        <time>2022-01-20T12:56:59Z</time>
      </trkpt>
      <trkpt lat="44.00345" lon="5.31992">
        <ele>738.4</ele>
        <time>2022-01-20T12:57:16Z</time>
      </trkpt>
      <trkpt lat="44.00325" lon="5.3199">
        <ele>739.1</ele>
        <time>2022-01-20T12:57:31Z</time>
      </trkpt>
      <trkpt lat="44.00302" lon="5.31987">
        <ele>739.4</ele>
        <time>2022-01-20T12:57:50Z</time>
      </trkpt>
      <trkpt lat="44.00281" lon="5.3198">
        <ele>740.2</ele>
        <time>2022-01-20T12:58:08Z</time>
      </trkpt>
      <trkpt lat="44.00262" lon="5.31965">
        <ele>741.1</ele>
        <time>2022-01-20T12:58:27Z</time>
      </trkpt>
      <trkpt lat="44.00242" lon="5.3195">
        <ele>742.1</ele>
        <time>2022-01-20T12:58:47Z</time>
      </trkpt>
      <trkpt lat="44.00222" lon="5.31939">
        <ele>742.4</ele>
        <time>2022-01-20T12:59:05Z</time>
      </trkpt>
      <trkpt lat="44.00202" lon="5.31922">
        <ele>742.2</ele>
        <time>2022-01-20T12:59:25Z</time>
      </trkpt>
      <trkpt lat="44.00187" lon="5.31908">
        <ele>742.4</ele>
        <time>2022-01-20T12:59:42Z</time>
      </trkpt>
      <trkpt lat="44.00181" lon="5.31902">
        <ele>742.6</ele>
        <time>2022-01-20T12:59:59Z</time>
      </trkpt>
      <trkpt lat="44.00178" lon="5.319">
        <ele>742.6</ele>
        <time>2022-01-20T13:00:43Z</time>
      </trkpt>
      <trkpt lat="44.00163" lon="5.31887">
        <ele>742.9</ele>
        <time>2022-01-20T13:00:59Z</time>
      </trkpt>
      <trkpt lat="44.00141" lon="5.3187">
        <ele>743.2</ele>
        <time>2022-01-20T13:01:20Z</time>
      </trkpt>
      <trkpt lat="44.00122" lon="5.31853">
        <ele>743.7</ele>
        <time>2022-01-20T13:01:39Z</time>
      </trkpt>
      <trkpt lat="44.00103" lon="5.31832">
        <ele>744.5</ele>
        <time>2022-01-20T13:01:59Z</time>
      </trkpt>
      <trkpt lat="44.00088" lon="5.31813">
        <ele>744.8</ele>
        <time>2022-01-20T13:02:16Z</time>
      </trkpt>
      <trkpt lat="44.00072" lon="5.31794">
        <ele>745.3</ele>
        <time>2022-01-20T13:02:33Z</time>
      </trkpt>
      <trkpt lat="44.00056" lon="5.31779">
        <ele>745</ele>
        <time>2022-01-20T13:02:49Z</time>
      </trkpt>
      <trkpt lat="44.00037" lon="5.31763">
        <ele>745.2</ele>
        <time>2022-01-20T13:03:08Z</time>
      </trkpt>
      <trkpt lat="44.00013" lon="5.31762">
        <ele>744.6</ele>
        <time>2022-01-20T13:03:29Z</time>
      </trkpt>
      <trkpt lat="43.99985" lon="5.31762">
        <ele>744.3</ele>
        <time>2022-01-20T13:03:52Z</time>
      </trkpt>
      <trkpt lat="43.99961" lon="5.31761">
        <ele>744.3</ele>
        <time>2022-01-20T13:04:11Z</time>
      </trkpt>
      <trkpt lat="43.99942" lon="5.31744">
        <ele>744.1</ele>
        <time>2022-01-20T13:04:30Z</time>
      </trkpt>
      <trkpt lat="43.99925" lon="5.31719">
        <ele>744.9</ele>
        <time>2022-01-20T13:04:51Z</time>
      </trkpt>
      <trkpt lat="43.99915" lon="5.31705">
        <ele>744.5</ele>
        <time>2022-01-20T13:05:03Z</time>
      </trkpt>
      <trkpt lat="43.99908" lon="5.31694">
        <ele>744.5</ele>
        <time>2022-01-20T13:05:13Z</time>
      </trkpt>
      <trkpt lat="43.99904" lon="5.31686">
        <ele>744.3</ele>
        <time>2022-01-20T13:05:18Z</time>
      </trkpt>
      <trkpt lat="43.99886" lon="5.3166">
        <ele>742.1</ele>
        <time>2022-01-20T13:05:39Z</time>
      </trkpt>
      <trkpt lat="43.99868" lon="5.31636">
        <ele>741.9</ele>
        <time>2022-01-20T13:06:00Z</time>
      </trkpt>
      <trkpt lat="43.99846" lon="5.31611">
        <ele>740.6</ele>
        <time>2022-01-20T13:06:24Z</time>
      </trkpt>
      <trkpt lat="43.99825" lon="5.31593">
        <ele>740</ele>
        <time>2022-01-20T13:06:44Z</time>
      </trkpt>
      <trkpt lat="43.99801" lon="5.31573">
        <ele>738.5</ele>
        <time>2022-01-20T13:07:08Z</time>
      </trkpt>
      <trkpt lat="43.99776" lon="5.3155">
        <ele>737.6</ele>
        <time>2022-01-20T13:07:33Z</time>
      </trkpt>
      <trkpt lat="43.99758" lon="5.31534">
        <ele>736.9</ele>
        <time>2022-01-20T13:07:51Z</time>
      </trkpt>
      <trkpt lat="43.99743" lon="5.31522">
        <ele>735.6</ele>
        <time>2022-01-20T13:08:07Z</time>
      </trkpt>
      <trkpt lat="43.99732" lon="5.31515">
        <ele>735</ele>
        <time>2022-01-20T13:08:19Z</time>
      </trkpt>
      <trkpt lat="43.99726" lon="5.31511">
        <ele>734.5</ele>
        <time>2022-01-20T13:08:25Z</time>
      </trkpt>
      <trkpt lat="43.99719" lon="5.31503">
        <ele>733.4</ele>
        <time>2022-01-20T13:08:39Z</time>
      </trkpt>
      <trkpt lat="43.99715" lon="5.31499">
        <ele>732.9</ele>
        <time>2022-01-20T13:08:57Z</time>
      </trkpt>
      <trkpt lat="43.99713" lon="5.31497">
        <ele>732.7</ele>
        <time>2022-01-20T13:09:11Z</time>
      </trkpt>
      <trkpt lat="43.99711" lon="5.31497">
        <ele>732.7</ele>
        <time>2022-01-20T13:09:30Z</time>
      </trkpt>
      <trkpt lat="43.99703" lon="5.31478">
        <ele>730.6</ele>
        <time>2022-01-20T13:09:49Z</time>
      </trkpt>
      <trkpt lat="43.99705" lon="5.31467">
        <ele>729.3</ele>
        <time>2022-01-20T13:10:00Z</time>
      </trkpt>
      <trkpt lat="43.99702" lon="5.31464">
        <ele>728.9</ele>
        <time>2022-01-20T13:10:04Z</time>
      </trkpt>
      <trkpt lat="43.99701" lon="5.31462">
        <ele>728.6</ele>
        <time>2022-01-20T13:10:06Z</time>
      </trkpt>
      <trkpt lat="43.99695" lon="5.3146">
        <ele>728.2</ele>
        <time>2022-01-20T13:10:11Z</time>
      </trkpt>
      <trkpt lat="43.9969" lon="5.31457">
        <ele>727.6</ele>
        <time>2022-01-20T13:10:16Z</time>
      </trkpt>
      <trkpt lat="43.99673" lon="5.31445">
        <ele>725.3</ele>
        <time>2022-01-20T13:10:31Z</time>
      </trkpt>
      <trkpt lat="43.99658" lon="5.31443">
        <ele>724.5</ele>
        <time>2022-01-20T13:10:43Z</time>
      </trkpt>
      <trkpt lat="43.99641" lon="5.31438">
        <ele>723.4</ele>
        <time>2022-01-20T13:10:58Z</time>
      </trkpt>
      <trkpt lat="43.99626" lon="5.31437">
        <ele>722.9</ele>
        <time>2022-01-20T13:11:11Z</time>
      </trkpt>
      <trkpt lat="43.99612" lon="5.31434">
        <ele>722.3</ele>
        <time>2022-01-20T13:11:23Z</time>
      </trkpt>
      <trkpt lat="43.99598" lon="5.31434">
        <ele>722.1</ele>
        <time>2022-01-20T13:11:36Z</time>
      </trkpt>
      <trkpt lat="43.99581" lon="5.3143">
        <ele>721.4</ele>
        <time>2022-01-20T13:11:53Z</time>
      </trkpt>
      <trkpt lat="43.99567" lon="5.31433">
        <ele>721.8</ele>
        <time>2022-01-20T13:12:08Z</time>
      </trkpt>
      <trkpt lat="43.99559" lon="5.31434">
        <ele>721.9</ele>
        <time>2022-01-20T13:12:23Z</time>
      </trkpt>
      <trkpt lat="43.9954" lon="5.31436">
        <ele>721.5</ele>
        <time>2022-01-20T13:12:41Z</time>
      </trkpt>
      <trkpt lat="43.99519" lon="5.31438">
        <ele>721.3</ele>
        <time>2022-01-20T13:12:58Z</time>
      </trkpt>
      <trkpt lat="43.99501" lon="5.3144">
        <ele>721.5</ele>
        <time>2022-01-20T13:13:15Z</time>
      </trkpt>
      <trkpt lat="43.99497" lon="5.31438">
        <ele>721.2</ele>
        <time>2022-01-20T13:13:28Z</time>
      </trkpt>
      <trkpt lat="43.99485" lon="5.31436">
        <ele>720.9</ele>
        <time>2022-01-20T13:13:41Z</time>
      </trkpt>
      <trkpt lat="43.99477" lon="5.3143">
        <ele>720.5</ele>
        <time>2022-01-20T13:13:56Z</time>
      </trkpt>
      <trkpt lat="43.99476" lon="5.31428">
        <ele>720.4</ele>
        <time>2022-01-20T13:14:19Z</time>
      </trkpt>
      <trkpt lat="43.99477" lon="5.31428">
        <ele>720.4</ele>
        <time>2022-01-20T13:14:48Z</time>
      </trkpt>
      <trkpt lat="43.99483" lon="5.31427">
        <ele>720.3</ele>
        <time>2022-01-20T13:15:37Z</time>
      </trkpt>
      <trkpt lat="43.99489" lon="5.31422">
        <ele>719.8</ele>
        <time>2022-01-20T13:15:50Z</time>
      </trkpt>
      <trkpt lat="43.99496" lon="5.31416">
        <ele>719.1</ele>
        <time>2022-01-20T13:16:01Z</time>
      </trkpt>
      <trkpt lat="43.99516" lon="5.31402">
        <ele>718.5</ele>
        <time>2022-01-20T13:16:20Z</time>
      </trkpt>
      <trkpt lat="43.99533" lon="5.3139">
        <ele>718</ele>
        <time>2022-01-20T13:16:34Z</time>
      </trkpt>
      <trkpt lat="43.99537" lon="5.31385">
        <ele>717.9</ele>
        <time>2022-01-20T13:16:39Z</time>
      </trkpt>
      <trkpt lat="43.99555" lon="5.3137">
        <ele>717.3</ele>
        <time>2022-01-20T13:16:54Z</time>
      </trkpt>
      <trkpt lat="43.99565" lon="5.3136">
        <ele>716.6</ele>
        <time>2022-01-20T13:17:05Z</time>
      </trkpt>
      <trkpt lat="43.99581" lon="5.31343">
        <ele>716</ele>
        <time>2022-01-20T13:17:20Z</time>
      </trkpt>
      <trkpt lat="43.99597" lon="5.31332">
        <ele>715.4</ele>
        <time>2022-01-20T13:17:33Z</time>
      </trkpt>
      <trkpt lat="43.9961" lon="5.31318">
        <ele>714.5</ele>
        <time>2022-01-20T13:17:45Z</time>
      </trkpt>
      <trkpt lat="43.9962" lon="5.31304">
        <ele>713.9</ele>
        <time>2022-01-20T13:17:57Z</time>
      </trkpt>
      <trkpt lat="43.99635" lon="5.31292">
        <ele>713</ele>
        <time>2022-01-20T13:18:11Z</time>
      </trkpt>
      <trkpt lat="43.9964" lon="5.31284">
        <ele>712.4</ele>
        <time>2022-01-20T13:18:23Z</time>
      </trkpt>
      <trkpt lat="43.99657" lon="5.31267">
        <ele>711.5</ele>
        <time>2022-01-20T13:18:40Z</time>
      </trkpt>
      <trkpt lat="43.99671" lon="5.31244">
        <ele>710.9</ele>
        <time>2022-01-20T13:18:58Z</time>
      </trkpt>
      <trkpt lat="43.99683" lon="5.31219">
        <ele>710</ele>
        <time>2022-01-20T13:19:14Z</time>
      </trkpt>
      <trkpt lat="43.99688" lon="5.31197">
        <ele>709.4</ele>
        <time>2022-01-20T13:19:28Z</time>
      </trkpt>
      <trkpt lat="43.99693" lon="5.3117">
        <ele>708.1</ele>
        <time>2022-01-20T13:19:44Z</time>
      </trkpt>
      <trkpt lat="43.997" lon="5.31143">
        <ele>706.7</ele>
        <time>2022-01-20T13:20:01Z</time>
      </trkpt>
      <trkpt lat="43.99703" lon="5.31135">
        <ele>706.3</ele>
        <time>2022-01-20T13:20:14Z</time>
      </trkpt>
      <trkpt lat="43.99703" lon="5.31133">
        <ele>706.1</ele>
        <time>2022-01-20T13:20:16Z</time>
      </trkpt>
      <trkpt lat="43.99704" lon="5.31131">
        <ele>706</ele>
        <time>2022-01-20T13:20:17Z</time>
      </trkpt>
      <trkpt lat="43.99704" lon="5.3113">
        <ele>705.9</ele>
        <time>2022-01-20T13:20:18Z</time>
      </trkpt>
      <trkpt lat="43.99704" lon="5.31128">
        <ele>705.8</ele>
        <time>2022-01-20T13:20:19Z</time>
      </trkpt>
      <trkpt lat="43.99705" lon="5.31127">
        <ele>705.7</ele>
        <time>2022-01-20T13:20:20Z</time>
      </trkpt>
      <trkpt lat="43.99713" lon="5.311">
        <ele>703.7</ele>
        <time>2022-01-20T13:20:37Z</time>
      </trkpt>
      <trkpt lat="43.99718" lon="5.31076">
        <ele>701.9</ele>
        <time>2022-01-20T13:20:51Z</time>
      </trkpt>
      <trkpt lat="43.99723" lon="5.31057">
        <ele>700.2</ele>
        <time>2022-01-20T13:21:02Z</time>
      </trkpt>
      <trkpt lat="43.99728" lon="5.31028">
        <ele>699</ele>
        <time>2022-01-20T13:21:20Z</time>
      </trkpt>
      <trkpt lat="43.99734" lon="5.30997">
        <ele>696.8</ele>
        <time>2022-01-20T13:21:40Z</time>
      </trkpt>
      <trkpt lat="43.99739" lon="5.30972">
        <ele>695</ele>
        <time>2022-01-20T13:21:54Z</time>
      </trkpt>
      <trkpt lat="43.99746" lon="5.3094">
        <ele>693.8</ele>
        <time>2022-01-20T13:22:13Z</time>
      </trkpt>
      <trkpt lat="43.99754" lon="5.30905">
        <ele>692.6</ele>
        <time>2022-01-20T13:22:33Z</time>
      </trkpt>
      <trkpt lat="43.99758" lon="5.30884">
        <ele>691.8</ele>
        <time>2022-01-20T13:22:45Z</time>
      </trkpt>
      <trkpt lat="43.99759" lon="5.30864">
        <ele>691.1</ele>
        <time>2022-01-20T13:22:58Z</time>
      </trkpt>
      <trkpt lat="43.99763" lon="5.30828">
        <ele>690.2</ele>
        <time>2022-01-20T13:23:21Z</time>
      </trkpt>
      <trkpt lat="43.99762" lon="5.30818">
        <ele>689.6</ele>
        <time>2022-01-20T13:23:32Z</time>
      </trkpt>
      <trkpt lat="43.9976" lon="5.30817">
        <ele>689.4</ele>
        <time>2022-01-20T13:23:39Z</time>
      </trkpt>
      <trkpt lat="43.99761" lon="5.30817">
        <ele>689.5</ele>
        <time>2022-01-20T13:23:50Z</time>
      </trkpt>
      <trkpt lat="43.99756" lon="5.30817">
        <ele>689.2</ele>
        <time>2022-01-20T13:24:12Z</time>
      </trkpt>
      <trkpt lat="43.99743" lon="5.30816">
        <ele>688.4</ele>
        <time>2022-01-20T13:24:29Z</time>
      </trkpt>
      <trkpt lat="43.99732" lon="5.30815">
        <ele>687.8</ele>
        <time>2022-01-20T13:24:42Z</time>
      </trkpt>
      <trkpt lat="43.99729" lon="5.30812">
        <ele>687.5</ele>
        <time>2022-01-20T13:24:44Z</time>
      </trkpt>
      <trkpt lat="43.9972" lon="5.30806">
        <ele>687.2</ele>
        <time>2022-01-20T13:24:55Z</time>
      </trkpt>
      <trkpt lat="43.99719" lon="5.30805">
        <ele>687.2</ele>
        <time>2022-01-20T13:24:56Z</time>
      </trkpt>
      <trkpt lat="43.99718" lon="5.30804">
        <ele>687.2</ele>
        <time>2022-01-20T13:24:57Z</time>
      </trkpt>
      <trkpt lat="43.99717" lon="5.30803">
        <ele>687.3</ele>
        <time>2022-01-20T13:24:58Z</time>
      </trkpt>
      <trkpt lat="43.99715" lon="5.30798">
        <ele>687.2</ele>
        <time>2022-01-20T13:25:02Z</time>
      </trkpt>
      <trkpt lat="43.99715" lon="5.30797">
        <ele>687.1</ele>
        <time>2022-01-20T13:25:03Z</time>
      </trkpt>
      <trkpt lat="43.99714" lon="5.30795">
        <ele>687.1</ele>
        <time>2022-01-20T13:25:04Z</time>
      </trkpt>
      <trkpt lat="43.99714" lon="5.30793">
        <ele>687</ele>
        <time>2022-01-20T13:25:05Z</time>
      </trkpt>
      <trkpt lat="43.99714" lon="5.30791">
        <ele>686.9</ele>
        <time>2022-01-20T13:25:06Z</time>
      </trkpt>
      <trkpt lat="43.99714" lon="5.3079">
        <ele>686.9</ele>
        <time>2022-01-20T13:25:07Z</time>
      </trkpt>
      <trkpt lat="43.99713" lon="5.30788">
        <ele>686.8</ele>
        <time>2022-01-20T13:25:08Z</time>
      </trkpt>
      <trkpt lat="43.99708" lon="5.3077">
        <ele>686.1</ele>
        <time>2022-01-20T13:25:23Z</time>
      </trkpt>
      <trkpt lat="43.99702" lon="5.30754">
        <ele>685.2</ele>
        <time>2022-01-20T13:25:36Z</time>
      </trkpt>
      <trkpt lat="43.99694" lon="5.30737">
        <ele>684.1</ele>
        <time>2022-01-20T13:25:50Z</time>
      </trkpt>
      <trkpt lat="43.9969" lon="5.30728">
        <ele>683.6</ele>
        <time>2022-01-20T13:25:58Z</time>
      </trkpt>
      <trkpt lat="43.9969" lon="5.30727">
        <ele>683.5</ele>
        <time>2022-01-20T13:25:59Z</time>
      </trkpt>
      <trkpt lat="43.99689" lon="5.30726">
        <ele>683.5</ele>
        <time>2022-01-20T13:26:00Z</time>
      </trkpt>
      <trkpt lat="43.99688" lon="5.30725">
        <ele>683.5</ele>
        <time>2022-01-20T13:26:01Z</time>
      </trkpt>
      <trkpt lat="43.99687" lon="5.30723">
        <ele>683.3</ele>
        <time>2022-01-20T13:26:02Z</time>
      </trkpt>
      <trkpt lat="43.99686" lon="5.30722">
        <ele>683.3</ele>
        <time>2022-01-20T13:26:03Z</time>
      </trkpt>
      <trkpt lat="43.9968" lon="5.30712">
        <ele>683.5</ele>
        <time>2022-01-20T13:26:12Z</time>
      </trkpt>
      <trkpt lat="43.99679" lon="5.30711">
        <ele>683.5</ele>
        <time>2022-01-20T13:26:13Z</time>
      </trkpt>
      <trkpt lat="43.99672" lon="5.30701">
        <ele>682.9</ele>
        <time>2022-01-20T13:26:28Z</time>
      </trkpt>
      <trkpt lat="43.99666" lon="5.30698">
        <ele>682.3</ele>
        <time>2022-01-20T13:26:43Z</time>
      </trkpt>
      <trkpt lat="43.99665" lon="5.30697">
        <ele>682.3</ele>
        <time>2022-01-20T13:27:12Z</time>
      </trkpt>
      <trkpt lat="43.99663" lon="5.30694">
        <ele>682.3</ele>
        <time>2022-01-20T13:27:42Z</time>
      </trkpt>
      <trkpt lat="43.99657" lon="5.30691">
        <ele>682.6</ele>
        <time>2022-01-20T13:28:00Z</time>
      </trkpt>
      <trkpt lat="43.99649" lon="5.30676">
        <ele>682.2</ele>
        <time>2022-01-20T13:28:16Z</time>
      </trkpt>
      <trkpt lat="43.99635" lon="5.3066">
        <ele>681.1</ele>
        <time>2022-01-20T13:28:32Z</time>
      </trkpt>
      <trkpt lat="43.99626" lon="5.30651">
        <ele>680.9</ele>
        <time>2022-01-20T13:28:41Z</time>
      </trkpt>
      <trkpt lat="43.99625" lon="5.3065">
        <ele>680.8</ele>
        <time>2022-01-20T13:28:42Z</time>
      </trkpt>
      <trkpt lat="43.99615" lon="5.30642">
        <ele>679.7</ele>
        <time>2022-01-20T13:28:51Z</time>
      </trkpt>
      <trkpt lat="43.99607" lon="5.3063">
        <ele>679.4</ele>
        <time>2022-01-20T13:29:00Z</time>
      </trkpt>
      <trkpt lat="43.99606" lon="5.30629">
        <ele>679.4</ele>
        <time>2022-01-20T13:29:01Z</time>
      </trkpt>
      <trkpt lat="43.99605" lon="5.30628">
        <ele>679.4</ele>
        <time>2022-01-20T13:29:02Z</time>
      </trkpt>
      <trkpt lat="43.99603" lon="5.30627">
        <ele>679.4</ele>
        <time>2022-01-20T13:29:03Z</time>
      </trkpt>
      <trkpt lat="43.99602" lon="5.30627">
        <ele>679.4</ele>
        <time>2022-01-20T13:29:04Z</time>
      </trkpt>
      <trkpt lat="43.99601" lon="5.30626">
        <ele>679.3</ele>
        <time>2022-01-20T13:29:05Z</time>
      </trkpt>
      <trkpt lat="43.996" lon="5.30625">
        <ele>679.3</ele>
        <time>2022-01-20T13:29:06Z</time>
      </trkpt>
      <trkpt lat="43.99599" lon="5.30624">
        <ele>679.2</ele>
        <time>2022-01-20T13:29:07Z</time>
      </trkpt>
      <trkpt lat="43.99598" lon="5.30623">
        <ele>679.2</ele>
        <time>2022-01-20T13:29:08Z</time>
      </trkpt>
      <trkpt lat="43.99596" lon="5.30622">
        <ele>679</ele>
        <time>2022-01-20T13:29:09Z</time>
      </trkpt>
      <trkpt lat="43.99595" lon="5.30621">
        <ele>678.9</ele>
        <time>2022-01-20T13:29:10Z</time>
      </trkpt>
      <trkpt lat="43.99594" lon="5.3062">
        <ele>678.8</ele>
        <time>2022-01-20T13:29:11Z</time>
      </trkpt>
      <trkpt lat="43.99593" lon="5.3062">
        <ele>678.8</ele>
        <time>2022-01-20T13:29:12Z</time>
      </trkpt>
      <trkpt lat="43.99592" lon="5.30619">
        <ele>678.6</ele>
        <time>2022-01-20T13:29:13Z</time>
      </trkpt>
      <trkpt lat="43.99587" lon="5.30614">
        <ele>677.7</ele>
        <time>2022-01-20T13:29:18Z</time>
      </trkpt>
      <trkpt lat="43.99586" lon="5.30613">
        <ele>677.5</ele>
        <time>2022-01-20T13:29:19Z</time>
      </trkpt>
      <trkpt lat="43.99585" lon="5.30612">
        <ele>677.3</ele>
        <time>2022-01-20T13:29:20Z</time>
      </trkpt>
      <trkpt lat="43.99573" lon="5.30601">
        <ele>677.6</ele>
        <time>2022-01-20T13:29:32Z</time>
      </trkpt>
      <trkpt lat="43.99567" lon="5.30596">
        <ele>677.4</ele>
        <time>2022-01-20T13:29:38Z</time>
      </trkpt>
      <trkpt lat="43.99566" lon="5.30595">
        <ele>677.3</ele>
        <time>2022-01-20T13:29:39Z</time>
      </trkpt>
      <trkpt lat="43.99565" lon="5.30594">
        <ele>677.3</ele>
        <time>2022-01-20T13:29:40Z</time>
      </trkpt>
      <trkpt lat="43.99564" lon="5.30594">
        <ele>677.2</ele>
        <time>2022-01-20T13:29:41Z</time>
      </trkpt>
      <trkpt lat="43.99563" lon="5.30593">
        <ele>677.1</ele>
        <time>2022-01-20T13:29:42Z</time>
      </trkpt>
      <trkpt lat="43.99562" lon="5.30592">
        <ele>677</ele>
        <time>2022-01-20T13:29:43Z</time>
      </trkpt>
      <trkpt lat="43.99561" lon="5.30591">
        <ele>676.9</ele>
        <time>2022-01-20T13:29:44Z</time>
      </trkpt>
      <trkpt lat="43.9956" lon="5.30589">
        <ele>676.8</ele>
        <time>2022-01-20T13:29:45Z</time>
      </trkpt>
      <trkpt lat="43.99559" lon="5.30587">
        <ele>676.6</ele>
        <time>2022-01-20T13:29:46Z</time>
      </trkpt>
      <trkpt lat="43.99559" lon="5.30586">
        <ele>676.5</ele>
        <time>2022-01-20T13:29:47Z</time>
      </trkpt>
      <trkpt lat="43.99558" lon="5.30585">
        <ele>676.4</ele>
        <time>2022-01-20T13:29:48Z</time>
      </trkpt>
      <trkpt lat="43.99557" lon="5.30583">
        <ele>676.1</ele>
        <time>2022-01-20T13:29:49Z</time>
      </trkpt>
      <trkpt lat="43.99557" lon="5.30582">
        <ele>676.1</ele>
        <time>2022-01-20T13:29:50Z</time>
      </trkpt>
      <trkpt lat="43.99556" lon="5.3058">
        <ele>675.9</ele>
        <time>2022-01-20T13:29:51Z</time>
      </trkpt>
      <trkpt lat="43.99544" lon="5.30547">
        <ele>676.1</ele>
        <time>2022-01-20T13:30:14Z</time>
      </trkpt>
      <trkpt lat="43.99532" lon="5.30523">
        <ele>674.4</ele>
        <time>2022-01-20T13:30:32Z</time>
      </trkpt>
      <trkpt lat="43.99524" lon="5.30505">
        <ele>673.7</ele>
        <time>2022-01-20T13:30:45Z</time>
      </trkpt>
      <trkpt lat="43.9952" lon="5.30496">
        <ele>673.5</ele>
        <time>2022-01-20T13:30:52Z</time>
      </trkpt>
      <trkpt lat="43.9952" lon="5.30494">
        <ele>673.4</ele>
        <time>2022-01-20T13:30:53Z</time>
      </trkpt>
      <trkpt lat="43.99519" lon="5.30493">
        <ele>673.4</ele>
        <time>2022-01-20T13:30:54Z</time>
      </trkpt>
      <trkpt lat="43.99518" lon="5.30492">
        <ele>673.4</ele>
        <time>2022-01-20T13:30:55Z</time>
      </trkpt>
      <trkpt lat="43.99517" lon="5.3049">
        <ele>673.2</ele>
        <time>2022-01-20T13:30:56Z</time>
      </trkpt>
      <trkpt lat="43.99516" lon="5.30488">
        <ele>673.1</ele>
        <time>2022-01-20T13:30:57Z</time>
      </trkpt>
      <trkpt lat="43.99516" lon="5.30487">
        <ele>673</ele>
        <time>2022-01-20T13:30:58Z</time>
      </trkpt>
      <trkpt lat="43.99515" lon="5.30486">
        <ele>672.9</ele>
        <time>2022-01-20T13:30:59Z</time>
      </trkpt>
      <trkpt lat="43.99514" lon="5.30485">
        <ele>672.9</ele>
        <time>2022-01-20T13:31:00Z</time>
      </trkpt>
      <trkpt lat="43.99513" lon="5.30484">
        <ele>672.8</ele>
        <time>2022-01-20T13:31:01Z</time>
      </trkpt>
      <trkpt lat="43.99504" lon="5.30472">
        <ele>671.2</ele>
        <time>2022-01-20T13:31:12Z</time>
      </trkpt>
      <trkpt lat="43.99503" lon="5.3047">
        <ele>671.2</ele>
        <time>2022-01-20T13:31:13Z</time>
      </trkpt>
      <trkpt lat="43.99503" lon="5.30469">
        <ele>671.2</ele>
        <time>2022-01-20T13:31:14Z</time>
      </trkpt>
      <trkpt lat="43.99502" lon="5.30468">
        <ele>671.2</ele>
        <time>2022-01-20T13:31:15Z</time>
      </trkpt>
      <trkpt lat="43.99501" lon="5.30467">
        <ele>671.2</ele>
        <time>2022-01-20T13:31:16Z</time>
      </trkpt>
      <trkpt lat="43.995" lon="5.30466">
        <ele>671.2</ele>
        <time>2022-01-20T13:31:17Z</time>
      </trkpt>
      <trkpt lat="43.99499" lon="5.30465">
        <ele>671.3</ele>
        <time>2022-01-20T13:31:18Z</time>
      </trkpt>
      <trkpt lat="43.99499" lon="5.30464">
        <ele>671.3</ele>
        <time>2022-01-20T13:31:19Z</time>
      </trkpt>
      <trkpt lat="43.99498" lon="5.30463">
        <ele>671.4</ele>
        <time>2022-01-20T13:31:20Z</time>
      </trkpt>
      <trkpt lat="43.99497" lon="5.30461">
        <ele>671.4</ele>
        <time>2022-01-20T13:31:21Z</time>
      </trkpt>
      <trkpt lat="43.99496" lon="5.3046">
        <ele>671.5</ele>
        <time>2022-01-20T13:31:22Z</time>
      </trkpt>
      <trkpt lat="43.99484" lon="5.30446">
        <ele>670.9</ele>
        <time>2022-01-20T13:31:37Z</time>
      </trkpt>
      <trkpt lat="43.99466" lon="5.30426">
        <ele>671.3</ele>
        <time>2022-01-20T13:31:57Z</time>
      </trkpt>
      <trkpt lat="43.99455" lon="5.30411">
        <ele>671</ele>
        <time>2022-01-20T13:32:13Z</time>
      </trkpt>
      <trkpt lat="43.99444" lon="5.30398">
        <ele>670.1</ele>
        <time>2022-01-20T13:32:27Z</time>
      </trkpt>
      <trkpt lat="43.99435" lon="5.30384">
        <ele>670.6</ele>
        <time>2022-01-20T13:32:41Z</time>
      </trkpt>
      <trkpt lat="43.99427" lon="5.30369">
        <ele>669.7</ele>
        <time>2022-01-20T13:32:58Z</time>
      </trkpt>
      <trkpt lat="43.99426" lon="5.30366">
        <ele>669.4</ele>
        <time>2022-01-20T13:33:01Z</time>
      </trkpt>
      <trkpt lat="43.99426" lon="5.30364">
        <ele>669.2</ele>
        <time>2022-01-20T13:33:02Z</time>
      </trkpt>
      <trkpt lat="43.99426" lon="5.30362">
        <ele>669.1</ele>
        <time>2022-01-20T13:33:03Z</time>
      </trkpt>
      <trkpt lat="43.99426" lon="5.30361">
        <ele>669</ele>
        <time>2022-01-20T13:33:04Z</time>
      </trkpt>
      <trkpt lat="43.99428" lon="5.30347">
        <ele>669.3</ele>
        <time>2022-01-20T13:33:15Z</time>
      </trkpt>
      <trkpt lat="43.99428" lon="5.30346">
        <ele>669.3</ele>
        <time>2022-01-20T13:33:16Z</time>
      </trkpt>
      <trkpt lat="43.99428" lon="5.30344">
        <ele>669.3</ele>
        <time>2022-01-20T13:33:17Z</time>
      </trkpt>
      <trkpt lat="43.99429" lon="5.30342">
        <ele>669.4</ele>
        <time>2022-01-20T13:33:18Z</time>
      </trkpt>
      <trkpt lat="43.9943" lon="5.30341">
        <ele>669.5</ele>
        <time>2022-01-20T13:33:19Z</time>
      </trkpt>
      <trkpt lat="43.99431" lon="5.3034">
        <ele>669.5</ele>
        <time>2022-01-20T13:33:20Z</time>
      </trkpt>
      <trkpt lat="43.99432" lon="5.30339">
        <ele>669.6</ele>
        <time>2022-01-20T13:33:21Z</time>
      </trkpt>
      <trkpt lat="43.99432" lon="5.30337">
        <ele>669.6</ele>
        <time>2022-01-20T13:33:22Z</time>
      </trkpt>
      <trkpt lat="43.99443" lon="5.3032">
        <ele>668.7</ele>
        <time>2022-01-20T13:33:35Z</time>
      </trkpt>
      <trkpt lat="43.99453" lon="5.30307">
        <ele>669</ele>
        <time>2022-01-20T13:33:46Z</time>
      </trkpt>
      <trkpt lat="43.99463" lon="5.30291">
        <ele>669.3</ele>
        <time>2022-01-20T13:33:58Z</time>
      </trkpt>
      <trkpt lat="43.99465" lon="5.30274">
        <ele>667.5</ele>
        <time>2022-01-20T13:34:11Z</time>
      </trkpt>
      <trkpt lat="43.99468" lon="5.30259">
        <ele>666.7</ele>
        <time>2022-01-20T13:34:23Z</time>
      </trkpt>
      <trkpt lat="43.99468" lon="5.30246">
        <ele>666</ele>
        <time>2022-01-20T13:34:35Z</time>
      </trkpt>
      <trkpt lat="43.99467" lon="5.30245">
        <ele>666</ele>
        <time>2022-01-20T13:34:36Z</time>
      </trkpt>
      <trkpt lat="43.99467" lon="5.30243">
        <ele>666</ele>
        <time>2022-01-20T13:34:37Z</time>
      </trkpt>
      <trkpt lat="43.99467" lon="5.30241">
        <ele>665.9</ele>
        <time>2022-01-20T13:34:38Z</time>
      </trkpt>
      <trkpt lat="43.99467" lon="5.3024">
        <ele>665.9</ele>
        <time>2022-01-20T13:34:39Z</time>
      </trkpt>
      <trkpt lat="43.99467" lon="5.30238">
        <ele>665.8</ele>
        <time>2022-01-20T13:34:40Z</time>
      </trkpt>
      <trkpt lat="43.99466" lon="5.30237">
        <ele>665.9</ele>
        <time>2022-01-20T13:34:41Z</time>
      </trkpt>
      <trkpt lat="43.99466" lon="5.30236">
        <ele>665.8</ele>
        <time>2022-01-20T13:34:42Z</time>
      </trkpt>
      <trkpt lat="43.99463" lon="5.30213">
        <ele>666</ele>
        <time>2022-01-20T13:34:58Z</time>
      </trkpt>
      <trkpt lat="43.99457" lon="5.30194">
        <ele>665.9</ele>
        <time>2022-01-20T13:35:10Z</time>
      </trkpt>
      <trkpt lat="43.99443" lon="5.30177">
        <ele>665.2</ele>
        <time>2022-01-20T13:35:23Z</time>
      </trkpt>
      <trkpt lat="43.99422" lon="5.30177">
        <ele>664.4</ele>
        <time>2022-01-20T13:35:34Z</time>
      </trkpt>
      <trkpt lat="43.99407" lon="5.30189">
        <ele>664.7</ele>
        <time>2022-01-20T13:35:48Z</time>
      </trkpt>
      <trkpt lat="43.99396" lon="5.3018">
        <ele>665.4</ele>
        <time>2022-01-20T13:35:59Z</time>
      </trkpt>
      <trkpt lat="43.99406" lon="5.30154">
        <ele>664.9</ele>
        <time>2022-01-20T13:36:09Z</time>
      </trkpt>
      <trkpt lat="43.99409" lon="5.30143">
        <ele>665.9</ele>
        <time>2022-01-20T13:36:19Z</time>
      </trkpt>
      <trkpt lat="43.99409" lon="5.30142">
        <ele>665.9</ele>
        <time>2022-01-20T13:36:20Z</time>
      </trkpt>
      <trkpt lat="43.99408" lon="5.30141">
        <ele>665.7</ele>
        <time>2022-01-20T13:36:21Z</time>
      </trkpt>
      <trkpt lat="43.99408" lon="5.3014">
        <ele>665.8</ele>
        <time>2022-01-20T13:36:22Z</time>
      </trkpt>
      <trkpt lat="43.99408" lon="5.30139">
        <ele>665.8</ele>
        <time>2022-01-20T13:36:23Z</time>
      </trkpt>
      <trkpt lat="43.99407" lon="5.30139">
        <ele>665.6</ele>
        <time>2022-01-20T13:36:24Z</time>
      </trkpt>
      <trkpt lat="43.99406" lon="5.30138">
        <ele>665.5</ele>
        <time>2022-01-20T13:36:25Z</time>
      </trkpt>
      <trkpt lat="43.99405" lon="5.30137">
        <ele>665.4</ele>
        <time>2022-01-20T13:36:26Z</time>
      </trkpt>
      <trkpt lat="43.99405" lon="5.30136">
        <ele>665.5</ele>
        <time>2022-01-20T13:36:27Z</time>
      </trkpt>
      <trkpt lat="43.99404" lon="5.30134">
        <ele>665.6</ele>
        <time>2022-01-20T13:36:28Z</time>
      </trkpt>
      <trkpt lat="43.99404" lon="5.30133">
        <ele>665.8</ele>
        <time>2022-01-20T13:36:29Z</time>
      </trkpt>
      <trkpt lat="43.99404" lon="5.30132">
        <ele>665.9</ele>
        <time>2022-01-20T13:36:30Z</time>
      </trkpt>
      <trkpt lat="43.99392" lon="5.30115">
        <ele>665.3</ele>
        <time>2022-01-20T13:36:44Z</time>
      </trkpt>
      <trkpt lat="43.99386" lon="5.30101">
        <ele>665.3</ele>
        <time>2022-01-20T13:36:58Z</time>
      </trkpt>
      <trkpt lat="43.99384" lon="5.30095">
        <ele>665.3</ele>
        <time>2022-01-20T13:37:03Z</time>
      </trkpt>
      <trkpt lat="43.99384" lon="5.30094">
        <ele>665.4</ele>
        <time>2022-01-20T13:37:04Z</time>
      </trkpt>
      <trkpt lat="43.99384" lon="5.30093">
        <ele>665.4</ele>
        <time>2022-01-20T13:37:05Z</time>
      </trkpt>
      <trkpt lat="43.99378" lon="5.30074">
        <ele>664.2</ele>
        <time>2022-01-20T13:37:19Z</time>
      </trkpt>
      <trkpt lat="43.99378" lon="5.30065">
        <ele>663.8</ele>
        <time>2022-01-20T13:37:27Z</time>
      </trkpt>
      <trkpt lat="43.99378" lon="5.30063">
        <ele>663.8</ele>
        <time>2022-01-20T13:37:28Z</time>
      </trkpt>
      <trkpt lat="43.99378" lon="5.30062">
        <ele>663.7</ele>
        <time>2022-01-20T13:37:29Z</time>
      </trkpt>
      <trkpt lat="43.99378" lon="5.30061">
        <ele>663.7</ele>
        <time>2022-01-20T13:37:30Z</time>
      </trkpt>
      <trkpt lat="43.99378" lon="5.30059">
        <ele>663.6</ele>
        <time>2022-01-20T13:37:31Z</time>
      </trkpt>
      <trkpt lat="43.99378" lon="5.30058">
        <ele>663.5</ele>
        <time>2022-01-20T13:37:32Z</time>
      </trkpt>
      <trkpt lat="43.99378" lon="5.30056">
        <ele>663.5</ele>
        <time>2022-01-20T13:37:33Z</time>
      </trkpt>
      <trkpt lat="43.99378" lon="5.30055">
        <ele>663.4</ele>
        <time>2022-01-20T13:37:34Z</time>
      </trkpt>
      <trkpt lat="43.99379" lon="5.30054">
        <ele>663.6</ele>
        <time>2022-01-20T13:37:35Z</time>
      </trkpt>
      <trkpt lat="43.99379" lon="5.30052">
        <ele>663.6</ele>
        <time>2022-01-20T13:37:36Z</time>
      </trkpt>
      <trkpt lat="43.9938" lon="5.30051">
        <ele>663.7</ele>
        <time>2022-01-20T13:37:37Z</time>
      </trkpt>
      <trkpt lat="43.9938" lon="5.3005">
        <ele>663.7</ele>
        <time>2022-01-20T13:37:38Z</time>
      </trkpt>
      <trkpt lat="43.9938" lon="5.30048">
        <ele>663.7</ele>
        <time>2022-01-20T13:37:39Z</time>
      </trkpt>
      <trkpt lat="43.99381" lon="5.30046">
        <ele>664</ele>
        <time>2022-01-20T13:37:40Z</time>
      </trkpt>
      <trkpt lat="43.99381" lon="5.30045">
        <ele>664</ele>
        <time>2022-01-20T13:37:41Z</time>
      </trkpt>
      <trkpt lat="43.9938" lon="5.30029">
        <ele>663.8</ele>
        <time>2022-01-20T13:37:53Z</time>
      </trkpt>
      <trkpt lat="43.99375" lon="5.30012">
        <ele>660.3</ele>
        <time>2022-01-20T13:38:05Z</time>
      </trkpt>
      <trkpt lat="43.99374" lon="5.30009">
        <ele>659.8</ele>
        <time>2022-01-20T13:38:07Z</time>
      </trkpt>
      <trkpt lat="43.99383" lon="5.29997">
        <ele>659.4</ele>
        <time>2022-01-20T13:38:18Z</time>
      </trkpt>
      <trkpt lat="43.99403" lon="5.2999">
        <ele>665</ele>
        <time>2022-01-20T13:38:30Z</time>
      </trkpt>
      <trkpt lat="43.99418" lon="5.29983">
        <ele>670.6</ele>
        <time>2022-01-20T13:38:40Z</time>
      </trkpt>
      <trkpt lat="43.99427" lon="5.29973">
        <ele>673.3</ele>
        <time>2022-01-20T13:38:50Z</time>
      </trkpt>
      <trkpt lat="43.99421" lon="5.2996">
        <ele>668.3</ele>
        <time>2022-01-20T13:38:59Z</time>
      </trkpt>
      <trkpt lat="43.9942" lon="5.29959">
        <ele>667.5</ele>
        <time>2022-01-20T13:39:00Z</time>
      </trkpt>
      <trkpt lat="43.99419" lon="5.29956">
        <ele>666.5</ele>
        <time>2022-01-20T13:39:01Z</time>
      </trkpt>
      <trkpt lat="43.99418" lon="5.29954">
        <ele>665.5</ele>
        <time>2022-01-20T13:39:02Z</time>
      </trkpt>
      <trkpt lat="43.99417" lon="5.29953">
        <ele>664.7</ele>
        <time>2022-01-20T13:39:03Z</time>
      </trkpt>
      <trkpt lat="43.99416" lon="5.29951">
        <ele>664</ele>
        <time>2022-01-20T13:39:05Z</time>
      </trkpt>
      <trkpt lat="43.99411" lon="5.29946">
        <ele>661.8</ele>
        <time>2022-01-20T13:39:09Z</time>
      </trkpt>
      <trkpt lat="43.99407" lon="5.29946">
        <ele>660.7</ele>
        <time>2022-01-20T13:39:11Z</time>
      </trkpt>
      <trkpt lat="43.99405" lon="5.29945">
        <ele>660.1</ele>
        <time>2022-01-20T13:39:12Z</time>
      </trkpt>
      <trkpt lat="43.99388" lon="5.29928">
        <ele>653.9</ele>
        <time>2022-01-20T13:39:24Z</time>
      </trkpt>
      <trkpt lat="43.99384" lon="5.2992">
        <ele>653.5</ele>
        <time>2022-01-20T13:39:29Z</time>
      </trkpt>
      <trkpt lat="43.99384" lon="5.29918">
        <ele>653.1</ele>
        <time>2022-01-20T13:39:30Z</time>
      </trkpt>
      <trkpt lat="43.99385" lon="5.29917">
        <ele>652.8</ele>
        <time>2022-01-20T13:39:31Z</time>
      </trkpt>
      <trkpt lat="43.99385" lon="5.29915">
        <ele>653.3</ele>
        <time>2022-01-20T13:39:32Z</time>
      </trkpt>
      <trkpt lat="43.99383" lon="5.29914">
        <ele>653.9</ele>
        <time>2022-01-20T13:39:33Z</time>
      </trkpt>
      <trkpt lat="43.9938" lon="5.29913">
        <ele>654.5</ele>
        <time>2022-01-20T13:39:34Z</time>
      </trkpt>
      <trkpt lat="43.9938" lon="5.29912">
        <ele>654.7</ele>
        <time>2022-01-20T13:39:35Z</time>
      </trkpt>
      <trkpt lat="43.99379" lon="5.2991">
        <ele>655.2</ele>
        <time>2022-01-20T13:39:36Z</time>
      </trkpt>
      <trkpt lat="43.99375" lon="5.29906">
        <ele>655.8</ele>
        <time>2022-01-20T13:39:39Z</time>
      </trkpt>
      <trkpt lat="43.99373" lon="5.29906">
        <ele>655.7</ele>
        <time>2022-01-20T13:39:40Z</time>
      </trkpt>
      <trkpt lat="43.99371" lon="5.29905">
        <ele>655.7</ele>
        <time>2022-01-20T13:39:41Z</time>
      </trkpt>
      <trkpt lat="43.99368" lon="5.29904">
        <ele>655.4</ele>
        <time>2022-01-20T13:39:42Z</time>
      </trkpt>
      <trkpt lat="43.99366" lon="5.29904">
        <ele>655.2</ele>
        <time>2022-01-20T13:39:43Z</time>
      </trkpt>
      <trkpt lat="43.99367" lon="5.29903">
        <ele>655.3</ele>
        <time>2022-01-20T13:39:44Z</time>
      </trkpt>
      <trkpt lat="43.99365" lon="5.29903">
        <ele>655</ele>
        <time>2022-01-20T13:39:45Z</time>
      </trkpt>
      <trkpt lat="43.99364" lon="5.29902">
        <ele>654.8</ele>
        <time>2022-01-20T13:39:46Z</time>
      </trkpt>
      <trkpt lat="43.9936" lon="5.29901">
        <ele>654.2</ele>
        <time>2022-01-20T13:39:47Z</time>
      </trkpt>
      <trkpt lat="43.99359" lon="5.299">
        <ele>654</ele>
        <time>2022-01-20T13:39:48Z</time>
      </trkpt>
      <trkpt lat="43.99358" lon="5.29898">
        <ele>653.7</ele>
        <time>2022-01-20T13:39:49Z</time>
      </trkpt>
      <trkpt lat="43.99341" lon="5.29886">
        <ele>652.1</ele>
        <time>2022-01-20T13:40:04Z</time>
      </trkpt>
      <trkpt lat="43.99328" lon="5.29879">
        <ele>653</ele>
        <time>2022-01-20T13:40:18Z</time>
      </trkpt>
      <trkpt lat="43.99309" lon="5.29878">
        <ele>652.2</ele>
        <time>2022-01-20T13:40:31Z</time>
      </trkpt>
      <trkpt lat="43.99303" lon="5.29874">
        <ele>652.3</ele>
        <time>2022-01-20T13:40:45Z</time>
      </trkpt>
      <trkpt lat="43.9931" lon="5.29852">
        <ele>650.3</ele>
        <time>2022-01-20T13:41:06Z</time>
      </trkpt>
      <trkpt lat="43.99318" lon="5.29815">
        <ele>653.8</ele>
        <time>2022-01-20T13:41:32Z</time>
      </trkpt>
      <trkpt lat="43.99323" lon="5.29788">
        <ele>655.1</ele>
        <time>2022-01-20T13:41:52Z</time>
      </trkpt>
      <trkpt lat="43.99318" lon="5.29765">
        <ele>652.7</ele>
        <time>2022-01-20T13:42:08Z</time>
      </trkpt>
      <trkpt lat="43.99317" lon="5.29764">
        <ele>652.2</ele>
        <time>2022-01-20T13:42:09Z</time>
      </trkpt>
      <trkpt lat="43.99311" lon="5.29736">
        <ele>648.7</ele>
        <time>2022-01-20T13:42:30Z</time>
      </trkpt>
      <trkpt lat="43.99303" lon="5.29701">
        <ele>645.2</ele>
        <time>2022-01-20T13:42:54Z</time>
      </trkpt>
      <trkpt lat="43.99305" lon="5.2968">
        <ele>643.7</ele>
        <time>2022-01-20T13:43:09Z</time>
      </trkpt>
      <trkpt lat="43.99309" lon="5.2967">
        <ele>644.8</ele>
        <time>2022-01-20T13:43:16Z</time>
      </trkpt>
      <trkpt lat="43.9931" lon="5.29668">
        <ele>645.2</ele>
        <time>2022-01-20T13:43:17Z</time>
      </trkpt>
      <trkpt lat="43.99311" lon="5.29667">
        <ele>645.6</ele>
        <time>2022-01-20T13:43:18Z</time>
      </trkpt>
      <trkpt lat="43.99321" lon="5.29643">
        <ele>648.1</ele>
        <time>2022-01-20T13:43:32Z</time>
      </trkpt>
      <trkpt lat="43.99322" lon="5.2962">
        <ele>647</ele>
        <time>2022-01-20T13:43:45Z</time>
      </trkpt>
      <trkpt lat="43.99323" lon="5.29602">
        <ele>645.9</ele>
        <time>2022-01-20T13:43:57Z</time>
      </trkpt>
      <trkpt lat="43.99323" lon="5.296">
        <ele>645.7</ele>
        <time>2022-01-20T13:43:58Z</time>
      </trkpt>
      <trkpt lat="43.99324" lon="5.296">
        <ele>646</ele>
        <time>2022-01-20T13:43:59Z</time>
      </trkpt>
      <trkpt lat="43.99325" lon="5.29598">
        <ele>646</ele>
        <time>2022-01-20T13:44:00Z</time>
      </trkpt>
      <trkpt lat="43.99324" lon="5.29596">
        <ele>645.5</ele>
        <time>2022-01-20T13:44:01Z</time>
      </trkpt>
      <trkpt lat="43.99317" lon="5.29582">
        <ele>643.7</ele>
        <time>2022-01-20T13:44:09Z</time>
      </trkpt>
      <trkpt lat="43.99311" lon="5.29569">
        <ele>646.8</ele>
        <time>2022-01-20T13:44:17Z</time>
      </trkpt>
      <trkpt lat="43.99308" lon="5.29569">
        <ele>646.1</ele>
        <time>2022-01-20T13:44:24Z</time>
      </trkpt>
      <trkpt lat="43.99303" lon="5.29573">
        <ele>644.6</ele>
        <time>2022-01-20T13:44:34Z</time>
      </trkpt>
      <trkpt lat="43.99306" lon="5.29577">
        <ele>643.7</ele>
        <time>2022-01-20T13:44:45Z</time>
      </trkpt>
      <trkpt lat="43.99319" lon="5.29583">
        <ele>643.6</ele>
        <time>2022-01-20T13:45:00Z</time>
      </trkpt>
      <trkpt lat="43.99323" lon="5.29589">
        <ele>644.5</ele>
        <time>2022-01-20T13:45:12Z</time>
      </trkpt>
      <trkpt lat="43.99321" lon="5.29591">
        <ele>644.3</ele>
        <time>2022-01-20T13:45:49Z</time>
      </trkpt>
      <trkpt lat="43.99322" lon="5.29591">
        <ele>644.5</ele>
        <time>2022-01-20T13:45:51Z</time>
      </trkpt>
      <trkpt lat="43.99324" lon="5.29598">
        <ele>645.7</ele>
        <time>2022-01-20T13:46:12Z</time>
      </trkpt>
      <trkpt lat="43.99334" lon="5.29589">
        <ele>646.4</ele>
        <time>2022-01-20T13:46:35Z</time>
      </trkpt>
      <trkpt lat="43.99347" lon="5.29583">
        <ele>648.5</ele>
        <time>2022-01-20T13:46:55Z</time>
      </trkpt>
      <trkpt lat="43.99357" lon="5.29571">
        <ele>651.1</ele>
        <time>2022-01-20T13:47:14Z</time>
      </trkpt>
      <trkpt lat="43.9936" lon="5.29562">
        <ele>650.6</ele>
        <time>2022-01-20T13:47:25Z</time>
      </trkpt>
      <trkpt lat="43.99363" lon="5.29539">
        <ele>653.1</ele>
        <time>2022-01-20T13:47:45Z</time>
      </trkpt>
      <trkpt lat="43.99371" lon="5.29515">
        <ele>657.7</ele>
        <time>2022-01-20T13:48:08Z</time>
      </trkpt>
      <trkpt lat="43.99379" lon="5.29496">
        <ele>658.8</ele>
        <time>2022-01-20T13:48:31Z</time>
      </trkpt>
      <trkpt lat="43.99382" lon="5.29482">
        <ele>661.6</ele>
        <time>2022-01-20T13:48:47Z</time>
      </trkpt>
      <trkpt lat="43.99384" lon="5.29476">
        <ele>662.5</ele>
        <time>2022-01-20T13:48:57Z</time>
      </trkpt>
      <trkpt lat="43.99388" lon="5.2947">
        <ele>663.1</ele>
        <time>2022-01-20T13:49:09Z</time>
      </trkpt>
      <trkpt lat="43.99391" lon="5.29469">
        <ele>663</ele>
        <time>2022-01-20T13:49:14Z</time>
      </trkpt>
      <trkpt lat="43.99404" lon="5.29472">
        <ele>661</ele>
        <time>2022-01-20T13:49:35Z</time>
      </trkpt>
      <trkpt lat="43.99407" lon="5.2947">
        <ele>661.4</ele>
        <time>2022-01-20T13:49:40Z</time>
      </trkpt>
      <trkpt lat="43.99414" lon="5.29469">
        <ele>661.1</ele>
        <time>2022-01-20T13:49:56Z</time>
      </trkpt>
      <trkpt lat="43.99419" lon="5.29461">
        <ele>663.5</ele>
        <time>2022-01-20T13:50:06Z</time>
      </trkpt>
      <trkpt lat="43.99429" lon="5.29454">
        <ele>666.9</ele>
        <time>2022-01-20T13:50:19Z</time>
      </trkpt>
      <trkpt lat="43.99435" lon="5.29445">
        <ele>670.5</ele>
        <time>2022-01-20T13:50:32Z</time>
      </trkpt>
      <trkpt lat="43.99439" lon="5.29439">
        <ele>674.3</ele>
        <time>2022-01-20T13:50:43Z</time>
      </trkpt>
      <trkpt lat="43.99457" lon="5.29443">
        <ele>671.4</ele>
        <time>2022-01-20T13:50:56Z</time>
      </trkpt>
      <trkpt lat="43.9947" lon="5.29444">
        <ele>669.5</ele>
        <time>2022-01-20T13:51:08Z</time>
      </trkpt>
      <trkpt lat="43.99474" lon="5.29444">
        <ele>669.3</ele>
        <time>2022-01-20T13:51:14Z</time>
      </trkpt>
      <trkpt lat="43.99476" lon="5.29444">
        <ele>669.4</ele>
        <time>2022-01-20T13:51:16Z</time>
      </trkpt>
      <trkpt lat="43.99488" lon="5.2944">
        <ele>671.4</ele>
        <time>2022-01-20T13:51:32Z</time>
      </trkpt>
      <trkpt lat="43.9949" lon="5.29433">
        <ele>674.2</ele>
        <time>2022-01-20T13:51:43Z</time>
      </trkpt>
      <trkpt lat="43.99502" lon="5.29426">
        <ele>676.1</ele>
        <time>2022-01-20T13:51:57Z</time>
      </trkpt>
      <trkpt lat="43.99516" lon="5.29423">
        <ele>677.9</ele>
        <time>2022-01-20T13:52:08Z</time>
      </trkpt>
      <trkpt lat="43.99529" lon="5.29425">
        <ele>678.2</ele>
        <time>2022-01-20T13:52:19Z</time>
      </trkpt>
      <trkpt lat="43.99554" lon="5.29436">
        <ele>680.2</ele>
        <time>2022-01-20T13:52:36Z</time>
      </trkpt>
      <trkpt lat="43.99566" lon="5.2945">
        <ele>682.4</ele>
        <time>2022-01-20T13:52:50Z</time>
      </trkpt>
      <trkpt lat="43.99581" lon="5.2946">
        <ele>682.8</ele>
        <time>2022-01-20T13:53:03Z</time>
      </trkpt>
      <trkpt lat="43.9959" lon="5.29469">
        <ele>683.9</ele>
        <time>2022-01-20T13:53:14Z</time>
      </trkpt>
      <trkpt lat="43.99597" lon="5.29477">
        <ele>685</ele>
        <time>2022-01-20T13:53:24Z</time>
      </trkpt>
      <trkpt lat="43.99608" lon="5.29484">
        <ele>685.4</ele>
        <time>2022-01-20T13:53:37Z</time>
      </trkpt>
      <trkpt lat="43.9963" lon="5.29499">
        <ele>684.4</ele>
        <time>2022-01-20T13:53:58Z</time>
      </trkpt>
      <trkpt lat="43.99636" lon="5.29502">
        <ele>683.4</ele>
        <time>2022-01-20T13:54:16Z</time>
      </trkpt>
      <trkpt lat="43.99636" lon="5.29503">
        <ele>683.8</ele>
        <time>2022-01-20T13:54:17Z</time>
      </trkpt>
      <trkpt lat="43.99638" lon="5.29507">
        <ele>684.7</ele>
        <time>2022-01-20T13:54:36Z</time>
      </trkpt>
      <trkpt lat="43.99639" lon="5.29509">
        <ele>685.3</ele>
        <time>2022-01-20T13:55:07Z</time>
      </trkpt>
      <trkpt lat="43.99648" lon="5.295">
        <ele>683.3</ele>
        <time>2022-01-20T13:55:34Z</time>
      </trkpt>
      <trkpt lat="43.99659" lon="5.29496">
        <ele>685.8</ele>
        <time>2022-01-20T13:55:47Z</time>
      </trkpt>
      <trkpt lat="43.99679" lon="5.29505">
        <ele>688.7</ele>
        <time>2022-01-20T13:56:07Z</time>
      </trkpt>
      <trkpt lat="43.99697" lon="5.29519">
        <ele>690.6</ele>
        <time>2022-01-20T13:56:30Z</time>
      </trkpt>
      <trkpt lat="43.9972" lon="5.29515">
        <ele>692.3</ele>
        <time>2022-01-20T13:56:51Z</time>
      </trkpt>
      <trkpt lat="43.99734" lon="5.29509">
        <ele>693.4</ele>
        <time>2022-01-20T13:57:09Z</time>
      </trkpt>
      <trkpt lat="43.99757" lon="5.29508">
        <ele>694.8</ele>
        <time>2022-01-20T13:57:30Z</time>
      </trkpt>
      <trkpt lat="43.99783" lon="5.29511">
        <ele>696.5</ele>
        <time>2022-01-20T13:57:53Z</time>
      </trkpt>
      <trkpt lat="43.99806" lon="5.2952">
        <ele>698</ele>
        <time>2022-01-20T13:58:13Z</time>
      </trkpt>
      <trkpt lat="43.9982" lon="5.29521">
        <ele>698.4</ele>
        <time>2022-01-20T13:58:30Z</time>
      </trkpt>
      <trkpt lat="43.99835" lon="5.29543">
        <ele>699.5</ele>
        <time>2022-01-20T13:58:55Z</time>
      </trkpt>
      <trkpt lat="43.99851" lon="5.29573">
        <ele>702</ele>
        <time>2022-01-20T13:59:21Z</time>
      </trkpt>
      <trkpt lat="43.99866" lon="5.29596">
        <ele>702.8</ele>
        <time>2022-01-20T13:59:44Z</time>
      </trkpt>
      <trkpt lat="43.99888" lon="5.29596">
        <ele>702.8</ele>
        <time>2022-01-20T14:00:05Z</time>
      </trkpt>
      <trkpt lat="43.99908" lon="5.29603">
        <ele>703.9</ele>
        <time>2022-01-20T14:00:23Z</time>
      </trkpt>
      <trkpt lat="43.99919" lon="5.29608">
        <ele>703.7</ele>
        <time>2022-01-20T14:00:34Z</time>
      </trkpt>
      <trkpt lat="43.99927" lon="5.29617">
        <ele>704.9</ele>
        <time>2022-01-20T14:00:46Z</time>
      </trkpt>
      <trkpt lat="43.99936" lon="5.2963">
        <ele>705.4</ele>
        <time>2022-01-20T14:00:59Z</time>
      </trkpt>
      <trkpt lat="43.99945" lon="5.29648">
        <ele>704.8</ele>
        <time>2022-01-20T14:01:13Z</time>
      </trkpt>
      <trkpt lat="43.99953" lon="5.29674">
        <ele>708.5</ele>
        <time>2022-01-20T14:01:35Z</time>
      </trkpt>
      <trkpt lat="43.99956" lon="5.29697">
        <ele>710.2</ele>
        <time>2022-01-20T14:01:52Z</time>
      </trkpt>
      <trkpt lat="43.99961" lon="5.29723">
        <ele>711</ele>
        <time>2022-01-20T14:02:09Z</time>
      </trkpt>
      <trkpt lat="43.99979" lon="5.2974">
        <ele>710.6</ele>
        <time>2022-01-20T14:02:27Z</time>
      </trkpt>
      <trkpt lat="43.9999" lon="5.29753">
        <ele>711.1</ele>
        <time>2022-01-20T14:02:40Z</time>
      </trkpt>
      <trkpt lat="44.00002" lon="5.29766">
        <ele>711.7</ele>
        <time>2022-01-20T14:02:56Z</time>
      </trkpt>
      <trkpt lat="44.00008" lon="5.2977">
        <ele>712.3</ele>
        <time>2022-01-20T14:03:03Z</time>
      </trkpt>
      <trkpt lat="44.00018" lon="5.29784">
        <ele>713</ele>
        <time>2022-01-20T14:03:17Z</time>
      </trkpt>
      <trkpt lat="44.00024" lon="5.29794">
        <ele>713</ele>
        <time>2022-01-20T14:03:27Z</time>
      </trkpt>
      <trkpt lat="44.0003" lon="5.29808">
        <ele>712.7</ele>
        <time>2022-01-20T14:03:40Z</time>
      </trkpt>
      <trkpt lat="44.00039" lon="5.29823">
        <ele>715</ele>
        <time>2022-01-20T14:03:52Z</time>
      </trkpt>
      <trkpt lat="44.0005" lon="5.29831">
        <ele>714.7</ele>
        <time>2022-01-20T14:04:07Z</time>
      </trkpt>
      <trkpt lat="44.00064" lon="5.29837">
        <ele>714.8</ele>
        <time>2022-01-20T14:04:21Z</time>
      </trkpt>
      <trkpt lat="44.00084" lon="5.29843">
        <ele>716.1</ele>
        <time>2022-01-20T14:04:39Z</time>
      </trkpt>
      <trkpt lat="44.00102" lon="5.29851">
        <ele>717</ele>
        <time>2022-01-20T14:05:01Z</time>
      </trkpt>
      <trkpt lat="44.00126" lon="5.29857">
        <ele>717.2</ele>
        <time>2022-01-20T14:05:25Z</time>
      </trkpt>
      <trkpt lat="44.00143" lon="5.29861">
        <ele>717.2</ele>
        <time>2022-01-20T14:05:43Z</time>
      </trkpt>
      <trkpt lat="44.00164" lon="5.29857">
        <ele>718.1</ele>
        <time>2022-01-20T14:06:03Z</time>
      </trkpt>
      <trkpt lat="44.00184" lon="5.29849">
        <ele>718.9</ele>
        <time>2022-01-20T14:06:22Z</time>
      </trkpt>
      <trkpt lat="44.00185" lon="5.29849">
        <ele>718.9</ele>
        <time>2022-01-20T14:06:23Z</time>
      </trkpt>
      <trkpt lat="44.00195" lon="5.29848">
        <ele>719.1</ele>
        <time>2022-01-20T14:06:29Z</time>
      </trkpt>
      <trkpt lat="44.00206" lon="5.29849">
        <ele>719.5</ele>
        <time>2022-01-20T14:06:41Z</time>
      </trkpt>
      <trkpt lat="44.00227" lon="5.29842">
        <ele>719.9</ele>
        <time>2022-01-20T14:07:01Z</time>
      </trkpt>
      <trkpt lat="44.00232" lon="5.2984">
        <ele>720</ele>
        <time>2022-01-20T14:07:04Z</time>
      </trkpt>
      <trkpt lat="44.00247" lon="5.29832">
        <ele>720</ele>
        <time>2022-01-20T14:07:17Z</time>
      </trkpt>
      <trkpt lat="44.00262" lon="5.29827">
        <ele>721.1</ele>
        <time>2022-01-20T14:07:31Z</time>
      </trkpt>
      <trkpt lat="44.00278" lon="5.29824">
        <ele>722</ele>
        <time>2022-01-20T14:07:46Z</time>
      </trkpt>
      <trkpt lat="44.00291" lon="5.29826">
        <ele>722.7</ele>
        <time>2022-01-20T14:08:05Z</time>
      </trkpt>
      <trkpt lat="44.00293" lon="5.29827">
        <ele>722.8</ele>
        <time>2022-01-20T14:08:32Z</time>
      </trkpt>
      <trkpt lat="44.00298" lon="5.29824">
        <ele>723</ele>
        <time>2022-01-20T14:09:07Z</time>
      </trkpt>
      <trkpt lat="44.00315" lon="5.2982">
        <ele>723.6</ele>
        <time>2022-01-20T14:09:24Z</time>
      </trkpt>
      <trkpt lat="44.00324" lon="5.29818">
        <ele>723.9</ele>
        <time>2022-01-20T14:09:40Z</time>
      </trkpt>
      <trkpt lat="44.00334" lon="5.29809">
        <ele>723.4</ele>
        <time>2022-01-20T14:09:53Z</time>
      </trkpt>
      <trkpt lat="44.00343" lon="5.29807">
        <ele>723.5</ele>
        <time>2022-01-20T14:10:11Z</time>
      </trkpt>
      <trkpt lat="44.00346" lon="5.29813">
        <ele>724.5</ele>
        <time>2022-01-20T14:10:49Z</time>
      </trkpt>
      <trkpt lat="44.00357" lon="5.29806">
        <ele>723.9</ele>
        <time>2022-01-20T14:11:30Z</time>
      </trkpt>
      <trkpt lat="44.00364" lon="5.29807">
        <ele>724.5</ele>
        <time>2022-01-20T14:11:44Z</time>
      </trkpt>
      <trkpt lat="44.00385" lon="5.29798">
        <ele>725.6</ele>
        <time>2022-01-20T14:12:06Z</time>
      </trkpt>
      <trkpt lat="44.00407" lon="5.29791">
        <ele>726.1</ele>
        <time>2022-01-20T14:12:26Z</time>
      </trkpt>
      <trkpt lat="44.00423" lon="5.29785">
        <ele>726</ele>
        <time>2022-01-20T14:12:40Z</time>
      </trkpt>
      <trkpt lat="44.00442" lon="5.29778">
        <ele>725.9</ele>
        <time>2022-01-20T14:12:57Z</time>
      </trkpt>
      <trkpt lat="44.00461" lon="5.29773">
        <ele>727</ele>
        <time>2022-01-20T14:13:14Z</time>
      </trkpt>
      <trkpt lat="44.0048" lon="5.29771">
        <ele>727.7</ele>
        <time>2022-01-20T14:13:30Z</time>
      </trkpt>
      <trkpt lat="44.00493" lon="5.29771">
        <ele>728.1</ele>
        <time>2022-01-20T14:13:42Z</time>
      </trkpt>
      <trkpt lat="44.00512" lon="5.29766">
        <ele>728.7</ele>
        <time>2022-01-20T14:13:59Z</time>
      </trkpt>
      <trkpt lat="44.0053" lon="5.29753">
        <ele>729</ele>
        <time>2022-01-20T14:14:18Z</time>
      </trkpt>
      <trkpt lat="44.00548" lon="5.29723">
        <ele>730</ele>
        <time>2022-01-20T14:14:45Z</time>
      </trkpt>
      <trkpt lat="44.00539" lon="5.29714">
        <ele>730.6</ele>
        <time>2022-01-20T14:14:57Z</time>
      </trkpt>
      <trkpt lat="44.00532" lon="5.29699">
        <ele>731.7</ele>
        <time>2022-01-20T14:15:14Z</time>
      </trkpt>
      <trkpt lat="44.00534" lon="5.297">
        <ele>731.6</ele>
        <time>2022-01-20T14:15:18Z</time>
      </trkpt>
      <trkpt lat="44.00545" lon="5.29699">
        <ele>731.7</ele>
        <time>2022-01-20T14:15:39Z</time>
      </trkpt>
      <trkpt lat="44.00552" lon="5.29678">
        <ele>732.6</ele>
        <time>2022-01-20T14:15:57Z</time>
      </trkpt>
      <trkpt lat="44.00553" lon="5.29657">
        <ele>733.7</ele>
        <time>2022-01-20T14:16:12Z</time>
      </trkpt>
      <trkpt lat="44.00555" lon="5.29634">
        <ele>735.3</ele>
        <time>2022-01-20T14:16:31Z</time>
      </trkpt>
      <trkpt lat="44.00556" lon="5.29606">
        <ele>737.4</ele>
        <time>2022-01-20T14:16:51Z</time>
      </trkpt>
      <trkpt lat="44.00561" lon="5.29587">
        <ele>739</ele>
        <time>2022-01-20T14:17:11Z</time>
      </trkpt>
      <trkpt lat="44.00567" lon="5.29569">
        <ele>740.4</ele>
        <time>2022-01-20T14:17:26Z</time>
      </trkpt>
      <trkpt lat="44.00567" lon="5.29547">
        <ele>741.7</ele>
        <time>2022-01-20T14:17:47Z</time>
      </trkpt>
      <trkpt lat="44.00572" lon="5.29529">
        <ele>742.5</ele>
        <time>2022-01-20T14:18:01Z</time>
      </trkpt>
      <trkpt lat="44.00575" lon="5.29507">
        <ele>743.4</ele>
        <time>2022-01-20T14:18:21Z</time>
      </trkpt>
      <trkpt lat="44.00577" lon="5.29491">
        <ele>744.2</ele>
        <time>2022-01-20T14:18:31Z</time>
      </trkpt>
      <trkpt lat="44.00581" lon="5.29459">
        <ele>746</ele>
        <time>2022-01-20T14:18:52Z</time>
      </trkpt>
      <trkpt lat="44.00584" lon="5.2944">
        <ele>747.2</ele>
        <time>2022-01-20T14:19:06Z</time>
      </trkpt>
      <trkpt lat="44.00589" lon="5.29423">
        <ele>747.8</ele>
        <time>2022-01-20T14:19:18Z</time>
      </trkpt>
      <trkpt lat="44.00593" lon="5.29406">
        <ele>748.4</ele>
        <time>2022-01-20T14:19:31Z</time>
      </trkpt>
      <trkpt lat="44.00593" lon="5.29392">
        <ele>748.9</ele>
        <time>2022-01-20T14:19:40Z</time>
      </trkpt>
      <trkpt lat="44.00598" lon="5.29371">
        <ele>749.9</ele>
        <time>2022-01-20T14:19:54Z</time>
      </trkpt>
      <trkpt lat="44.006" lon="5.29361">
        <ele>750.4</ele>
        <time>2022-01-20T14:20:02Z</time>
      </trkpt>
      <trkpt lat="44.006" lon="5.29356">
        <ele>750.6</ele>
        <time>2022-01-20T14:20:05Z</time>
      </trkpt>
      <trkpt lat="44.00605" lon="5.29333">
        <ele>751.2</ele>
        <time>2022-01-20T14:20:21Z</time>
      </trkpt>
      <trkpt lat="44.00606" lon="5.2932">
        <ele>751.7</ele>
        <time>2022-01-20T14:20:30Z</time>
      </trkpt>
      <trkpt lat="44.00605" lon="5.29302">
        <ele>752.3</ele>
        <time>2022-01-20T14:20:41Z</time>
      </trkpt>
      <trkpt lat="44.00609" lon="5.29285">
        <ele>752.8</ele>
        <time>2022-01-20T14:20:55Z</time>
      </trkpt>
      <trkpt lat="44.00613" lon="5.29252">
        <ele>753</ele>
        <time>2022-01-20T14:21:18Z</time>
      </trkpt>
      <trkpt lat="44.00618" lon="5.29216">
        <ele>752.9</ele>
        <time>2022-01-20T14:21:42Z</time>
      </trkpt>
      <trkpt lat="44.00625" lon="5.2918">
        <ele>752</ele>
        <time>2022-01-20T14:22:09Z</time>
      </trkpt>
      <trkpt lat="44.00624" lon="5.29161">
        <ele>751.1</ele>
        <time>2022-01-20T14:22:29Z</time>
      </trkpt>
      <trkpt lat="44.00623" lon="5.29157">
        <ele>750.9</ele>
        <time>2022-01-20T14:22:43Z</time>
      </trkpt>
      <trkpt lat="44.00622" lon="5.29158">
        <ele>751</ele>
        <time>2022-01-20T14:23:05Z</time>
      </trkpt>
      <trkpt lat="44.00617" lon="5.29171">
        <ele>751.9</ele>
        <time>2022-01-20T14:23:17Z</time>
      </trkpt>
      <trkpt lat="44.00612" lon="5.2917">
        <ele>752.1</ele>
        <time>2022-01-20T14:23:26Z</time>
      </trkpt>
      <trkpt lat="44.00603" lon="5.2915">
        <ele>751.3</ele>
        <time>2022-01-20T14:23:46Z</time>
      </trkpt>
      <trkpt lat="44.00597" lon="5.29141">
        <ele>751.1</ele>
        <time>2022-01-20T14:23:53Z</time>
      </trkpt>
      <trkpt lat="44.00586" lon="5.29138">
        <ele>751.7</ele>
        <time>2022-01-20T14:24:01Z</time>
      </trkpt>
      <trkpt lat="44.0057" lon="5.29134">
        <ele>752.7</ele>
        <time>2022-01-20T14:24:17Z</time>
      </trkpt>
      <trkpt lat="44.00561" lon="5.29128">
        <ele>753.1</ele>
        <time>2022-01-20T14:24:25Z</time>
      </trkpt>
      <trkpt lat="44.00556" lon="5.29126">
        <ele>753.5</ele>
        <time>2022-01-20T14:24:31Z</time>
      </trkpt>
      <trkpt lat="44.00543" lon="5.29124">
        <ele>754.4</ele>
        <time>2022-01-20T14:24:44Z</time>
      </trkpt>
      <trkpt lat="44.00532" lon="5.29121">
        <ele>755.1</ele>
        <time>2022-01-20T14:24:58Z</time>
      </trkpt>
      <trkpt lat="44.00521" lon="5.29112">
        <ele>755.5</ele>
        <time>2022-01-20T14:25:11Z</time>
      </trkpt>
      <trkpt lat="44.00509" lon="5.29111">
        <ele>756.4</ele>
        <time>2022-01-20T14:25:22Z</time>
      </trkpt>
      <trkpt lat="44.00506" lon="5.29111">
        <ele>756.6</ele>
        <time>2022-01-20T14:25:25Z</time>
      </trkpt>
      <trkpt lat="44.00505" lon="5.29112">
        <ele>756.7</ele>
        <time>2022-01-20T14:25:28Z</time>
      </trkpt>
      <trkpt lat="44.00497" lon="5.29106">
        <ele>757.3</ele>
        <time>2022-01-20T14:25:35Z</time>
      </trkpt>
      <trkpt lat="44.00492" lon="5.29103">
        <ele>757.9</ele>
        <time>2022-01-20T14:25:40Z</time>
      </trkpt>
      <trkpt lat="44.0049" lon="5.29093">
        <ele>758.1</ele>
        <time>2022-01-20T14:25:46Z</time>
      </trkpt>
      <trkpt lat="44.00493" lon="5.29097">
        <ele>757.8</ele>
        <time>2022-01-20T14:25:52Z</time>
      </trkpt>
      <trkpt lat="44.00492" lon="5.29103">
        <ele>757.9</ele>
        <time>2022-01-20T14:25:57Z</time>
      </trkpt>
      <trkpt lat="44.00482" lon="5.291">
        <ele>758.9</ele>
        <time>2022-01-20T14:26:06Z</time>
      </trkpt>
      <trkpt lat="44.0048" lon="5.29096">
        <ele>759.2</ele>
        <time>2022-01-20T14:26:09Z</time>
      </trkpt>
      <trkpt lat="44.00479" lon="5.29097">
        <ele>759.3</ele>
        <time>2022-01-20T14:26:11Z</time>
      </trkpt>
      <trkpt lat="44.00473" lon="5.29096">
        <ele>759.9</ele>
        <time>2022-01-20T14:26:17Z</time>
      </trkpt>
      <trkpt lat="44.00468" lon="5.29094">
        <ele>760.3</ele>
        <time>2022-01-20T14:26:23Z</time>
      </trkpt>
      <trkpt lat="44.00461" lon="5.29088">
        <ele>760.8</ele>
        <time>2022-01-20T14:26:34Z</time>
      </trkpt>
      <trkpt lat="44.00459" lon="5.29089">
        <ele>761</ele>
        <time>2022-01-20T14:26:36Z</time>
      </trkpt>
      <trkpt lat="44.0045" lon="5.29087">
        <ele>761.6</ele>
        <time>2022-01-20T14:26:44Z</time>
      </trkpt>
      <trkpt lat="44.00444" lon="5.29084">
        <ele>762</ele>
        <time>2022-01-20T14:26:51Z</time>
      </trkpt>
      <trkpt lat="44.00441" lon="5.29074">
        <ele>762.4</ele>
        <time>2022-01-20T14:26:55Z</time>
      </trkpt>
      <trkpt lat="44.00437" lon="5.29072">
        <ele>762.8</ele>
        <time>2022-01-20T14:27:01Z</time>
      </trkpt>
      <trkpt lat="44.00431" lon="5.29067">
        <ele>763.5</ele>
        <time>2022-01-20T14:27:11Z</time>
      </trkpt>
      <trkpt lat="44.0043" lon="5.29065">
        <ele>763.6</ele>
        <time>2022-01-20T14:27:12Z</time>
      </trkpt>
      <trkpt lat="44.00423" lon="5.29065">
        <ele>764.3</ele>
        <time>2022-01-20T14:27:20Z</time>
      </trkpt>
      <trkpt lat="44.0042" lon="5.29062">
        <ele>764.6</ele>
        <time>2022-01-20T14:27:22Z</time>
      </trkpt>
      <trkpt lat="44.00411" lon="5.29051">
        <ele>765.4</ele>
        <time>2022-01-20T14:27:33Z</time>
      </trkpt>
      <trkpt lat="44.00409" lon="5.29051">
        <ele>765.6</ele>
        <time>2022-01-20T14:27:35Z</time>
      </trkpt>
      <trkpt lat="44.00403" lon="5.2905">
        <ele>766</ele>
        <time>2022-01-20T14:27:42Z</time>
      </trkpt>
      <trkpt lat="44.00391" lon="5.29042">
        <ele>766.8</ele>
        <time>2022-01-20T14:27:55Z</time>
      </trkpt>
      <trkpt lat="44.00377" lon="5.29031">
        <ele>768.2</ele>
        <time>2022-01-20T14:28:12Z</time>
      </trkpt>
      <trkpt lat="44.00369" lon="5.29023">
        <ele>769.2</ele>
        <time>2022-01-20T14:28:29Z</time>
      </trkpt>
      <trkpt lat="44.00355" lon="5.29017">
        <ele>770.5</ele>
        <time>2022-01-20T14:28:48Z</time>
      </trkpt>
      <trkpt lat="44.00337" lon="5.29">
        <ele>772.6</ele>
        <time>2022-01-20T14:29:13Z</time>
      </trkpt>
      <trkpt lat="44.00316" lon="5.2899">
        <ele>774.2</ele>
        <time>2022-01-20T14:29:34Z</time>
      </trkpt>
      <trkpt lat="44.00299" lon="5.2898">
        <ele>775.5</ele>
        <time>2022-01-20T14:29:52Z</time>
      </trkpt>
      <trkpt lat="44.00283" lon="5.2897">
        <ele>776.7</ele>
        <time>2022-01-20T14:30:13Z</time>
      </trkpt>
      <trkpt lat="44.00269" lon="5.2896">
        <ele>778.1</ele>
        <time>2022-01-20T14:30:30Z</time>
      </trkpt>
      <trkpt lat="44.00251" lon="5.28947">
        <ele>779.8</ele>
        <time>2022-01-20T14:30:50Z</time>
      </trkpt>
      <trkpt lat="44.00252" lon="5.28942">
        <ele>779.9</ele>
        <time>2022-01-20T14:31:03Z</time>
      </trkpt>
      <trkpt lat="44.00243" lon="5.28937">
        <ele>780.8</ele>
        <time>2022-01-20T14:31:15Z</time>
      </trkpt>
      <trkpt lat="44.00226" lon="5.28931">
        <ele>782.2</ele>
        <time>2022-01-20T14:31:37Z</time>
      </trkpt>
      <trkpt lat="44.00207" lon="5.28917">
        <ele>784.1</ele>
        <time>2022-01-20T14:31:56Z</time>
      </trkpt>
      <trkpt lat="44.00189" lon="5.28907">
        <ele>785.5</ele>
        <time>2022-01-20T14:32:13Z</time>
      </trkpt>
      <trkpt lat="44.00172" lon="5.28893">
        <ele>786.7</ele>
        <time>2022-01-20T14:32:30Z</time>
      </trkpt>
      <trkpt lat="44.0016" lon="5.28882">
        <ele>787.1</ele>
        <time>2022-01-20T14:32:40Z</time>
      </trkpt>
      <trkpt lat="44.00137" lon="5.28868">
        <ele>787.8</ele>
        <time>2022-01-20T14:33:02Z</time>
      </trkpt>
      <trkpt lat="44.00115" lon="5.28854">
        <ele>788</ele>
        <time>2022-01-20T14:33:20Z</time>
      </trkpt>
      <trkpt lat="44.00102" lon="5.28843">
        <ele>787.8</ele>
        <time>2022-01-20T14:33:32Z</time>
      </trkpt>
      <trkpt lat="44.00094" lon="5.28837">
        <ele>787.5</ele>
        <time>2022-01-20T14:33:50Z</time>
      </trkpt>
      <trkpt lat="44.00091" lon="5.28837">
        <ele>787.4</ele>
        <time>2022-01-20T14:34:10Z</time>
      </trkpt>
      <trkpt lat="44.00093" lon="5.28837">
        <ele>787.4</ele>
        <time>2022-01-20T14:34:44Z</time>
      </trkpt>
      <trkpt lat="44.00098" lon="5.28838">
        <ele>787.6</ele>
        <time>2022-01-20T14:34:53Z</time>
      </trkpt>
      <trkpt lat="44.00097" lon="5.28838">
        <ele>787.6</ele>
        <time>2022-01-20T14:35:03Z</time>
      </trkpt>
      <trkpt lat="44.00094" lon="5.28838">
        <ele>787.5</ele>
        <time>2022-01-20T14:35:06Z</time>
      </trkpt>
      <trkpt lat="44.00091" lon="5.28838">
        <ele>787.4</ele>
        <time>2022-01-20T14:35:17Z</time>
      </trkpt>
      <trkpt lat="44.00092" lon="5.28838">
        <ele>787.4</ele>
        <time>2022-01-20T14:35:20Z</time>
      </trkpt>
      <trkpt lat="44.00091" lon="5.28837">
        <ele>787.4</ele>
        <time>2022-01-20T14:35:46Z</time>
      </trkpt>
      <trkpt lat="44.00087" lon="5.28836">
        <ele>787.2</ele>
        <time>2022-01-20T14:35:50Z</time>
      </trkpt>
      <trkpt lat="44.00071" lon="5.28829">
        <ele>785</ele>
        <time>2022-01-20T14:36:03Z</time>
      </trkpt>
      <trkpt lat="44.00055" lon="5.28823">
        <ele>782.5</ele>
        <time>2022-01-20T14:36:16Z</time>
      </trkpt>
      <trkpt lat="44.00055" lon="5.28824">
        <ele>782.6</ele>
        <time>2022-01-20T14:36:17Z</time>
      </trkpt>
      <trkpt lat="44.00036" lon="5.28821">
        <ele>780.8</ele>
        <time>2022-01-20T14:36:35Z</time>
      </trkpt>
      <trkpt lat="44.00024" lon="5.28822">
        <ele>780.2</ele>
        <time>2022-01-20T14:36:49Z</time>
      </trkpt>
      <trkpt lat="44.00017" lon="5.28824">
        <ele>780.3</ele>
        <time>2022-01-20T14:37:03Z</time>
      </trkpt>
      <trkpt lat="44.00016" lon="5.28824">
        <ele>780.2</ele>
        <time>2022-01-20T14:37:05Z</time>
      </trkpt>
      <trkpt lat="44.00013" lon="5.28822">
        <ele>779.8</ele>
        <time>2022-01-20T14:37:08Z</time>
      </trkpt>
      <trkpt lat="43.99998" lon="5.28811">
        <ele>777.7</ele>
        <time>2022-01-20T14:37:25Z</time>
      </trkpt>
      <trkpt lat="43.99984" lon="5.28803">
        <ele>776</ele>
        <time>2022-01-20T14:37:42Z</time>
      </trkpt>
      <trkpt lat="43.99964" lon="5.2879">
        <ele>773.6</ele>
        <time>2022-01-20T14:38:04Z</time>
      </trkpt>
      <trkpt lat="43.99949" lon="5.28782">
        <ele>771.9</ele>
        <time>2022-01-20T14:38:24Z</time>
      </trkpt>
      <trkpt lat="43.99942" lon="5.2878">
        <ele>771.3</ele>
        <time>2022-01-20T14:38:32Z</time>
      </trkpt>
      <trkpt lat="43.99927" lon="5.28778">
        <ele>770.4</ele>
        <time>2022-01-20T14:38:50Z</time>
      </trkpt>
      <trkpt lat="43.99914" lon="5.28779">
        <ele>769.9</ele>
        <time>2022-01-20T14:39:06Z</time>
      </trkpt>
      <trkpt lat="43.99896" lon="5.28779">
        <ele>768.1</ele>
        <time>2022-01-20T14:39:26Z</time>
      </trkpt>
      <trkpt lat="43.99892" lon="5.28779">
        <ele>767.6</ele>
        <time>2022-01-20T14:39:32Z</time>
      </trkpt>
      <trkpt lat="43.9989" lon="5.2878">
        <ele>767.7</ele>
        <time>2022-01-20T14:39:35Z</time>
      </trkpt>
      <trkpt lat="43.99888" lon="5.28785">
        <ele>768.8</ele>
        <time>2022-01-20T14:39:48Z</time>
      </trkpt>
      <trkpt lat="43.99885" lon="5.28784">
        <ele>768.3</ele>
        <time>2022-01-20T14:39:59Z</time>
      </trkpt>
      <trkpt lat="43.99883" lon="5.28784">
        <ele>768.1</ele>
        <time>2022-01-20T14:40:01Z</time>
      </trkpt>
      <trkpt lat="43.99862" lon="5.28785">
        <ele>766.9</ele>
        <time>2022-01-20T14:40:17Z</time>
      </trkpt>
      <trkpt lat="43.99843" lon="5.28784">
        <ele>766.3</ele>
        <time>2022-01-20T14:40:33Z</time>
      </trkpt>
      <trkpt lat="43.99828" lon="5.28775">
        <ele>764.9</ele>
        <time>2022-01-20T14:40:48Z</time>
      </trkpt>
      <trkpt lat="43.99822" lon="5.28764">
        <ele>763.9</ele>
        <time>2022-01-20T14:41:00Z</time>
      </trkpt>
      <trkpt lat="43.99814" lon="5.28746">
        <ele>762.3</ele>
        <time>2022-01-20T14:41:18Z</time>
      </trkpt>
      <trkpt lat="43.99806" lon="5.2873">
        <ele>760.8</ele>
        <time>2022-01-20T14:41:34Z</time>
      </trkpt>
      <trkpt lat="43.99796" lon="5.28716">
        <ele>759.8</ele>
        <time>2022-01-20T14:41:46Z</time>
      </trkpt>
      <trkpt lat="43.99794" lon="5.28705">
        <ele>758.9</ele>
        <time>2022-01-20T14:41:59Z</time>
      </trkpt>
      <trkpt lat="43.99786" lon="5.28699">
        <ele>758.4</ele>
        <time>2022-01-20T14:42:11Z</time>
      </trkpt>
      <trkpt lat="43.99783" lon="5.28693">
        <ele>757.9</ele>
        <time>2022-01-20T14:42:14Z</time>
      </trkpt>
      <trkpt lat="43.99778" lon="5.28684">
        <ele>757.6</ele>
        <time>2022-01-20T14:42:25Z</time>
      </trkpt>
      <trkpt lat="43.99762" lon="5.28668">
        <ele>756.5</ele>
        <time>2022-01-20T14:42:45Z</time>
      </trkpt>
      <trkpt lat="43.99756" lon="5.28651">
        <ele>756.1</ele>
        <time>2022-01-20T14:43:02Z</time>
      </trkpt>
      <trkpt lat="43.99757" lon="5.28651">
        <ele>756.1</ele>
        <time>2022-01-20T14:43:17Z</time>
      </trkpt>
      <trkpt lat="43.99756" lon="5.2865">
        <ele>756.1</ele>
        <time>2022-01-20T14:43:44Z</time>
      </trkpt>
    </trkseg>
  </trk>
</gpx>